<?xml version="1.0" encoding="UTF-8" standalone="no" ?>
<gpx xmlns="http://www.topografix.com/GPX/1/1" xmlns:xsi="http://www.w3.org/2001/XMLSchema-instance" xsi:schemaLocation="http://www.topografix.com/GPX/1/1 http://www.topografix.com/GPX/1/1/gpx.xsd" version="1.1" creator="VisuGPX - https://www.visugpx.com">
  <metadata>
    <name>Chochotte</name>
  </metadata>
  <trk>
    <name><![CDATA[Petit tour dans les bois en fin d'après-midi]]></name>
    <trkseg>
      <trkpt lat="45.42624" lon="4.58069">
        <ele>639.8</ele>
        <time>1970-01-01T00:00:00.000Z</time>
      </trkpt>
      <trkpt lat="45.42623" lon="4.58083">
        <ele>640.2</ele>
        <time>1970-01-01T00:00:03.000Z</time>
      </trkpt>
      <trkpt lat="45.42623" lon="4.58091">
        <ele>640</ele>
        <time>1970-01-01T00:00:13.000Z</time>
      </trkpt>
      <trkpt lat="45.42622" lon="4.58099">
        <ele>639.9</ele>
        <time>1970-01-01T00:00:19.000Z</time>
      </trkpt>
      <trkpt lat="45.42622" lon="4.58106">
        <ele>639.9</ele>
        <time>1970-01-01T00:00:21.000Z</time>
      </trkpt>
      <trkpt lat="45.42624" lon="4.58091">
        <ele>639.7</ele>
        <time>1970-01-01T00:00:26.000Z</time>
      </trkpt>
      <trkpt lat="45.42623" lon="4.5811">
        <ele>639.6</ele>
        <time>1970-01-01T00:00:36.000Z</time>
      </trkpt>
      <trkpt lat="45.42624" lon="4.58103">
        <ele>639.6</ele>
        <time>1970-01-01T00:00:46.000Z</time>
      </trkpt>
      <trkpt lat="45.42625" lon="4.58108">
        <ele>639.5</ele>
        <time>1970-01-01T00:00:54.000Z</time>
      </trkpt>
      <trkpt lat="45.42623" lon="4.58106">
        <ele>639.5</ele>
        <time>1970-01-01T00:00:58.000Z</time>
      </trkpt>
      <trkpt lat="45.42621" lon="4.5811">
        <ele>639.5</ele>
        <time>1970-01-01T00:01:00.000Z</time>
      </trkpt>
      <trkpt lat="45.42619" lon="4.58116">
        <ele>639.3</ele>
        <time>1970-01-01T00:01:03.000Z</time>
      </trkpt>
      <trkpt lat="45.42615" lon="4.58123">
        <ele>638.8</ele>
        <time>1970-01-01T00:01:06.000Z</time>
      </trkpt>
      <trkpt lat="45.42614" lon="4.58129">
        <ele>638.5</ele>
        <time>1970-01-01T00:01:08.000Z</time>
      </trkpt>
      <trkpt lat="45.42612" lon="4.58133">
        <ele>638.2</ele>
        <time>1970-01-01T00:01:09.000Z</time>
      </trkpt>
      <trkpt lat="45.42612" lon="4.58139">
        <ele>637.9</ele>
        <time>1970-01-01T00:01:11.000Z</time>
      </trkpt>
      <trkpt lat="45.42611" lon="4.58144">
        <ele>637.6</ele>
        <time>1970-01-01T00:01:12.000Z</time>
      </trkpt>
      <trkpt lat="45.42611" lon="4.58148">
        <ele>637.5</ele>
        <time>1970-01-01T00:01:13.000Z</time>
      </trkpt>
      <trkpt lat="45.42612" lon="4.58153">
        <ele>637.3</ele>
        <time>1970-01-01T00:01:14.000Z</time>
      </trkpt>
      <trkpt lat="45.42612" lon="4.5816">
        <ele>637</ele>
        <time>1970-01-01T00:01:16.000Z</time>
      </trkpt>
      <trkpt lat="45.42613" lon="4.58164">
        <ele>636.9</ele>
        <time>1970-01-01T00:01:17.000Z</time>
      </trkpt>
      <trkpt lat="45.42613" lon="4.58169">
        <ele>636.7</ele>
        <time>1970-01-01T00:01:18.000Z</time>
      </trkpt>
      <trkpt lat="45.42614" lon="4.58174">
        <ele>636.5</ele>
        <time>1970-01-01T00:01:20.000Z</time>
      </trkpt>
      <trkpt lat="45.42614" lon="4.58181">
        <ele>636.3</ele>
        <time>1970-01-01T00:01:22.000Z</time>
      </trkpt>
      <trkpt lat="45.42615" lon="4.58187">
        <ele>636.7</ele>
        <time>1970-01-01T00:01:24.000Z</time>
      </trkpt>
      <trkpt lat="45.42615" lon="4.58191">
        <ele>636.7</ele>
        <time>1970-01-01T00:01:26.000Z</time>
      </trkpt>
      <trkpt lat="45.42617" lon="4.58194">
        <ele>636.7</ele>
        <time>1970-01-01T00:01:30.000Z</time>
      </trkpt>
      <trkpt lat="45.42619" lon="4.58198">
        <ele>636.5</ele>
        <time>1970-01-01T00:01:39.000Z</time>
      </trkpt>
      <trkpt lat="45.42617" lon="4.58202">
        <ele>635.8</ele>
        <time>1970-01-01T00:01:40.000Z</time>
      </trkpt>
      <trkpt lat="45.42617" lon="4.58207">
        <ele>635.1</ele>
        <time>1970-01-01T00:01:42.000Z</time>
      </trkpt>
      <trkpt lat="45.42618" lon="4.58213">
        <ele>634.4</ele>
        <time>1970-01-01T00:01:43.000Z</time>
      </trkpt>
      <trkpt lat="45.42625" lon="4.58227">
        <ele>632.9</ele>
        <time>1970-01-01T00:01:45.000Z</time>
      </trkpt>
      <trkpt lat="45.4263" lon="4.58233">
        <ele>631.6</ele>
        <time>1970-01-01T00:01:46.000Z</time>
      </trkpt>
      <trkpt lat="45.42639" lon="4.58242">
        <ele>629</ele>
        <time>1970-01-01T00:01:48.000Z</time>
      </trkpt>
      <trkpt lat="45.42646" lon="4.58248">
        <ele>627</ele>
        <time>1970-01-01T00:01:51.000Z</time>
      </trkpt>
      <trkpt lat="45.42648" lon="4.58251">
        <ele>626.1</ele>
        <time>1970-01-01T00:01:52.000Z</time>
      </trkpt>
      <trkpt lat="45.42649" lon="4.58256">
        <ele>624.9</ele>
        <time>1970-01-01T00:01:54.000Z</time>
      </trkpt>
      <trkpt lat="45.42648" lon="4.58262">
        <ele>625.1</ele>
        <time>1970-01-01T00:01:55.000Z</time>
      </trkpt>
      <trkpt lat="45.42646" lon="4.58273">
        <ele>625.3</ele>
        <time>1970-01-01T00:01:56.000Z</time>
      </trkpt>
      <trkpt lat="45.42645" lon="4.58283">
        <ele>625.4</ele>
        <time>1970-01-01T00:01:57.000Z</time>
      </trkpt>
      <trkpt lat="45.42646" lon="4.58303">
        <ele>625.8</ele>
        <time>1970-01-01T00:01:59.000Z</time>
      </trkpt>
      <trkpt lat="45.42646" lon="4.58314">
        <ele>625.9</ele>
        <time>1970-01-01T00:02:00.000Z</time>
      </trkpt>
      <trkpt lat="45.42649" lon="4.58335">
        <ele>624.1</ele>
        <time>1970-01-01T00:02:02.000Z</time>
      </trkpt>
      <trkpt lat="45.42652" lon="4.58344">
        <ele>623.5</ele>
        <time>1970-01-01T00:02:03.000Z</time>
      </trkpt>
      <trkpt lat="45.42658" lon="4.58357">
        <ele>622.4</ele>
        <time>1970-01-01T00:02:05.000Z</time>
      </trkpt>
      <trkpt lat="45.42662" lon="4.58369">
        <ele>621.5</ele>
        <time>1970-01-01T00:02:07.000Z</time>
      </trkpt>
      <trkpt lat="45.42663" lon="4.58374">
        <ele>621.1</ele>
        <time>1970-01-01T00:02:08.000Z</time>
      </trkpt>
      <trkpt lat="45.42666" lon="4.58383">
        <ele>620.5</ele>
        <time>1970-01-01T00:02:10.000Z</time>
      </trkpt>
      <trkpt lat="45.42667" lon="4.58389">
        <ele>620.2</ele>
        <time>1970-01-01T00:02:11.000Z</time>
      </trkpt>
      <trkpt lat="45.42667" lon="4.58397">
        <ele>620</ele>
        <time>1970-01-01T00:02:13.000Z</time>
      </trkpt>
      <trkpt lat="45.42667" lon="4.58403">
        <ele>619.8</ele>
        <time>1970-01-01T00:02:14.000Z</time>
      </trkpt>
      <trkpt lat="45.42667" lon="4.58409">
        <ele>619.7</ele>
        <time>1970-01-01T00:02:16.000Z</time>
      </trkpt>
      <trkpt lat="45.42667" lon="4.58415">
        <ele>619.7</ele>
        <time>1970-01-01T00:02:18.000Z</time>
      </trkpt>
      <trkpt lat="45.42666" lon="4.58423">
        <ele>619.6</ele>
        <time>1970-01-01T00:02:20.000Z</time>
      </trkpt>
      <trkpt lat="45.42665" lon="4.5843">
        <ele>619.5</ele>
        <time>1970-01-01T00:02:23.000Z</time>
      </trkpt>
      <trkpt lat="45.42664" lon="4.58437">
        <ele>619.5</ele>
        <time>1970-01-01T00:02:26.000Z</time>
      </trkpt>
      <trkpt lat="45.42664" lon="4.58441">
        <ele>619.4</ele>
        <time>1970-01-01T00:02:28.000Z</time>
      </trkpt>
      <trkpt lat="45.42662" lon="4.58447">
        <ele>620.2</ele>
        <time>1970-01-01T00:02:31.000Z</time>
      </trkpt>
      <trkpt lat="45.4266" lon="4.5845">
        <ele>620.8</ele>
        <time>1970-01-01T00:02:33.000Z</time>
      </trkpt>
      <trkpt lat="45.42658" lon="4.58454">
        <ele>621.3</ele>
        <time>1970-01-01T00:02:35.000Z</time>
      </trkpt>
      <trkpt lat="45.42654" lon="4.58456">
        <ele>622.3</ele>
        <time>1970-01-01T00:02:37.000Z</time>
      </trkpt>
      <trkpt lat="45.42651" lon="4.58456">
        <ele>623.1</ele>
        <time>1970-01-01T00:02:38.000Z</time>
      </trkpt>
      <trkpt lat="45.42648" lon="4.58455">
        <ele>624</ele>
        <time>1970-01-01T00:02:40.000Z</time>
      </trkpt>
      <trkpt lat="45.42644" lon="4.58453">
        <ele>625.4</ele>
        <time>1970-01-01T00:02:43.000Z</time>
      </trkpt>
      <trkpt lat="45.42641" lon="4.58454">
        <ele>626.2</ele>
        <time>1970-01-01T00:02:45.000Z</time>
      </trkpt>
      <trkpt lat="45.42636" lon="4.58456">
        <ele>627.4</ele>
        <time>1970-01-01T00:02:47.000Z</time>
      </trkpt>
      <trkpt lat="45.42632" lon="4.58456">
        <ele>628.5</ele>
        <time>1970-01-01T00:02:50.000Z</time>
      </trkpt>
      <trkpt lat="45.42628" lon="4.58458">
        <ele>629.4</ele>
        <time>1970-01-01T00:02:52.000Z</time>
      </trkpt>
      <trkpt lat="45.42624" lon="4.5846">
        <ele>630.5</ele>
        <time>1970-01-01T00:02:55.000Z</time>
      </trkpt>
      <trkpt lat="45.42619" lon="4.58459">
        <ele>631.6</ele>
        <time>1970-01-01T00:02:57.000Z</time>
      </trkpt>
      <trkpt lat="45.42614" lon="4.58457">
        <ele>632.9</ele>
        <time>1970-01-01T00:03:00.000Z</time>
      </trkpt>
      <trkpt lat="45.4261" lon="4.58455">
        <ele>634</ele>
        <time>1970-01-01T00:03:03.000Z</time>
      </trkpt>
      <trkpt lat="45.42606" lon="4.58454">
        <ele>634.7</ele>
        <time>1970-01-01T00:03:05.000Z</time>
      </trkpt>
      <trkpt lat="45.42602" lon="4.58452">
        <ele>635.6</ele>
        <time>1970-01-01T00:03:08.000Z</time>
      </trkpt>
      <trkpt lat="45.42598" lon="4.58451">
        <ele>636.4</ele>
        <time>1970-01-01T00:03:11.000Z</time>
      </trkpt>
      <trkpt lat="45.42595" lon="4.5845">
        <ele>637.2</ele>
        <time>1970-01-01T00:03:13.000Z</time>
      </trkpt>
      <trkpt lat="45.42591" lon="4.58449">
        <ele>638</ele>
        <time>1970-01-01T00:03:15.000Z</time>
      </trkpt>
      <trkpt lat="45.42588" lon="4.58447">
        <ele>638.9</ele>
        <time>1970-01-01T00:03:18.000Z</time>
      </trkpt>
      <trkpt lat="45.42583" lon="4.58446">
        <ele>640</ele>
        <time>1970-01-01T00:03:22.000Z</time>
      </trkpt>
      <trkpt lat="45.4258" lon="4.58443">
        <ele>640.9</ele>
        <time>1970-01-01T00:03:25.000Z</time>
      </trkpt>
      <trkpt lat="45.42577" lon="4.58441">
        <ele>641.6</ele>
        <time>1970-01-01T00:03:28.000Z</time>
      </trkpt>
      <trkpt lat="45.42573" lon="4.58439">
        <ele>642.7</ele>
        <time>1970-01-01T00:03:32.000Z</time>
      </trkpt>
      <trkpt lat="45.42569" lon="4.58437">
        <ele>643.8</ele>
        <time>1970-01-01T00:03:34.000Z</time>
      </trkpt>
      <trkpt lat="45.42566" lon="4.58436">
        <ele>644.7</ele>
        <time>1970-01-01T00:03:37.000Z</time>
      </trkpt>
      <trkpt lat="45.42563" lon="4.58436">
        <ele>645.5</ele>
        <time>1970-01-01T00:03:39.000Z</time>
      </trkpt>
      <trkpt lat="45.4256" lon="4.58433">
        <ele>646.7</ele>
        <time>1970-01-01T00:03:42.000Z</time>
      </trkpt>
      <trkpt lat="45.42556" lon="4.58431">
        <ele>647.7</ele>
        <time>1970-01-01T00:03:44.000Z</time>
      </trkpt>
      <trkpt lat="45.42554" lon="4.58429">
        <ele>648.4</ele>
        <time>1970-01-01T00:03:46.000Z</time>
      </trkpt>
      <trkpt lat="45.42551" lon="4.58427">
        <ele>649.3</ele>
        <time>1970-01-01T00:03:49.000Z</time>
      </trkpt>
      <trkpt lat="45.42548" lon="4.58424">
        <ele>650.2</ele>
        <time>1970-01-01T00:03:54.000Z</time>
      </trkpt>
      <trkpt lat="45.42545" lon="4.58421">
        <ele>651.2</ele>
        <time>1970-01-01T00:03:57.000Z</time>
      </trkpt>
      <trkpt lat="45.42543" lon="4.58419">
        <ele>652.1</ele>
        <time>1970-01-01T00:04:00.000Z</time>
      </trkpt>
      <trkpt lat="45.42539" lon="4.58417">
        <ele>653.4</ele>
        <time>1970-01-01T00:04:03.000Z</time>
      </trkpt>
      <trkpt lat="45.42536" lon="4.58415">
        <ele>654.6</ele>
        <time>1970-01-01T00:04:08.000Z</time>
      </trkpt>
      <trkpt lat="45.42532" lon="4.58414">
        <ele>655.6</ele>
        <time>1970-01-01T00:04:11.000Z</time>
      </trkpt>
      <trkpt lat="45.42529" lon="4.58412">
        <ele>656.8</ele>
        <time>1970-01-01T00:04:14.000Z</time>
      </trkpt>
      <trkpt lat="45.42526" lon="4.58411">
        <ele>657.8</ele>
        <time>1970-01-01T00:04:17.000Z</time>
      </trkpt>
      <trkpt lat="45.42522" lon="4.58408">
        <ele>659</ele>
        <time>1970-01-01T00:04:21.000Z</time>
      </trkpt>
      <trkpt lat="45.4252" lon="4.58405">
        <ele>659.8</ele>
        <time>1970-01-01T00:04:25.000Z</time>
      </trkpt>
      <trkpt lat="45.42515" lon="4.58403">
        <ele>661.1</ele>
        <time>1970-01-01T00:06:08.000Z</time>
      </trkpt>
      <trkpt lat="45.42512" lon="4.584">
        <ele>662.1</ele>
        <time>1970-01-01T00:06:11.000Z</time>
      </trkpt>
      <trkpt lat="45.4251" lon="4.58398">
        <ele>663</ele>
        <time>1970-01-01T00:06:13.000Z</time>
      </trkpt>
      <trkpt lat="45.42507" lon="4.58396">
        <ele>663.9</ele>
        <time>1970-01-01T00:06:16.000Z</time>
      </trkpt>
      <trkpt lat="45.42504" lon="4.58393">
        <ele>665</ele>
        <time>1970-01-01T00:06:20.000Z</time>
      </trkpt>
      <trkpt lat="45.42501" lon="4.58391">
        <ele>665.8</ele>
        <time>1970-01-01T00:06:23.000Z</time>
      </trkpt>
      <trkpt lat="45.42499" lon="4.58389">
        <ele>666.6</ele>
        <time>1970-01-01T00:06:28.000Z</time>
      </trkpt>
      <trkpt lat="45.42496" lon="4.58386">
        <ele>667.6</ele>
        <time>1970-01-01T00:06:32.000Z</time>
      </trkpt>
      <trkpt lat="45.42493" lon="4.58383">
        <ele>668.6</ele>
        <time>1970-01-01T00:06:36.000Z</time>
      </trkpt>
      <trkpt lat="45.4249" lon="4.58381">
        <ele>669.7</ele>
        <time>1970-01-01T00:06:39.000Z</time>
      </trkpt>
      <trkpt lat="45.42486" lon="4.58379">
        <ele>670.7</ele>
        <time>1970-01-01T00:06:44.000Z</time>
      </trkpt>
      <trkpt lat="45.42482" lon="4.58378">
        <ele>672.1</ele>
        <time>1970-01-01T00:06:49.000Z</time>
      </trkpt>
      <trkpt lat="45.42479" lon="4.58377">
        <ele>673</ele>
        <time>1970-01-01T00:06:52.000Z</time>
      </trkpt>
      <trkpt lat="45.42476" lon="4.58374">
        <ele>674.2</ele>
        <time>1970-01-01T00:06:56.000Z</time>
      </trkpt>
      <trkpt lat="45.42472" lon="4.58372">
        <ele>675.3</ele>
        <time>1970-01-01T00:07:00.000Z</time>
      </trkpt>
      <trkpt lat="45.42469" lon="4.58371">
        <ele>675.9</ele>
        <time>1970-01-01T00:07:03.000Z</time>
      </trkpt>
      <trkpt lat="45.42466" lon="4.58368">
        <ele>676.7</ele>
        <time>1970-01-01T00:07:07.000Z</time>
      </trkpt>
      <trkpt lat="45.42463" lon="4.58366">
        <ele>677.3</ele>
        <time>1970-01-01T00:07:10.000Z</time>
      </trkpt>
      <trkpt lat="45.4246" lon="4.58363">
        <ele>678.1</ele>
        <time>1970-01-01T00:07:14.000Z</time>
      </trkpt>
      <trkpt lat="45.42457" lon="4.58362">
        <ele>678.8</ele>
        <time>1970-01-01T00:07:18.000Z</time>
      </trkpt>
      <trkpt lat="45.42454" lon="4.5836">
        <ele>679.7</ele>
        <time>1970-01-01T00:07:21.000Z</time>
      </trkpt>
      <trkpt lat="45.4245" lon="4.58357">
        <ele>680.8</ele>
        <time>1970-01-01T00:07:25.000Z</time>
      </trkpt>
      <trkpt lat="45.42446" lon="4.58356">
        <ele>681.8</ele>
        <time>1970-01-01T00:07:28.000Z</time>
      </trkpt>
      <trkpt lat="45.42443" lon="4.58355">
        <ele>682.6</ele>
        <time>1970-01-01T00:07:31.000Z</time>
      </trkpt>
      <trkpt lat="45.42441" lon="4.58354">
        <ele>683.4</ele>
        <time>1970-01-01T00:07:33.000Z</time>
      </trkpt>
      <trkpt lat="45.42438" lon="4.58352">
        <ele>684.1</ele>
        <time>1970-01-01T00:07:36.000Z</time>
      </trkpt>
      <trkpt lat="45.42435" lon="4.5835">
        <ele>684.9</ele>
        <time>1970-01-01T00:07:41.000Z</time>
      </trkpt>
      <trkpt lat="45.42432" lon="4.58349">
        <ele>685.6</ele>
        <time>1970-01-01T00:07:45.000Z</time>
      </trkpt>
      <trkpt lat="45.42428" lon="4.58349">
        <ele>686.5</ele>
        <time>1970-01-01T00:07:49.000Z</time>
      </trkpt>
      <trkpt lat="45.42424" lon="4.5835">
        <ele>687.4</ele>
        <time>1970-01-01T00:07:52.000Z</time>
      </trkpt>
      <trkpt lat="45.42421" lon="4.58348">
        <ele>688.2</ele>
        <time>1970-01-01T00:07:56.000Z</time>
      </trkpt>
      <trkpt lat="45.42418" lon="4.58348">
        <ele>689</ele>
        <time>1970-01-01T00:08:01.000Z</time>
      </trkpt>
      <trkpt lat="45.42415" lon="4.58348">
        <ele>689.7</ele>
        <time>1970-01-01T00:08:03.000Z</time>
      </trkpt>
      <trkpt lat="45.42412" lon="4.58346">
        <ele>690.7</ele>
        <time>1970-01-01T00:08:09.000Z</time>
      </trkpt>
      <trkpt lat="45.42408" lon="4.58347">
        <ele>691.7</ele>
        <time>1970-01-01T00:08:12.000Z</time>
      </trkpt>
      <trkpt lat="45.42405" lon="4.58347">
        <ele>692.4</ele>
        <time>1970-01-01T00:08:16.000Z</time>
      </trkpt>
      <trkpt lat="45.42402" lon="4.58347">
        <ele>693</ele>
        <time>1970-01-01T00:08:19.000Z</time>
      </trkpt>
      <trkpt lat="45.42398" lon="4.58348">
        <ele>693.8</ele>
        <time>1970-01-01T00:08:22.000Z</time>
      </trkpt>
      <trkpt lat="45.42395" lon="4.58347">
        <ele>694.5</ele>
        <time>1970-01-01T00:08:26.000Z</time>
      </trkpt>
      <trkpt lat="45.42394" lon="4.58343">
        <ele>695.4</ele>
        <time>1970-01-01T00:08:28.000Z</time>
      </trkpt>
      <trkpt lat="45.42392" lon="4.58338">
        <ele>696.3</ele>
        <time>1970-01-01T00:08:30.000Z</time>
      </trkpt>
      <trkpt lat="45.42389" lon="4.58335">
        <ele>696.9</ele>
        <time>1970-01-01T00:08:33.000Z</time>
      </trkpt>
      <trkpt lat="45.42387" lon="4.58331">
        <ele>697.7</ele>
        <time>1970-01-01T00:08:36.000Z</time>
      </trkpt>
      <trkpt lat="45.42384" lon="4.58329">
        <ele>698.3</ele>
        <time>1970-01-01T00:08:38.000Z</time>
      </trkpt>
      <trkpt lat="45.42381" lon="4.58327">
        <ele>698.9</ele>
        <time>1970-01-01T00:08:40.000Z</time>
      </trkpt>
      <trkpt lat="45.42379" lon="4.58325">
        <ele>699.4</ele>
        <time>1970-01-01T00:08:43.000Z</time>
      </trkpt>
      <trkpt lat="45.42376" lon="4.58322">
        <ele>699.9</ele>
        <time>1970-01-01T00:08:46.000Z</time>
      </trkpt>
      <trkpt lat="45.42373" lon="4.58319">
        <ele>700.2</ele>
        <time>1970-01-01T00:08:49.000Z</time>
      </trkpt>
      <trkpt lat="45.42371" lon="4.58316">
        <ele>700.6</ele>
        <time>1970-01-01T00:08:52.000Z</time>
      </trkpt>
      <trkpt lat="45.42368" lon="4.58313">
        <ele>700.9</ele>
        <time>1970-01-01T00:08:56.000Z</time>
      </trkpt>
      <trkpt lat="45.42365" lon="4.5831">
        <ele>701.2</ele>
        <time>1970-01-01T00:08:58.000Z</time>
      </trkpt>
      <trkpt lat="45.42362" lon="4.58308">
        <ele>701.4</ele>
        <time>1970-01-01T00:09:01.000Z</time>
      </trkpt>
      <trkpt lat="45.4236" lon="4.58305">
        <ele>701.6</ele>
        <time>1970-01-01T00:09:05.000Z</time>
      </trkpt>
      <trkpt lat="45.42356" lon="4.583">
        <ele>701.9</ele>
        <time>1970-01-01T00:09:28.000Z</time>
      </trkpt>
      <trkpt lat="45.42354" lon="4.58297">
        <ele>702.1</ele>
        <time>1970-01-01T00:09:30.000Z</time>
      </trkpt>
      <trkpt lat="45.42353" lon="4.58294">
        <ele>702.3</ele>
        <time>1970-01-01T00:09:32.000Z</time>
      </trkpt>
      <trkpt lat="45.42351" lon="4.58291">
        <ele>702.5</ele>
        <time>1970-01-01T00:09:33.000Z</time>
      </trkpt>
      <trkpt lat="45.42348" lon="4.58289">
        <ele>702.8</ele>
        <time>1970-01-01T00:09:35.000Z</time>
      </trkpt>
      <trkpt lat="45.42345" lon="4.58286">
        <ele>703.2</ele>
        <time>1970-01-01T00:09:37.000Z</time>
      </trkpt>
      <trkpt lat="45.42341" lon="4.58282">
        <ele>703.7</ele>
        <time>1970-01-01T00:09:40.000Z</time>
      </trkpt>
      <trkpt lat="45.42338" lon="4.58279">
        <ele>704.1</ele>
        <time>1970-01-01T00:09:41.000Z</time>
      </trkpt>
      <trkpt lat="45.42334" lon="4.58273">
        <ele>704.7</ele>
        <time>1970-01-01T00:09:44.000Z</time>
      </trkpt>
      <trkpt lat="45.42331" lon="4.58271">
        <ele>705.1</ele>
        <time>1970-01-01T00:09:45.000Z</time>
      </trkpt>
      <trkpt lat="45.42327" lon="4.58266">
        <ele>705.5</ele>
        <time>1970-01-01T00:09:47.000Z</time>
      </trkpt>
      <trkpt lat="45.42325" lon="4.58263">
        <ele>705.9</ele>
        <time>1970-01-01T00:09:48.000Z</time>
      </trkpt>
      <trkpt lat="45.42322" lon="4.58258">
        <ele>706.4</ele>
        <time>1970-01-01T00:09:50.000Z</time>
      </trkpt>
      <trkpt lat="45.42319" lon="4.58252">
        <ele>707.5</ele>
        <time>1970-01-01T00:09:52.000Z</time>
      </trkpt>
      <trkpt lat="45.42317" lon="4.58248">
        <ele>708.2</ele>
        <time>1970-01-01T00:09:54.000Z</time>
      </trkpt>
      <trkpt lat="45.42318" lon="4.58243">
        <ele>708.8</ele>
        <time>1970-01-01T00:09:56.000Z</time>
      </trkpt>
      <trkpt lat="45.42318" lon="4.58237">
        <ele>709.7</ele>
        <time>1970-01-01T00:09:58.000Z</time>
      </trkpt>
      <trkpt lat="45.42317" lon="4.58233">
        <ele>710.4</ele>
        <time>1970-01-01T00:10:00.000Z</time>
      </trkpt>
      <trkpt lat="45.42317" lon="4.58229">
        <ele>711.2</ele>
        <time>1970-01-01T00:10:03.000Z</time>
      </trkpt>
      <trkpt lat="45.42316" lon="4.58222">
        <ele>712.5</ele>
        <time>1970-01-01T00:10:07.000Z</time>
      </trkpt>
      <trkpt lat="45.42315" lon="4.58217">
        <ele>713.2</ele>
        <time>1970-01-01T00:10:10.000Z</time>
      </trkpt>
      <trkpt lat="45.42314" lon="4.58211">
        <ele>714.1</ele>
        <time>1970-01-01T00:10:12.000Z</time>
      </trkpt>
      <trkpt lat="45.42313" lon="4.58207">
        <ele>714.6</ele>
        <time>1970-01-01T00:10:15.000Z</time>
      </trkpt>
      <trkpt lat="45.42312" lon="4.58202">
        <ele>715.1</ele>
        <time>1970-01-01T00:10:17.000Z</time>
      </trkpt>
      <trkpt lat="45.42312" lon="4.58198">
        <ele>715.6</ele>
        <time>1970-01-01T00:10:20.000Z</time>
      </trkpt>
      <trkpt lat="45.42311" lon="4.58194">
        <ele>716</ele>
        <time>1970-01-01T00:10:23.000Z</time>
      </trkpt>
      <trkpt lat="45.42311" lon="4.58189">
        <ele>716.4</ele>
        <time>1970-01-01T00:10:26.000Z</time>
      </trkpt>
      <trkpt lat="45.4231" lon="4.58184">
        <ele>716.9</ele>
        <time>1970-01-01T00:10:30.000Z</time>
      </trkpt>
      <trkpt lat="45.4231" lon="4.5818">
        <ele>717.3</ele>
        <time>1970-01-01T00:11:48.000Z</time>
      </trkpt>
      <trkpt lat="45.42309" lon="4.58176">
        <ele>717.7</ele>
        <time>1970-01-01T00:11:50.000Z</time>
      </trkpt>
      <trkpt lat="45.42306" lon="4.58172">
        <ele>718.2</ele>
        <time>1970-01-01T00:11:52.000Z</time>
      </trkpt>
      <trkpt lat="45.42303" lon="4.58166">
        <ele>718.8</ele>
        <time>1970-01-01T00:11:56.000Z</time>
      </trkpt>
      <trkpt lat="45.42301" lon="4.5816">
        <ele>719.4</ele>
        <time>1970-01-01T00:12:00.000Z</time>
      </trkpt>
      <trkpt lat="45.42299" lon="4.58156">
        <ele>719.8</ele>
        <time>1970-01-01T00:12:02.000Z</time>
      </trkpt>
      <trkpt lat="45.42297" lon="4.58152">
        <ele>720.2</ele>
        <time>1970-01-01T00:12:05.000Z</time>
      </trkpt>
      <trkpt lat="45.42296" lon="4.58147">
        <ele>720.6</ele>
        <time>1970-01-01T00:12:08.000Z</time>
      </trkpt>
      <trkpt lat="45.42295" lon="4.58143">
        <ele>721</ele>
        <time>1970-01-01T00:12:10.000Z</time>
      </trkpt>
      <trkpt lat="45.42293" lon="4.5814">
        <ele>721.3</ele>
        <time>1970-01-01T00:12:12.000Z</time>
      </trkpt>
      <trkpt lat="45.42291" lon="4.58135">
        <ele>721.8</ele>
        <time>1970-01-01T00:12:15.000Z</time>
      </trkpt>
      <trkpt lat="45.42289" lon="4.5813">
        <ele>722.3</ele>
        <time>1970-01-01T00:12:18.000Z</time>
      </trkpt>
      <trkpt lat="45.42288" lon="4.58126">
        <ele>722.7</ele>
        <time>1970-01-01T00:12:21.000Z</time>
      </trkpt>
      <trkpt lat="45.42288" lon="4.58122">
        <ele>723.1</ele>
        <time>1970-01-01T00:12:23.000Z</time>
      </trkpt>
      <trkpt lat="45.42286" lon="4.58117">
        <ele>723.5</ele>
        <time>1970-01-01T00:12:26.000Z</time>
      </trkpt>
      <trkpt lat="45.42283" lon="4.58113">
        <ele>724</ele>
        <time>1970-01-01T00:12:29.000Z</time>
      </trkpt>
      <trkpt lat="45.4228" lon="4.58109">
        <ele>724.5</ele>
        <time>1970-01-01T00:12:31.000Z</time>
      </trkpt>
      <trkpt lat="45.42277" lon="4.58106">
        <ele>725</ele>
        <time>1970-01-01T00:12:34.000Z</time>
      </trkpt>
      <trkpt lat="45.42277" lon="4.58102">
        <ele>725.4</ele>
        <time>1970-01-01T00:12:50.000Z</time>
      </trkpt>
      <trkpt lat="45.42278" lon="4.58098">
        <ele>725.8</ele>
        <time>1970-01-01T00:12:56.000Z</time>
      </trkpt>
      <trkpt lat="45.42278" lon="4.58108">
        <ele>726.8</ele>
        <time>1970-01-01T00:13:43.000Z</time>
      </trkpt>
      <trkpt lat="45.42278" lon="4.58105">
        <ele>727.2</ele>
        <time>1970-01-01T00:15:55.000Z</time>
      </trkpt>
      <trkpt lat="45.42275" lon="4.58101">
        <ele>727.8</ele>
        <time>1970-01-01T00:15:57.000Z</time>
      </trkpt>
      <trkpt lat="45.42272" lon="4.58098">
        <ele>728.7</ele>
        <time>1970-01-01T00:15:59.000Z</time>
      </trkpt>
      <trkpt lat="45.42269" lon="4.58095">
        <ele>729.4</ele>
        <time>1970-01-01T00:16:02.000Z</time>
      </trkpt>
      <trkpt lat="45.42267" lon="4.58091">
        <ele>730.2</ele>
        <time>1970-01-01T00:16:05.000Z</time>
      </trkpt>
      <trkpt lat="45.42263" lon="4.58086">
        <ele>731.2</ele>
        <time>1970-01-01T00:16:08.000Z</time>
      </trkpt>
      <trkpt lat="45.42261" lon="4.58081">
        <ele>732</ele>
        <time>1970-01-01T00:16:11.000Z</time>
      </trkpt>
      <trkpt lat="45.42257" lon="4.58078">
        <ele>732.8</ele>
        <time>1970-01-01T00:16:14.000Z</time>
      </trkpt>
      <trkpt lat="45.42256" lon="4.58074">
        <ele>733.3</ele>
        <time>1970-01-01T00:16:16.000Z</time>
      </trkpt>
      <trkpt lat="45.42254" lon="4.5807">
        <ele>734</ele>
        <time>1970-01-01T00:16:18.000Z</time>
      </trkpt>
      <trkpt lat="45.42253" lon="4.58066">
        <ele>734.5</ele>
        <time>1970-01-01T00:16:20.000Z</time>
      </trkpt>
      <trkpt lat="45.42251" lon="4.58063">
        <ele>735.1</ele>
        <time>1970-01-01T00:16:22.000Z</time>
      </trkpt>
      <trkpt lat="45.42248" lon="4.58057">
        <ele>735.9</ele>
        <time>1970-01-01T00:16:26.000Z</time>
      </trkpt>
      <trkpt lat="45.42245" lon="4.58053">
        <ele>736.4</ele>
        <time>1970-01-01T00:16:28.000Z</time>
      </trkpt>
      <trkpt lat="45.42242" lon="4.58048">
        <ele>737.1</ele>
        <time>1970-01-01T00:16:31.000Z</time>
      </trkpt>
      <trkpt lat="45.42239" lon="4.58045">
        <ele>737.6</ele>
        <time>1970-01-01T00:16:34.000Z</time>
      </trkpt>
      <trkpt lat="45.42237" lon="4.5804">
        <ele>738.4</ele>
        <time>1970-01-01T00:16:38.000Z</time>
      </trkpt>
      <trkpt lat="45.42235" lon="4.58036">
        <ele>739.1</ele>
        <time>1970-01-01T00:16:41.000Z</time>
      </trkpt>
      <trkpt lat="45.42234" lon="4.58032">
        <ele>739.8</ele>
        <time>1970-01-01T00:16:44.000Z</time>
      </trkpt>
      <trkpt lat="45.42233" lon="4.58027">
        <ele>740.3</ele>
        <time>1970-01-01T00:16:46.000Z</time>
      </trkpt>
      <trkpt lat="45.42231" lon="4.58024">
        <ele>740.8</ele>
        <time>1970-01-01T00:16:49.000Z</time>
      </trkpt>
      <trkpt lat="45.42229" lon="4.58019">
        <ele>741.3</ele>
        <time>1970-01-01T00:16:52.000Z</time>
      </trkpt>
      <trkpt lat="45.42227" lon="4.58016">
        <ele>741.6</ele>
        <time>1970-01-01T00:16:55.000Z</time>
      </trkpt>
      <trkpt lat="45.42224" lon="4.58008">
        <ele>742.4</ele>
        <time>1970-01-01T00:16:59.000Z</time>
      </trkpt>
      <trkpt lat="45.4222" lon="4.58004">
        <ele>742.9</ele>
        <time>1970-01-01T00:17:02.000Z</time>
      </trkpt>
      <trkpt lat="45.42218" lon="4.57999">
        <ele>743.2</ele>
        <time>1970-01-01T00:17:06.000Z</time>
      </trkpt>
      <trkpt lat="45.42216" lon="4.57995">
        <ele>743.6</ele>
        <time>1970-01-01T00:17:10.000Z</time>
      </trkpt>
      <trkpt lat="45.42213" lon="4.5799">
        <ele>744.1</ele>
        <time>1970-01-01T00:17:14.000Z</time>
      </trkpt>
      <trkpt lat="45.4221" lon="4.57986">
        <ele>744.5</ele>
        <time>1970-01-01T00:17:18.000Z</time>
      </trkpt>
      <trkpt lat="45.42207" lon="4.57981">
        <ele>744.9</ele>
        <time>1970-01-01T00:17:21.000Z</time>
      </trkpt>
      <trkpt lat="45.42204" lon="4.57978">
        <ele>745.3</ele>
        <time>1970-01-01T00:17:23.000Z</time>
      </trkpt>
      <trkpt lat="45.42202" lon="4.57974">
        <ele>745.6</ele>
        <time>1970-01-01T00:17:26.000Z</time>
      </trkpt>
      <trkpt lat="45.42199" lon="4.57969">
        <ele>746.1</ele>
        <time>1970-01-01T00:17:29.000Z</time>
      </trkpt>
      <trkpt lat="45.42196" lon="4.57966">
        <ele>746.6</ele>
        <time>1970-01-01T00:17:32.000Z</time>
      </trkpt>
      <trkpt lat="45.42194" lon="4.57962">
        <ele>747</ele>
        <time>1970-01-01T00:17:35.000Z</time>
      </trkpt>
      <trkpt lat="45.42191" lon="4.57958">
        <ele>747.7</ele>
        <time>1970-01-01T00:17:37.000Z</time>
      </trkpt>
      <trkpt lat="45.42188" lon="4.57953">
        <ele>748.4</ele>
        <time>1970-01-01T00:17:41.000Z</time>
      </trkpt>
      <trkpt lat="45.42186" lon="4.5795">
        <ele>749</ele>
        <time>1970-01-01T00:17:45.000Z</time>
      </trkpt>
      <trkpt lat="45.42183" lon="4.57944">
        <ele>749.6</ele>
        <time>1970-01-01T00:17:49.000Z</time>
      </trkpt>
      <trkpt lat="45.4218" lon="4.5794">
        <ele>750.1</ele>
        <time>1970-01-01T00:17:51.000Z</time>
      </trkpt>
      <trkpt lat="45.42178" lon="4.57937">
        <ele>750.5</ele>
        <time>1970-01-01T00:17:53.000Z</time>
      </trkpt>
      <trkpt lat="45.42177" lon="4.57933">
        <ele>750.9</ele>
        <time>1970-01-01T00:17:56.000Z</time>
      </trkpt>
      <trkpt lat="45.42176" lon="4.57929">
        <ele>751.1</ele>
        <time>1970-01-01T00:17:58.000Z</time>
      </trkpt>
      <trkpt lat="45.42173" lon="4.57926">
        <ele>751.3</ele>
        <time>1970-01-01T00:18:08.000Z</time>
      </trkpt>
      <trkpt lat="45.42172" lon="4.57923">
        <ele>751.5</ele>
        <time>1970-01-01T00:18:10.000Z</time>
      </trkpt>
      <trkpt lat="45.42168" lon="4.57921">
        <ele>751.8</ele>
        <time>1970-01-01T00:18:14.000Z</time>
      </trkpt>
      <trkpt lat="45.42168" lon="4.57917">
        <ele>752</ele>
        <time>1970-01-01T00:18:16.000Z</time>
      </trkpt>
      <trkpt lat="45.42167" lon="4.57912">
        <ele>752.3</ele>
        <time>1970-01-01T00:18:21.000Z</time>
      </trkpt>
      <trkpt lat="45.42164" lon="4.57908">
        <ele>752.8</ele>
        <time>1970-01-01T00:18:26.000Z</time>
      </trkpt>
      <trkpt lat="45.42162" lon="4.57905">
        <ele>753.2</ele>
        <time>1970-01-01T00:18:29.000Z</time>
      </trkpt>
      <trkpt lat="45.4216" lon="4.57902">
        <ele>753.6</ele>
        <time>1970-01-01T00:18:32.000Z</time>
      </trkpt>
      <trkpt lat="45.42157" lon="4.57898">
        <ele>754.2</ele>
        <time>1970-01-01T00:18:37.000Z</time>
      </trkpt>
      <trkpt lat="45.42155" lon="4.57893">
        <ele>754.7</ele>
        <time>1970-01-01T00:18:41.000Z</time>
      </trkpt>
      <trkpt lat="45.42152" lon="4.57891">
        <ele>755.1</ele>
        <time>1970-01-01T00:18:44.000Z</time>
      </trkpt>
      <trkpt lat="45.4215" lon="4.57889">
        <ele>755.4</ele>
        <time>1970-01-01T00:18:47.000Z</time>
      </trkpt>
      <trkpt lat="45.42147" lon="4.57886">
        <ele>755.8</ele>
        <time>1970-01-01T00:18:51.000Z</time>
      </trkpt>
      <trkpt lat="45.42144" lon="4.57882">
        <ele>756.3</ele>
        <time>1970-01-01T00:18:56.000Z</time>
      </trkpt>
      <trkpt lat="45.42141" lon="4.57879">
        <ele>756.8</ele>
        <time>1970-01-01T00:18:58.000Z</time>
      </trkpt>
      <trkpt lat="45.42138" lon="4.57874">
        <ele>757.5</ele>
        <time>1970-01-01T00:19:00.000Z</time>
      </trkpt>
      <trkpt lat="45.42135" lon="4.57871">
        <ele>757.9</ele>
        <time>1970-01-01T00:19:02.000Z</time>
      </trkpt>
      <trkpt lat="45.42133" lon="4.57867">
        <ele>758.3</ele>
        <time>1970-01-01T00:19:03.000Z</time>
      </trkpt>
      <trkpt lat="45.42131" lon="4.57864">
        <ele>758.7</ele>
        <time>1970-01-01T00:19:04.000Z</time>
      </trkpt>
      <trkpt lat="45.42128" lon="4.5786">
        <ele>759.2</ele>
        <time>1970-01-01T00:19:07.000Z</time>
      </trkpt>
      <trkpt lat="45.42124" lon="4.57857">
        <ele>759.8</ele>
        <time>1970-01-01T00:19:10.000Z</time>
      </trkpt>
      <trkpt lat="45.4212" lon="4.57853">
        <ele>760.4</ele>
        <time>1970-01-01T00:19:13.000Z</time>
      </trkpt>
      <trkpt lat="45.42117" lon="4.5785">
        <ele>760.9</ele>
        <time>1970-01-01T00:19:16.000Z</time>
      </trkpt>
      <trkpt lat="45.42115" lon="4.57847">
        <ele>761.3</ele>
        <time>1970-01-01T00:19:18.000Z</time>
      </trkpt>
      <trkpt lat="45.42112" lon="4.57845">
        <ele>761.7</ele>
        <time>1970-01-01T00:19:20.000Z</time>
      </trkpt>
      <trkpt lat="45.42108" lon="4.57843">
        <ele>762.3</ele>
        <time>1970-01-01T00:19:22.000Z</time>
      </trkpt>
      <trkpt lat="45.42105" lon="4.57839">
        <ele>762.8</ele>
        <time>1970-01-01T00:19:25.000Z</time>
      </trkpt>
      <trkpt lat="45.42102" lon="4.57834">
        <ele>763.4</ele>
        <time>1970-01-01T00:19:28.000Z</time>
      </trkpt>
      <trkpt lat="45.42099" lon="4.5783">
        <ele>764</ele>
        <time>1970-01-01T00:19:31.000Z</time>
      </trkpt>
      <trkpt lat="45.42097" lon="4.57827">
        <ele>764.5</ele>
        <time>1970-01-01T00:19:33.000Z</time>
      </trkpt>
      <trkpt lat="45.42095" lon="4.57824">
        <ele>765</ele>
        <time>1970-01-01T00:19:36.000Z</time>
      </trkpt>
      <trkpt lat="45.42093" lon="4.5782">
        <ele>765.6</ele>
        <time>1970-01-01T00:19:38.000Z</time>
      </trkpt>
      <trkpt lat="45.4209" lon="4.57814">
        <ele>766.3</ele>
        <time>1970-01-01T00:19:41.000Z</time>
      </trkpt>
      <trkpt lat="45.42087" lon="4.57809">
        <ele>767</ele>
        <time>1970-01-01T00:19:44.000Z</time>
      </trkpt>
      <trkpt lat="45.42084" lon="4.57805">
        <ele>767.5</ele>
        <time>1970-01-01T00:19:47.000Z</time>
      </trkpt>
      <trkpt lat="45.42082" lon="4.57801">
        <ele>768.2</ele>
        <time>1970-01-01T00:19:50.000Z</time>
      </trkpt>
      <trkpt lat="45.42081" lon="4.57796">
        <ele>768.8</ele>
        <time>1970-01-01T00:19:54.000Z</time>
      </trkpt>
      <trkpt lat="45.42078" lon="4.57793">
        <ele>769.4</ele>
        <time>1970-01-01T00:19:57.000Z</time>
      </trkpt>
      <trkpt lat="45.42076" lon="4.57789">
        <ele>770</ele>
        <time>1970-01-01T00:20:00.000Z</time>
      </trkpt>
      <trkpt lat="45.42074" lon="4.57785">
        <ele>770.5</ele>
        <time>1970-01-01T00:20:03.000Z</time>
      </trkpt>
      <trkpt lat="45.42073" lon="4.57781">
        <ele>771</ele>
        <time>1970-01-01T00:20:07.000Z</time>
      </trkpt>
      <trkpt lat="45.4207" lon="4.57779">
        <ele>771.4</ele>
        <time>1970-01-01T00:20:10.000Z</time>
      </trkpt>
      <trkpt lat="45.42068" lon="4.57774">
        <ele>772</ele>
        <time>1970-01-01T00:20:14.000Z</time>
      </trkpt>
      <trkpt lat="45.42066" lon="4.5777">
        <ele>772.5</ele>
        <time>1970-01-01T00:20:16.000Z</time>
      </trkpt>
      <trkpt lat="45.42064" lon="4.57767">
        <ele>773</ele>
        <time>1970-01-01T00:20:17.000Z</time>
      </trkpt>
      <trkpt lat="45.42063" lon="4.57763">
        <ele>773.5</ele>
        <time>1970-01-01T00:20:20.000Z</time>
      </trkpt>
      <trkpt lat="45.42061" lon="4.57759">
        <ele>774</ele>
        <time>1970-01-01T00:20:22.000Z</time>
      </trkpt>
      <trkpt lat="45.42059" lon="4.57755">
        <ele>774.6</ele>
        <time>1970-01-01T00:20:25.000Z</time>
      </trkpt>
      <trkpt lat="45.42056" lon="4.57752">
        <ele>775.2</ele>
        <time>1970-01-01T00:20:28.000Z</time>
      </trkpt>
      <trkpt lat="45.42053" lon="4.57748">
        <ele>775.8</ele>
        <time>1970-01-01T00:20:31.000Z</time>
      </trkpt>
      <trkpt lat="45.4205" lon="4.57745">
        <ele>776.3</ele>
        <time>1970-01-01T00:20:34.000Z</time>
      </trkpt>
      <trkpt lat="45.42047" lon="4.57742">
        <ele>776.8</ele>
        <time>1970-01-01T00:20:37.000Z</time>
      </trkpt>
      <trkpt lat="45.42045" lon="4.57737">
        <ele>777.7</ele>
        <time>1970-01-01T00:20:39.000Z</time>
      </trkpt>
      <trkpt lat="45.42042" lon="4.57731">
        <ele>778.8</ele>
        <time>1970-01-01T00:20:42.000Z</time>
      </trkpt>
      <trkpt lat="45.42039" lon="4.57727">
        <ele>779.5</ele>
        <time>1970-01-01T00:20:45.000Z</time>
      </trkpt>
      <trkpt lat="45.42037" lon="4.57724">
        <ele>780</ele>
        <time>1970-01-01T00:20:48.000Z</time>
      </trkpt>
      <trkpt lat="45.42036" lon="4.57718">
        <ele>780.8</ele>
        <time>1970-01-01T00:20:52.000Z</time>
      </trkpt>
      <trkpt lat="45.42033" lon="4.57713">
        <ele>781.4</ele>
        <time>1970-01-01T00:20:54.000Z</time>
      </trkpt>
      <trkpt lat="45.42032" lon="4.57709">
        <ele>782</ele>
        <time>1970-01-01T00:20:56.000Z</time>
      </trkpt>
      <trkpt lat="45.42029" lon="4.57703">
        <ele>782.9</ele>
        <time>1970-01-01T00:21:00.000Z</time>
      </trkpt>
      <trkpt lat="45.42027" lon="4.57699">
        <ele>783.3</ele>
        <time>1970-01-01T00:21:02.000Z</time>
      </trkpt>
      <trkpt lat="45.42025" lon="4.57695">
        <ele>784</ele>
        <time>1970-01-01T00:21:05.000Z</time>
      </trkpt>
      <trkpt lat="45.42022" lon="4.57688">
        <ele>784.9</ele>
        <time>1970-01-01T00:21:08.000Z</time>
      </trkpt>
      <trkpt lat="45.4202" lon="4.57684">
        <ele>785.5</ele>
        <time>1970-01-01T00:21:11.000Z</time>
      </trkpt>
      <trkpt lat="45.42019" lon="4.5768">
        <ele>786.1</ele>
        <time>1970-01-01T00:21:13.000Z</time>
      </trkpt>
      <trkpt lat="45.42019" lon="4.57676">
        <ele>786.6</ele>
        <time>1970-01-01T00:21:16.000Z</time>
      </trkpt>
      <trkpt lat="45.42018" lon="4.57671">
        <ele>787.3</ele>
        <time>1970-01-01T00:21:19.000Z</time>
      </trkpt>
      <trkpt lat="45.42017" lon="4.57667">
        <ele>787.8</ele>
        <time>1970-01-01T00:21:22.000Z</time>
      </trkpt>
      <trkpt lat="45.42015" lon="4.57662">
        <ele>788.5</ele>
        <time>1970-01-01T00:21:25.000Z</time>
      </trkpt>
      <trkpt lat="45.42014" lon="4.57658">
        <ele>789.1</ele>
        <time>1970-01-01T00:21:28.000Z</time>
      </trkpt>
      <trkpt lat="45.42012" lon="4.57655">
        <ele>789.7</ele>
        <time>1970-01-01T00:21:31.000Z</time>
      </trkpt>
      <trkpt lat="45.4201" lon="4.5765">
        <ele>790.4</ele>
        <time>1970-01-01T00:21:36.000Z</time>
      </trkpt>
      <trkpt lat="45.42007" lon="4.57648">
        <ele>791</ele>
        <time>1970-01-01T00:21:41.000Z</time>
      </trkpt>
      <trkpt lat="45.42005" lon="4.57643">
        <ele>791.6</ele>
        <time>1970-01-01T00:21:45.000Z</time>
      </trkpt>
      <trkpt lat="45.42002" lon="4.57639">
        <ele>792.3</ele>
        <time>1970-01-01T00:21:48.000Z</time>
      </trkpt>
      <trkpt lat="45.42002" lon="4.57635">
        <ele>792.9</ele>
        <time>1970-01-01T00:21:50.000Z</time>
      </trkpt>
      <trkpt lat="45.42003" lon="4.57628">
        <ele>793.7</ele>
        <time>1970-01-01T00:21:53.000Z</time>
      </trkpt>
      <trkpt lat="45.42003" lon="4.57623">
        <ele>794.3</ele>
        <time>1970-01-01T00:21:55.000Z</time>
      </trkpt>
      <trkpt lat="45.42003" lon="4.57619">
        <ele>794.8</ele>
        <time>1970-01-01T00:21:57.000Z</time>
      </trkpt>
      <trkpt lat="45.42003" lon="4.57615">
        <ele>795.3</ele>
        <time>1970-01-01T00:21:59.000Z</time>
      </trkpt>
      <trkpt lat="45.42001" lon="4.57612">
        <ele>795.8</ele>
        <time>1970-01-01T00:22:01.000Z</time>
      </trkpt>
      <trkpt lat="45.41998" lon="4.57608">
        <ele>796.6</ele>
        <time>1970-01-01T00:22:05.000Z</time>
      </trkpt>
      <trkpt lat="45.41998" lon="4.57603">
        <ele>797.2</ele>
        <time>1970-01-01T00:22:07.000Z</time>
      </trkpt>
      <trkpt lat="45.41995" lon="4.57598">
        <ele>798.1</ele>
        <time>1970-01-01T00:22:12.000Z</time>
      </trkpt>
      <trkpt lat="45.41992" lon="4.57595">
        <ele>798.6</ele>
        <time>1970-01-01T00:22:15.000Z</time>
      </trkpt>
      <trkpt lat="45.4199" lon="4.57592">
        <ele>799.2</ele>
        <time>1970-01-01T00:22:18.000Z</time>
      </trkpt>
      <trkpt lat="45.41988" lon="4.57588">
        <ele>799.7</ele>
        <time>1970-01-01T00:22:20.000Z</time>
      </trkpt>
      <trkpt lat="45.41986" lon="4.57585">
        <ele>800.3</ele>
        <time>1970-01-01T00:22:24.000Z</time>
      </trkpt>
      <trkpt lat="45.41986" lon="4.57581">
        <ele>800.7</ele>
        <time>1970-01-01T00:22:27.000Z</time>
      </trkpt>
      <trkpt lat="45.41985" lon="4.57576">
        <ele>801.2</ele>
        <time>1970-01-01T00:22:31.000Z</time>
      </trkpt>
      <trkpt lat="45.41984" lon="4.57572">
        <ele>801.6</ele>
        <time>1970-01-01T00:22:34.000Z</time>
      </trkpt>
      <trkpt lat="45.41985" lon="4.57565">
        <ele>802.4</ele>
        <time>1970-01-01T00:22:38.000Z</time>
      </trkpt>
      <trkpt lat="45.41984" lon="4.57559">
        <ele>802.9</ele>
        <time>1970-01-01T00:22:41.000Z</time>
      </trkpt>
      <trkpt lat="45.41983" lon="4.57555">
        <ele>803.4</ele>
        <time>1970-01-01T00:22:46.000Z</time>
      </trkpt>
      <trkpt lat="45.41983" lon="4.57551">
        <ele>803.8</ele>
        <time>1970-01-01T00:22:49.000Z</time>
      </trkpt>
      <trkpt lat="45.41982" lon="4.57546">
        <ele>804.3</ele>
        <time>1970-01-01T00:22:52.000Z</time>
      </trkpt>
      <trkpt lat="45.41981" lon="4.57542">
        <ele>804.7</ele>
        <time>1970-01-01T00:22:54.000Z</time>
      </trkpt>
      <trkpt lat="45.4198" lon="4.57538">
        <ele>805.2</ele>
        <time>1970-01-01T00:22:57.000Z</time>
      </trkpt>
      <trkpt lat="45.4198" lon="4.57533">
        <ele>805.6</ele>
        <time>1970-01-01T00:23:00.000Z</time>
      </trkpt>
      <trkpt lat="45.41979" lon="4.57529">
        <ele>806.1</ele>
        <time>1970-01-01T00:23:02.000Z</time>
      </trkpt>
      <trkpt lat="45.41978" lon="4.57525">
        <ele>806.5</ele>
        <time>1970-01-01T00:23:06.000Z</time>
      </trkpt>
      <trkpt lat="45.41976" lon="4.57522">
        <ele>806.9</ele>
        <time>1970-01-01T00:23:09.000Z</time>
      </trkpt>
      <trkpt lat="45.41974" lon="4.57519">
        <ele>807.4</ele>
        <time>1970-01-01T00:23:13.000Z</time>
      </trkpt>
      <trkpt lat="45.41972" lon="4.57516">
        <ele>807.9</ele>
        <time>1970-01-01T00:23:15.000Z</time>
      </trkpt>
      <trkpt lat="45.41968" lon="4.57514">
        <ele>808.5</ele>
        <time>1970-01-01T00:23:18.000Z</time>
      </trkpt>
      <trkpt lat="45.41965" lon="4.5751">
        <ele>809.2</ele>
        <time>1970-01-01T00:23:22.000Z</time>
      </trkpt>
      <trkpt lat="45.41963" lon="4.57508">
        <ele>809.6</ele>
        <time>1970-01-01T00:23:24.000Z</time>
      </trkpt>
      <trkpt lat="45.41961" lon="4.57505">
        <ele>810</ele>
        <time>1970-01-01T00:23:27.000Z</time>
      </trkpt>
      <trkpt lat="45.41959" lon="4.57501">
        <ele>810.5</ele>
        <time>1970-01-01T00:23:29.000Z</time>
      </trkpt>
      <trkpt lat="45.41956" lon="4.57499">
        <ele>810.9</ele>
        <time>1970-01-01T00:23:33.000Z</time>
      </trkpt>
      <trkpt lat="45.41955" lon="4.57502">
        <ele>811.4</ele>
        <time>1970-01-01T00:23:48.000Z</time>
      </trkpt>
      <trkpt lat="45.41952" lon="4.57497">
        <ele>812.2</ele>
        <time>1970-01-01T00:25:47.000Z</time>
      </trkpt>
      <trkpt lat="45.41948" lon="4.57497">
        <ele>812.8</ele>
        <time>1970-01-01T00:25:58.000Z</time>
      </trkpt>
      <trkpt lat="45.41945" lon="4.57497">
        <ele>813.2</ele>
        <time>1970-01-01T00:26:01.000Z</time>
      </trkpt>
      <trkpt lat="45.41942" lon="4.57498">
        <ele>813.6</ele>
        <time>1970-01-01T00:26:04.000Z</time>
      </trkpt>
      <trkpt lat="45.41939" lon="4.57499">
        <ele>814</ele>
        <time>1970-01-01T00:26:06.000Z</time>
      </trkpt>
      <trkpt lat="45.41935" lon="4.57501">
        <ele>814.5</ele>
        <time>1970-01-01T00:26:08.000Z</time>
      </trkpt>
      <trkpt lat="45.41928" lon="4.57503">
        <ele>815.2</ele>
        <time>1970-01-01T00:26:12.000Z</time>
      </trkpt>
      <trkpt lat="45.41922" lon="4.57502">
        <ele>815.9</ele>
        <time>1970-01-01T00:26:15.000Z</time>
      </trkpt>
      <trkpt lat="45.41917" lon="4.57503">
        <ele>816.5</ele>
        <time>1970-01-01T00:26:18.000Z</time>
      </trkpt>
      <trkpt lat="45.41914" lon="4.57505">
        <ele>816.8</ele>
        <time>1970-01-01T00:26:19.000Z</time>
      </trkpt>
      <trkpt lat="45.4191" lon="4.57507">
        <ele>817.4</ele>
        <time>1970-01-01T00:26:22.000Z</time>
      </trkpt>
      <trkpt lat="45.41906" lon="4.57507">
        <ele>818.1</ele>
        <time>1970-01-01T00:26:26.000Z</time>
      </trkpt>
      <trkpt lat="45.41903" lon="4.57507">
        <ele>818.5</ele>
        <time>1970-01-01T00:26:28.000Z</time>
      </trkpt>
      <trkpt lat="45.41901" lon="4.57509">
        <ele>819</ele>
        <time>1970-01-01T00:26:30.000Z</time>
      </trkpt>
      <trkpt lat="45.41899" lon="4.57514">
        <ele>819.6</ele>
        <time>1970-01-01T00:26:38.000Z</time>
      </trkpt>
      <trkpt lat="45.41897" lon="4.57512">
        <ele>820</ele>
        <time>1970-01-01T00:28:18.000Z</time>
      </trkpt>
      <trkpt lat="45.41895" lon="4.57509">
        <ele>820.6</ele>
        <time>1970-01-01T00:28:29.000Z</time>
      </trkpt>
      <trkpt lat="45.41891" lon="4.57504">
        <ele>821.4</ele>
        <time>1970-01-01T00:28:34.000Z</time>
      </trkpt>
      <trkpt lat="45.41888" lon="4.57503">
        <ele>822</ele>
        <time>1970-01-01T00:28:37.000Z</time>
      </trkpt>
      <trkpt lat="45.41885" lon="4.57502">
        <ele>822.8</ele>
        <time>1970-01-01T00:28:40.000Z</time>
      </trkpt>
      <trkpt lat="45.41883" lon="4.57498">
        <ele>823.5</ele>
        <time>1970-01-01T00:28:43.000Z</time>
      </trkpt>
      <trkpt lat="45.4188" lon="4.57494">
        <ele>824.2</ele>
        <time>1970-01-01T00:28:44.000Z</time>
      </trkpt>
      <trkpt lat="45.41876" lon="4.57492">
        <ele>824.9</ele>
        <time>1970-01-01T00:28:47.000Z</time>
      </trkpt>
      <trkpt lat="45.41874" lon="4.5749">
        <ele>825.3</ele>
        <time>1970-01-01T00:28:48.000Z</time>
      </trkpt>
      <trkpt lat="45.41871" lon="4.57487">
        <ele>825.8</ele>
        <time>1970-01-01T00:28:51.000Z</time>
      </trkpt>
      <trkpt lat="45.41867" lon="4.57478">
        <ele>826.9</ele>
        <time>1970-01-01T00:28:55.000Z</time>
      </trkpt>
      <trkpt lat="45.41864" lon="4.57474">
        <ele>827.5</ele>
        <time>1970-01-01T00:28:58.000Z</time>
      </trkpt>
      <trkpt lat="45.41862" lon="4.57471">
        <ele>828</ele>
        <time>1970-01-01T00:29:01.000Z</time>
      </trkpt>
      <trkpt lat="45.41862" lon="4.57467">
        <ele>828.5</ele>
        <time>1970-01-01T00:29:05.000Z</time>
      </trkpt>
      <trkpt lat="45.41862" lon="4.5746">
        <ele>829.1</ele>
        <time>1970-01-01T00:29:07.000Z</time>
      </trkpt>
      <trkpt lat="45.41861" lon="4.57456">
        <ele>829.4</ele>
        <time>1970-01-01T00:29:11.000Z</time>
      </trkpt>
      <trkpt lat="45.41861" lon="4.57452">
        <ele>829.8</ele>
        <time>1970-01-01T00:30:13.000Z</time>
      </trkpt>
      <trkpt lat="45.41861" lon="4.57448">
        <ele>830.2</ele>
        <time>1970-01-01T00:30:17.000Z</time>
      </trkpt>
      <trkpt lat="45.4186" lon="4.57441">
        <ele>830.8</ele>
        <time>1970-01-01T00:30:21.000Z</time>
      </trkpt>
      <trkpt lat="45.41861" lon="4.57438">
        <ele>831.1</ele>
        <time>1970-01-01T00:30:24.000Z</time>
      </trkpt>
      <trkpt lat="45.41862" lon="4.57431">
        <ele>831.7</ele>
        <time>1970-01-01T00:30:29.000Z</time>
      </trkpt>
      <trkpt lat="45.41864" lon="4.57427">
        <ele>832.2</ele>
        <time>1970-01-01T00:30:31.000Z</time>
      </trkpt>
      <trkpt lat="45.41865" lon="4.57423">
        <ele>832.5</ele>
        <time>1970-01-01T00:30:33.000Z</time>
      </trkpt>
      <trkpt lat="45.41866" lon="4.57419">
        <ele>833.1</ele>
        <time>1970-01-01T00:30:36.000Z</time>
      </trkpt>
      <trkpt lat="45.41868" lon="4.57414">
        <ele>833.9</ele>
        <time>1970-01-01T00:30:39.000Z</time>
      </trkpt>
      <trkpt lat="45.4187" lon="4.5741">
        <ele>834.3</ele>
        <time>1970-01-01T00:30:42.000Z</time>
      </trkpt>
      <trkpt lat="45.41871" lon="4.57405">
        <ele>834.8</ele>
        <time>1970-01-01T00:30:45.000Z</time>
      </trkpt>
      <trkpt lat="45.41873" lon="4.574">
        <ele>835.4</ele>
        <time>1970-01-01T00:30:48.000Z</time>
      </trkpt>
      <trkpt lat="45.41875" lon="4.57395">
        <ele>836.2</ele>
        <time>1970-01-01T00:30:51.000Z</time>
      </trkpt>
      <trkpt lat="45.41877" lon="4.5738">
        <ele>838</ele>
        <time>1970-01-01T00:31:14.000Z</time>
      </trkpt>
      <trkpt lat="45.41879" lon="4.57376">
        <ele>838.5</ele>
        <time>1970-01-01T00:31:19.000Z</time>
      </trkpt>
      <trkpt lat="45.41879" lon="4.57371">
        <ele>839.1</ele>
        <time>1970-01-01T00:31:23.000Z</time>
      </trkpt>
      <trkpt lat="45.4188" lon="4.57366">
        <ele>839.7</ele>
        <time>1970-01-01T00:31:27.000Z</time>
      </trkpt>
      <trkpt lat="45.41882" lon="4.57362">
        <ele>840.1</ele>
        <time>1970-01-01T00:31:30.000Z</time>
      </trkpt>
      <trkpt lat="45.41882" lon="4.57358">
        <ele>840.7</ele>
        <time>1970-01-01T00:31:33.000Z</time>
      </trkpt>
      <trkpt lat="45.41883" lon="4.57354">
        <ele>841.2</ele>
        <time>1970-01-01T00:31:36.000Z</time>
      </trkpt>
      <trkpt lat="45.41884" lon="4.57349">
        <ele>841.8</ele>
        <time>1970-01-01T00:31:39.000Z</time>
      </trkpt>
      <trkpt lat="45.41885" lon="4.57344">
        <ele>842.3</ele>
        <time>1970-01-01T00:31:41.000Z</time>
      </trkpt>
      <trkpt lat="45.41885" lon="4.5734">
        <ele>842.7</ele>
        <time>1970-01-01T00:31:44.000Z</time>
      </trkpt>
      <trkpt lat="45.41886" lon="4.57335">
        <ele>843.2</ele>
        <time>1970-01-01T00:31:46.000Z</time>
      </trkpt>
      <trkpt lat="45.41887" lon="4.5733">
        <ele>843.7</ele>
        <time>1970-01-01T00:31:49.000Z</time>
      </trkpt>
      <trkpt lat="45.41889" lon="4.57324">
        <ele>844.3</ele>
        <time>1970-01-01T00:31:51.000Z</time>
      </trkpt>
      <trkpt lat="45.4189" lon="4.57319">
        <ele>844.7</ele>
        <time>1970-01-01T00:31:54.000Z</time>
      </trkpt>
      <trkpt lat="45.41892" lon="4.57314">
        <ele>845.2</ele>
        <time>1970-01-01T00:31:58.000Z</time>
      </trkpt>
      <trkpt lat="45.41894" lon="4.5731">
        <ele>845.6</ele>
        <time>1970-01-01T00:32:00.000Z</time>
      </trkpt>
      <trkpt lat="45.41896" lon="4.57307">
        <ele>845.9</ele>
        <time>1970-01-01T00:32:02.000Z</time>
      </trkpt>
      <trkpt lat="45.41898" lon="4.57304">
        <ele>846.2</ele>
        <time>1970-01-01T00:32:05.000Z</time>
      </trkpt>
      <trkpt lat="45.419" lon="4.573">
        <ele>846.5</ele>
        <time>1970-01-01T00:32:07.000Z</time>
      </trkpt>
      <trkpt lat="45.41902" lon="4.57296">
        <ele>846.9</ele>
        <time>1970-01-01T00:32:10.000Z</time>
      </trkpt>
      <trkpt lat="45.41903" lon="4.57293">
        <ele>847.2</ele>
        <time>1970-01-01T00:32:12.000Z</time>
      </trkpt>
      <trkpt lat="45.41905" lon="4.57288">
        <ele>847.5</ele>
        <time>1970-01-01T00:32:16.000Z</time>
      </trkpt>
      <trkpt lat="45.41907" lon="4.57284">
        <ele>847.8</ele>
        <time>1970-01-01T00:32:19.000Z</time>
      </trkpt>
      <trkpt lat="45.41908" lon="4.57279">
        <ele>848.2</ele>
        <time>1970-01-01T00:32:22.000Z</time>
      </trkpt>
      <trkpt lat="45.41908" lon="4.57275">
        <ele>848.6</ele>
        <time>1970-01-01T00:32:25.000Z</time>
      </trkpt>
      <trkpt lat="45.41908" lon="4.57271">
        <ele>849</ele>
        <time>1970-01-01T00:32:29.000Z</time>
      </trkpt>
      <trkpt lat="45.41907" lon="4.57266">
        <ele>849.4</ele>
        <time>1970-01-01T00:32:31.000Z</time>
      </trkpt>
      <trkpt lat="45.41907" lon="4.57261">
        <ele>849.9</ele>
        <time>1970-01-01T00:32:37.000Z</time>
      </trkpt>
      <trkpt lat="45.41905" lon="4.57258">
        <ele>850.2</ele>
        <time>1970-01-01T00:32:43.000Z</time>
      </trkpt>
      <trkpt lat="45.41903" lon="4.57255">
        <ele>850.7</ele>
        <time>1970-01-01T00:32:55.000Z</time>
      </trkpt>
      <trkpt lat="45.41901" lon="4.57252">
        <ele>851.2</ele>
        <time>1970-01-01T00:32:59.000Z</time>
      </trkpt>
      <trkpt lat="45.419" lon="4.57246">
        <ele>852</ele>
        <time>1970-01-01T00:33:04.000Z</time>
      </trkpt>
      <trkpt lat="45.41901" lon="4.57239">
        <ele>853</ele>
        <time>1970-01-01T00:33:07.000Z</time>
      </trkpt>
      <trkpt lat="45.41901" lon="4.57234">
        <ele>853.8</ele>
        <time>1970-01-01T00:33:11.000Z</time>
      </trkpt>
      <trkpt lat="45.41901" lon="4.57228">
        <ele>854.8</ele>
        <time>1970-01-01T00:33:14.000Z</time>
      </trkpt>
      <trkpt lat="45.41902" lon="4.57221">
        <ele>856</ele>
        <time>1970-01-01T00:33:17.000Z</time>
      </trkpt>
      <trkpt lat="45.41903" lon="4.57217">
        <ele>856.7</ele>
        <time>1970-01-01T00:33:20.000Z</time>
      </trkpt>
      <trkpt lat="45.41903" lon="4.57211">
        <ele>857.5</ele>
        <time>1970-01-01T00:33:23.000Z</time>
      </trkpt>
      <trkpt lat="45.41902" lon="4.57204">
        <ele>858.4</ele>
        <time>1970-01-01T00:33:25.000Z</time>
      </trkpt>
      <trkpt lat="45.41902" lon="4.572">
        <ele>858.9</ele>
        <time>1970-01-01T00:33:27.000Z</time>
      </trkpt>
      <trkpt lat="45.41903" lon="4.57197">
        <ele>859.5</ele>
        <time>1970-01-01T00:33:28.000Z</time>
      </trkpt>
      <trkpt lat="45.41903" lon="4.57191">
        <ele>860.3</ele>
        <time>1970-01-01T00:33:32.000Z</time>
      </trkpt>
      <trkpt lat="45.41903" lon="4.57187">
        <ele>860.8</ele>
        <time>1970-01-01T00:33:34.000Z</time>
      </trkpt>
      <trkpt lat="45.41903" lon="4.57182">
        <ele>861.5</ele>
        <time>1970-01-01T00:33:37.000Z</time>
      </trkpt>
      <trkpt lat="45.41904" lon="4.57177">
        <ele>862.1</ele>
        <time>1970-01-01T00:33:38.000Z</time>
      </trkpt>
      <trkpt lat="45.41903" lon="4.57173">
        <ele>862.8</ele>
        <time>1970-01-01T00:33:41.000Z</time>
      </trkpt>
      <trkpt lat="45.41905" lon="4.57169">
        <ele>863.5</ele>
        <time>1970-01-01T00:33:49.000Z</time>
      </trkpt>
      <trkpt lat="45.41905" lon="4.57161">
        <ele>864.5</ele>
        <time>1970-01-01T00:33:57.000Z</time>
      </trkpt>
      <trkpt lat="45.41904" lon="4.57155">
        <ele>865.4</ele>
        <time>1970-01-01T00:33:59.000Z</time>
      </trkpt>
      <trkpt lat="45.41902" lon="4.57151">
        <ele>866</ele>
        <time>1970-01-01T00:34:03.000Z</time>
      </trkpt>
      <trkpt lat="45.41898" lon="4.57143">
        <ele>867.1</ele>
        <time>1970-01-01T00:34:14.000Z</time>
      </trkpt>
      <trkpt lat="45.41896" lon="4.57139">
        <ele>867.6</ele>
        <time>1970-01-01T00:34:15.000Z</time>
      </trkpt>
      <trkpt lat="45.41893" lon="4.57135">
        <ele>868.3</ele>
        <time>1970-01-01T00:34:18.000Z</time>
      </trkpt>
      <trkpt lat="45.4189" lon="4.57134">
        <ele>868.8</ele>
        <time>1970-01-01T00:34:20.000Z</time>
      </trkpt>
      <trkpt lat="45.41887" lon="4.57131">
        <ele>869.3</ele>
        <time>1970-01-01T00:34:25.000Z</time>
      </trkpt>
      <trkpt lat="45.41884" lon="4.57128">
        <ele>869.8</ele>
        <time>1970-01-01T00:34:29.000Z</time>
      </trkpt>
      <trkpt lat="45.41882" lon="4.57124">
        <ele>870.2</ele>
        <time>1970-01-01T00:34:32.000Z</time>
      </trkpt>
      <trkpt lat="45.4188" lon="4.57121">
        <ele>870.5</ele>
        <time>1970-01-01T00:34:35.000Z</time>
      </trkpt>
      <trkpt lat="45.41877" lon="4.57118">
        <ele>870.9</ele>
        <time>1970-01-01T00:34:39.000Z</time>
      </trkpt>
      <trkpt lat="45.41876" lon="4.57115">
        <ele>871.3</ele>
        <time>1970-01-01T00:34:42.000Z</time>
      </trkpt>
      <trkpt lat="45.41874" lon="4.57112">
        <ele>871.7</ele>
        <time>1970-01-01T00:34:45.000Z</time>
      </trkpt>
      <trkpt lat="45.41871" lon="4.57108">
        <ele>872.2</ele>
        <time>1970-01-01T00:34:48.000Z</time>
      </trkpt>
      <trkpt lat="45.41869" lon="4.57103">
        <ele>872.7</ele>
        <time>1970-01-01T00:34:51.000Z</time>
      </trkpt>
      <trkpt lat="45.41867" lon="4.57099">
        <ele>873.3</ele>
        <time>1970-01-01T00:34:55.000Z</time>
      </trkpt>
      <trkpt lat="45.41866" lon="4.57095">
        <ele>873.7</ele>
        <time>1970-01-01T00:34:58.000Z</time>
      </trkpt>
      <trkpt lat="45.41866" lon="4.57091">
        <ele>874.1</ele>
        <time>1970-01-01T00:35:01.000Z</time>
      </trkpt>
      <trkpt lat="45.41863" lon="4.57086">
        <ele>874.8</ele>
        <time>1970-01-01T00:35:06.000Z</time>
      </trkpt>
      <trkpt lat="45.4186" lon="4.57081">
        <ele>875.4</ele>
        <time>1970-01-01T00:35:09.000Z</time>
      </trkpt>
      <trkpt lat="45.41857" lon="4.57077">
        <ele>876.1</ele>
        <time>1970-01-01T00:35:12.000Z</time>
      </trkpt>
      <trkpt lat="45.41855" lon="4.57074">
        <ele>876.7</ele>
        <time>1970-01-01T00:35:14.000Z</time>
      </trkpt>
      <trkpt lat="45.41852" lon="4.57071">
        <ele>877.2</ele>
        <time>1970-01-01T00:35:15.000Z</time>
      </trkpt>
      <trkpt lat="45.41849" lon="4.57067">
        <ele>877.9</ele>
        <time>1970-01-01T00:35:18.000Z</time>
      </trkpt>
      <trkpt lat="45.41846" lon="4.57065">
        <ele>878.3</ele>
        <time>1970-01-01T00:35:20.000Z</time>
      </trkpt>
      <trkpt lat="45.41843" lon="4.57063">
        <ele>878.8</ele>
        <time>1970-01-01T00:35:24.000Z</time>
      </trkpt>
      <trkpt lat="45.4184" lon="4.57061">
        <ele>879.3</ele>
        <time>1970-01-01T00:35:27.000Z</time>
      </trkpt>
      <trkpt lat="45.41837" lon="4.57059">
        <ele>879.8</ele>
        <time>1970-01-01T00:35:30.000Z</time>
      </trkpt>
      <trkpt lat="45.41833" lon="4.57056">
        <ele>880.3</ele>
        <time>1970-01-01T00:35:32.000Z</time>
      </trkpt>
      <trkpt lat="45.4183" lon="4.5705">
        <ele>880.9</ele>
        <time>1970-01-01T00:35:35.000Z</time>
      </trkpt>
      <trkpt lat="45.41828" lon="4.57047">
        <ele>881.2</ele>
        <time>1970-01-01T00:35:37.000Z</time>
      </trkpt>
      <trkpt lat="45.41826" lon="4.57044">
        <ele>881.6</ele>
        <time>1970-01-01T00:35:40.000Z</time>
      </trkpt>
      <trkpt lat="45.41823" lon="4.57042">
        <ele>881.8</ele>
        <time>1970-01-01T00:35:43.000Z</time>
      </trkpt>
      <trkpt lat="45.4182" lon="4.57039">
        <ele>882.2</ele>
        <time>1970-01-01T00:35:45.000Z</time>
      </trkpt>
      <trkpt lat="45.41816" lon="4.57035">
        <ele>882.7</ele>
        <time>1970-01-01T00:35:49.000Z</time>
      </trkpt>
      <trkpt lat="45.41813" lon="4.57032">
        <ele>883</ele>
        <time>1970-01-01T00:35:52.000Z</time>
      </trkpt>
      <trkpt lat="45.4181" lon="4.57028">
        <ele>883.3</ele>
        <time>1970-01-01T00:35:55.000Z</time>
      </trkpt>
      <trkpt lat="45.41806" lon="4.57025">
        <ele>883.6</ele>
        <time>1970-01-01T00:35:58.000Z</time>
      </trkpt>
      <trkpt lat="45.41801" lon="4.57024">
        <ele>884</ele>
        <time>1970-01-01T00:36:00.000Z</time>
      </trkpt>
      <trkpt lat="45.41798" lon="4.57023">
        <ele>884.3</ele>
        <time>1970-01-01T00:36:02.000Z</time>
      </trkpt>
      <trkpt lat="45.41794" lon="4.57022">
        <ele>884.8</ele>
        <time>1970-01-01T00:36:05.000Z</time>
      </trkpt>
      <trkpt lat="45.41791" lon="4.57021">
        <ele>885.1</ele>
        <time>1970-01-01T00:36:08.000Z</time>
      </trkpt>
      <trkpt lat="45.41786" lon="4.5702">
        <ele>885.7</ele>
        <time>1970-01-01T00:36:12.000Z</time>
      </trkpt>
      <trkpt lat="45.41783" lon="4.5702">
        <ele>886.2</ele>
        <time>1970-01-01T00:36:14.000Z</time>
      </trkpt>
      <trkpt lat="45.4178" lon="4.5702">
        <ele>886.8</ele>
        <time>1970-01-01T00:36:17.000Z</time>
      </trkpt>
      <trkpt lat="45.41776" lon="4.57019">
        <ele>887.6</ele>
        <time>1970-01-01T00:36:21.000Z</time>
      </trkpt>
      <trkpt lat="45.41772" lon="4.57023">
        <ele>888.2</ele>
        <time>1970-01-01T00:36:23.000Z</time>
      </trkpt>
      <trkpt lat="45.4177" lon="4.57026">
        <ele>888.9</ele>
        <time>1970-01-01T00:36:25.000Z</time>
      </trkpt>
      <trkpt lat="45.41767" lon="4.57028">
        <ele>889.4</ele>
        <time>1970-01-01T00:36:26.000Z</time>
      </trkpt>
      <trkpt lat="45.41763" lon="4.5703">
        <ele>890.1</ele>
        <time>1970-01-01T00:36:29.000Z</time>
      </trkpt>
      <trkpt lat="45.41759" lon="4.57032">
        <ele>890.7</ele>
        <time>1970-01-01T00:36:32.000Z</time>
      </trkpt>
      <trkpt lat="45.41757" lon="4.57031">
        <ele>891.1</ele>
        <time>1970-01-01T00:36:35.000Z</time>
      </trkpt>
      <trkpt lat="45.41752" lon="4.57029">
        <ele>891.7</ele>
        <time>1970-01-01T00:36:39.000Z</time>
      </trkpt>
      <trkpt lat="45.41748" lon="4.57028">
        <ele>892.2</ele>
        <time>1970-01-01T00:36:43.000Z</time>
      </trkpt>
      <trkpt lat="45.41745" lon="4.57028">
        <ele>892.6</ele>
        <time>1970-01-01T00:36:46.000Z</time>
      </trkpt>
      <trkpt lat="45.41742" lon="4.57029">
        <ele>893</ele>
        <time>1970-01-01T00:36:49.000Z</time>
      </trkpt>
      <trkpt lat="45.41737" lon="4.57029">
        <ele>893.5</ele>
        <time>1970-01-01T00:36:53.000Z</time>
      </trkpt>
      <trkpt lat="45.41733" lon="4.57029">
        <ele>894</ele>
        <time>1970-01-01T00:36:56.000Z</time>
      </trkpt>
      <trkpt lat="45.4173" lon="4.57029">
        <ele>894.3</ele>
        <time>1970-01-01T00:36:57.000Z</time>
      </trkpt>
      <trkpt lat="45.41725" lon="4.57028">
        <ele>894.7</ele>
        <time>1970-01-01T00:37:00.000Z</time>
      </trkpt>
      <trkpt lat="45.41722" lon="4.57026">
        <ele>895.1</ele>
        <time>1970-01-01T00:37:04.000Z</time>
      </trkpt>
      <trkpt lat="45.41719" lon="4.57027">
        <ele>895.4</ele>
        <time>1970-01-01T00:37:07.000Z</time>
      </trkpt>
      <trkpt lat="45.41716" lon="4.57027">
        <ele>895.7</ele>
        <time>1970-01-01T00:37:10.000Z</time>
      </trkpt>
      <trkpt lat="45.41711" lon="4.57026">
        <ele>896.1</ele>
        <time>1970-01-01T00:37:15.000Z</time>
      </trkpt>
      <trkpt lat="45.41708" lon="4.57025">
        <ele>896.5</ele>
        <time>1970-01-01T00:37:19.000Z</time>
      </trkpt>
      <trkpt lat="45.41704" lon="4.57025">
        <ele>896.9</ele>
        <time>1970-01-01T00:37:23.000Z</time>
      </trkpt>
      <trkpt lat="45.41701" lon="4.57024">
        <ele>897.2</ele>
        <time>1970-01-01T00:37:26.000Z</time>
      </trkpt>
      <trkpt lat="45.41698" lon="4.57024">
        <ele>897.6</ele>
        <time>1970-01-01T00:37:29.000Z</time>
      </trkpt>
      <trkpt lat="45.41694" lon="4.57024">
        <ele>897.9</ele>
        <time>1970-01-01T00:37:31.000Z</time>
      </trkpt>
      <trkpt lat="45.41691" lon="4.57024">
        <ele>898.3</ele>
        <time>1970-01-01T00:37:33.000Z</time>
      </trkpt>
      <trkpt lat="45.41687" lon="4.57025">
        <ele>898.8</ele>
        <time>1970-01-01T00:37:36.000Z</time>
      </trkpt>
      <trkpt lat="45.41684" lon="4.57025">
        <ele>899.1</ele>
        <time>1970-01-01T00:37:37.000Z</time>
      </trkpt>
      <trkpt lat="45.41681" lon="4.57026">
        <ele>899.5</ele>
        <time>1970-01-01T00:37:39.000Z</time>
      </trkpt>
      <trkpt lat="45.41674" lon="4.57027">
        <ele>900.2</ele>
        <time>1970-01-01T00:37:41.000Z</time>
      </trkpt>
      <trkpt lat="45.41672" lon="4.57028">
        <ele>900.5</ele>
        <time>1970-01-01T00:37:45.000Z</time>
      </trkpt>
      <trkpt lat="45.41669" lon="4.57028">
        <ele>900.8</ele>
        <time>1970-01-01T00:37:50.000Z</time>
      </trkpt>
      <trkpt lat="45.41666" lon="4.57028">
        <ele>901</ele>
        <time>1970-01-01T00:37:53.000Z</time>
      </trkpt>
      <trkpt lat="45.41663" lon="4.57029">
        <ele>901.3</ele>
        <time>1970-01-01T00:37:56.000Z</time>
      </trkpt>
      <trkpt lat="45.41661" lon="4.57029">
        <ele>901.6</ele>
        <time>1970-01-01T00:38:01.000Z</time>
      </trkpt>
      <trkpt lat="45.41658" lon="4.5703">
        <ele>901.8</ele>
        <time>1970-01-01T00:38:58.000Z</time>
      </trkpt>
      <trkpt lat="45.41655" lon="4.5703">
        <ele>902.1</ele>
        <time>1970-01-01T00:39:12.000Z</time>
      </trkpt>
      <trkpt lat="45.41652" lon="4.5703">
        <ele>902.3</ele>
        <time>1970-01-01T00:39:13.000Z</time>
      </trkpt>
      <trkpt lat="45.41648" lon="4.57031">
        <ele>902.7</ele>
        <time>1970-01-01T00:39:16.000Z</time>
      </trkpt>
      <trkpt lat="45.41644" lon="4.57031">
        <ele>903</ele>
        <time>1970-01-01T00:39:19.000Z</time>
      </trkpt>
      <trkpt lat="45.41641" lon="4.57033">
        <ele>903.2</ele>
        <time>1970-01-01T00:39:21.000Z</time>
      </trkpt>
      <trkpt lat="45.41638" lon="4.57033">
        <ele>903.5</ele>
        <time>1970-01-01T00:39:24.000Z</time>
      </trkpt>
      <trkpt lat="45.41635" lon="4.57034">
        <ele>903.7</ele>
        <time>1970-01-01T00:39:26.000Z</time>
      </trkpt>
      <trkpt lat="45.41631" lon="4.57036">
        <ele>904</ele>
        <time>1970-01-01T00:39:29.000Z</time>
      </trkpt>
      <trkpt lat="45.41626" lon="4.57034">
        <ele>904.4</ele>
        <time>1970-01-01T00:39:34.000Z</time>
      </trkpt>
      <trkpt lat="45.41623" lon="4.57034">
        <ele>904.6</ele>
        <time>1970-01-01T00:39:36.000Z</time>
      </trkpt>
      <trkpt lat="45.41621" lon="4.5703">
        <ele>904.8</ele>
        <time>1970-01-01T00:39:40.000Z</time>
      </trkpt>
      <trkpt lat="45.4162" lon="4.57025">
        <ele>905</ele>
        <time>1970-01-01T00:39:43.000Z</time>
      </trkpt>
      <trkpt lat="45.41615" lon="4.5703">
        <ele>905.4</ele>
        <time>1970-01-01T00:40:26.000Z</time>
      </trkpt>
      <trkpt lat="45.41618" lon="4.57031">
        <ele>905.5</ele>
        <time>1970-01-01T00:41:41.000Z</time>
      </trkpt>
      <trkpt lat="45.41619" lon="4.57035">
        <ele>905.7</ele>
        <time>1970-01-01T00:42:08.000Z</time>
      </trkpt>
      <trkpt lat="45.41619" lon="4.57041">
        <ele>905.9</ele>
        <time>1970-01-01T00:42:11.000Z</time>
      </trkpt>
      <trkpt lat="45.41617" lon="4.57046">
        <ele>906</ele>
        <time>1970-01-01T00:42:13.000Z</time>
      </trkpt>
      <trkpt lat="45.41615" lon="4.57053">
        <ele>906.3</ele>
        <time>1970-01-01T00:42:15.000Z</time>
      </trkpt>
      <trkpt lat="45.41611" lon="4.57059">
        <ele>906.5</ele>
        <time>1970-01-01T00:42:17.000Z</time>
      </trkpt>
      <trkpt lat="45.41609" lon="4.57062">
        <ele>906.6</ele>
        <time>1970-01-01T00:42:19.000Z</time>
      </trkpt>
      <trkpt lat="45.41606" lon="4.57067">
        <ele>906.8</ele>
        <time>1970-01-01T00:42:21.000Z</time>
      </trkpt>
      <trkpt lat="45.41603" lon="4.57071">
        <ele>906.9</ele>
        <time>1970-01-01T00:42:23.000Z</time>
      </trkpt>
      <trkpt lat="45.41601" lon="4.57076">
        <ele>907</ele>
        <time>1970-01-01T00:42:25.000Z</time>
      </trkpt>
      <trkpt lat="45.416" lon="4.5708">
        <ele>907.1</ele>
        <time>1970-01-01T00:42:27.000Z</time>
      </trkpt>
      <trkpt lat="45.41596" lon="4.57085">
        <ele>907.1</ele>
        <time>1970-01-01T00:42:30.000Z</time>
      </trkpt>
      <trkpt lat="45.41594" lon="4.57088">
        <ele>907.1</ele>
        <time>1970-01-01T00:42:31.000Z</time>
      </trkpt>
      <trkpt lat="45.41591" lon="4.57091">
        <ele>907.2</ele>
        <time>1970-01-01T00:42:33.000Z</time>
      </trkpt>
      <trkpt lat="45.41586" lon="4.57094">
        <ele>907.2</ele>
        <time>1970-01-01T00:42:40.000Z</time>
      </trkpt>
      <trkpt lat="45.41582" lon="4.57096">
        <ele>907.3</ele>
        <time>1970-01-01T00:42:41.000Z</time>
      </trkpt>
      <trkpt lat="45.41579" lon="4.571">
        <ele>907.3</ele>
        <time>1970-01-01T00:42:51.000Z</time>
      </trkpt>
      <trkpt lat="45.41577" lon="4.57104">
        <ele>907.4</ele>
        <time>1970-01-01T00:42:53.000Z</time>
      </trkpt>
      <trkpt lat="45.41574" lon="4.57106">
        <ele>907.5</ele>
        <time>1970-01-01T00:42:57.000Z</time>
      </trkpt>
      <trkpt lat="45.4157" lon="4.57108">
        <ele>907.5</ele>
        <time>1970-01-01T00:43:00.000Z</time>
      </trkpt>
      <trkpt lat="45.41567" lon="4.57111">
        <ele>907.6</ele>
        <time>1970-01-01T00:43:04.000Z</time>
      </trkpt>
      <trkpt lat="45.41564" lon="4.57115">
        <ele>907.8</ele>
        <time>1970-01-01T00:43:06.000Z</time>
      </trkpt>
      <trkpt lat="45.4156" lon="4.5712">
        <ele>908</ele>
        <time>1970-01-01T00:43:09.000Z</time>
      </trkpt>
      <trkpt lat="45.41555" lon="4.5712">
        <ele>908.2</ele>
        <time>1970-01-01T00:43:11.000Z</time>
      </trkpt>
      <trkpt lat="45.4155" lon="4.57117">
        <ele>908.6</ele>
        <time>1970-01-01T00:43:12.000Z</time>
      </trkpt>
      <trkpt lat="45.41548" lon="4.57119">
        <ele>908.9</ele>
        <time>1970-01-01T00:43:14.000Z</time>
      </trkpt>
      <trkpt lat="45.41543" lon="4.57123">
        <ele>909.3</ele>
        <time>1970-01-01T00:43:18.000Z</time>
      </trkpt>
      <trkpt lat="45.4154" lon="4.57125">
        <ele>909.7</ele>
        <time>1970-01-01T00:43:22.000Z</time>
      </trkpt>
      <trkpt lat="45.41536" lon="4.57129">
        <ele>910.3</ele>
        <time>1970-01-01T00:43:25.000Z</time>
      </trkpt>
      <trkpt lat="45.41532" lon="4.57131">
        <ele>910.7</ele>
        <time>1970-01-01T00:43:28.000Z</time>
      </trkpt>
      <trkpt lat="45.41523" lon="4.57127">
        <ele>912.1</ele>
        <time>1970-01-01T00:43:30.000Z</time>
      </trkpt>
      <trkpt lat="45.41511" lon="4.57119">
        <ele>913.8</ele>
        <time>1970-01-01T00:43:32.000Z</time>
      </trkpt>
      <trkpt lat="45.41507" lon="4.57119">
        <ele>914.3</ele>
        <time>1970-01-01T00:43:34.000Z</time>
      </trkpt>
      <trkpt lat="45.41504" lon="4.57117">
        <ele>914.8</ele>
        <time>1970-01-01T00:43:35.000Z</time>
      </trkpt>
      <trkpt lat="45.41501" lon="4.57114">
        <ele>915.3</ele>
        <time>1970-01-01T00:43:38.000Z</time>
      </trkpt>
      <trkpt lat="45.41498" lon="4.57114">
        <ele>915.7</ele>
        <time>1970-01-01T00:43:40.000Z</time>
      </trkpt>
      <trkpt lat="45.41495" lon="4.57115">
        <ele>916</ele>
        <time>1970-01-01T00:43:42.000Z</time>
      </trkpt>
      <trkpt lat="45.41491" lon="4.57115">
        <ele>916.6</ele>
        <time>1970-01-01T00:43:44.000Z</time>
      </trkpt>
      <trkpt lat="45.41487" lon="4.57115">
        <ele>917</ele>
        <time>1970-01-01T00:43:46.000Z</time>
      </trkpt>
      <trkpt lat="45.41484" lon="4.57115">
        <ele>917.5</ele>
        <time>1970-01-01T00:43:47.000Z</time>
      </trkpt>
      <trkpt lat="45.41481" lon="4.57117">
        <ele>917.8</ele>
        <time>1970-01-01T00:43:49.000Z</time>
      </trkpt>
      <trkpt lat="45.41478" lon="4.57123">
        <ele>918.4</ele>
        <time>1970-01-01T00:43:51.000Z</time>
      </trkpt>
      <trkpt lat="45.41477" lon="4.57129">
        <ele>918.8</ele>
        <time>1970-01-01T00:43:54.000Z</time>
      </trkpt>
      <trkpt lat="45.41474" lon="4.57121">
        <ele>919.4</ele>
        <time>1970-01-01T00:44:00.000Z</time>
      </trkpt>
      <trkpt lat="45.41472" lon="4.57115">
        <ele>919.9</ele>
        <time>1970-01-01T00:44:02.000Z</time>
      </trkpt>
      <trkpt lat="45.41468" lon="4.5711">
        <ele>920.4</ele>
        <time>1970-01-01T00:44:04.000Z</time>
      </trkpt>
      <trkpt lat="45.41462" lon="4.57107">
        <ele>921.4</ele>
        <time>1970-01-01T00:44:07.000Z</time>
      </trkpt>
      <trkpt lat="45.41459" lon="4.57105">
        <ele>921.9</ele>
        <time>1970-01-01T00:44:09.000Z</time>
      </trkpt>
      <trkpt lat="45.41454" lon="4.57105">
        <ele>922.5</ele>
        <time>1970-01-01T00:44:12.000Z</time>
      </trkpt>
      <trkpt lat="45.4145" lon="4.57104">
        <ele>923</ele>
        <time>1970-01-01T00:44:15.000Z</time>
      </trkpt>
      <trkpt lat="45.41447" lon="4.57103">
        <ele>923.4</ele>
        <time>1970-01-01T00:44:18.000Z</time>
      </trkpt>
      <trkpt lat="45.41444" lon="4.571">
        <ele>923.9</ele>
        <time>1970-01-01T00:44:21.000Z</time>
      </trkpt>
      <trkpt lat="45.41441" lon="4.57097">
        <ele>924.5</ele>
        <time>1970-01-01T00:44:23.000Z</time>
      </trkpt>
      <trkpt lat="45.41437" lon="4.57096">
        <ele>924.9</ele>
        <time>1970-01-01T00:44:25.000Z</time>
      </trkpt>
      <trkpt lat="45.41434" lon="4.57093">
        <ele>925.4</ele>
        <time>1970-01-01T00:44:28.000Z</time>
      </trkpt>
      <trkpt lat="45.41431" lon="4.57092">
        <ele>925.7</ele>
        <time>1970-01-01T00:44:30.000Z</time>
      </trkpt>
      <trkpt lat="45.41427" lon="4.5709">
        <ele>926.2</ele>
        <time>1970-01-01T00:44:33.000Z</time>
      </trkpt>
      <trkpt lat="45.41425" lon="4.57088">
        <ele>926.5</ele>
        <time>1970-01-01T00:44:37.000Z</time>
      </trkpt>
      <trkpt lat="45.41422" lon="4.57085">
        <ele>927</ele>
        <time>1970-01-01T00:44:41.000Z</time>
      </trkpt>
      <trkpt lat="45.41419" lon="4.57082">
        <ele>927.6</ele>
        <time>1970-01-01T00:44:43.000Z</time>
      </trkpt>
      <trkpt lat="45.41416" lon="4.57079">
        <ele>928</ele>
        <time>1970-01-01T00:44:44.000Z</time>
      </trkpt>
      <trkpt lat="45.41414" lon="4.57076">
        <ele>928.5</ele>
        <time>1970-01-01T00:44:46.000Z</time>
      </trkpt>
      <trkpt lat="45.41411" lon="4.57073">
        <ele>929.1</ele>
        <time>1970-01-01T00:44:49.000Z</time>
      </trkpt>
      <trkpt lat="45.41408" lon="4.57071">
        <ele>929.7</ele>
        <time>1970-01-01T00:44:53.000Z</time>
      </trkpt>
      <trkpt lat="45.41404" lon="4.5707">
        <ele>930.3</ele>
        <time>1970-01-01T00:44:55.000Z</time>
      </trkpt>
      <trkpt lat="45.41402" lon="4.57067">
        <ele>930.7</ele>
        <time>1970-01-01T00:44:57.000Z</time>
      </trkpt>
      <trkpt lat="45.414" lon="4.57064">
        <ele>931.1</ele>
        <time>1970-01-01T00:45:00.000Z</time>
      </trkpt>
      <trkpt lat="45.41396" lon="4.5706">
        <ele>931.6</ele>
        <time>1970-01-01T00:45:05.000Z</time>
      </trkpt>
      <trkpt lat="45.41394" lon="4.57058">
        <ele>931.9</ele>
        <time>1970-01-01T00:45:08.000Z</time>
      </trkpt>
      <trkpt lat="45.41391" lon="4.57054">
        <ele>932.4</ele>
        <time>1970-01-01T00:45:13.000Z</time>
      </trkpt>
      <trkpt lat="45.41389" lon="4.57051">
        <ele>932.7</ele>
        <time>1970-01-01T00:45:16.000Z</time>
      </trkpt>
      <trkpt lat="45.41387" lon="4.57048">
        <ele>933.1</ele>
        <time>1970-01-01T00:45:18.000Z</time>
      </trkpt>
      <trkpt lat="45.41384" lon="4.57045">
        <ele>933.4</ele>
        <time>1970-01-01T00:45:19.000Z</time>
      </trkpt>
      <trkpt lat="45.41381" lon="4.57042">
        <ele>933.8</ele>
        <time>1970-01-01T00:45:21.000Z</time>
      </trkpt>
      <trkpt lat="45.41379" lon="4.57039">
        <ele>934.1</ele>
        <time>1970-01-01T00:45:23.000Z</time>
      </trkpt>
      <trkpt lat="45.41375" lon="4.57033">
        <ele>934.7</ele>
        <time>1970-01-01T00:45:26.000Z</time>
      </trkpt>
      <trkpt lat="45.41372" lon="4.57027">
        <ele>935.2</ele>
        <time>1970-01-01T00:45:28.000Z</time>
      </trkpt>
      <trkpt lat="45.41368" lon="4.57021">
        <ele>935.7</ele>
        <time>1970-01-01T00:45:31.000Z</time>
      </trkpt>
      <trkpt lat="45.41366" lon="4.57017">
        <ele>935.9</ele>
        <time>1970-01-01T00:45:32.000Z</time>
      </trkpt>
      <trkpt lat="45.41362" lon="4.5701">
        <ele>936.3</ele>
        <time>1970-01-01T00:45:35.000Z</time>
      </trkpt>
      <trkpt lat="45.41359" lon="4.57007">
        <ele>936.5</ele>
        <time>1970-01-01T00:45:37.000Z</time>
      </trkpt>
      <trkpt lat="45.41357" lon="4.57002">
        <ele>936.8</ele>
        <time>1970-01-01T00:45:39.000Z</time>
      </trkpt>
      <trkpt lat="45.41355" lon="4.56998">
        <ele>936.9</ele>
        <time>1970-01-01T00:45:40.000Z</time>
      </trkpt>
      <trkpt lat="45.41353" lon="4.56995">
        <ele>937.1</ele>
        <time>1970-01-01T00:45:42.000Z</time>
      </trkpt>
      <trkpt lat="45.4135" lon="4.56989">
        <ele>937.4</ele>
        <time>1970-01-01T00:45:44.000Z</time>
      </trkpt>
      <trkpt lat="45.41347" lon="4.56986">
        <ele>937.5</ele>
        <time>1970-01-01T00:45:46.000Z</time>
      </trkpt>
      <trkpt lat="45.41345" lon="4.56983">
        <ele>937.7</ele>
        <time>1970-01-01T00:45:47.000Z</time>
      </trkpt>
      <trkpt lat="45.41342" lon="4.5698">
        <ele>937.9</ele>
        <time>1970-01-01T00:45:50.000Z</time>
      </trkpt>
      <trkpt lat="45.4134" lon="4.56978">
        <ele>938.8</ele>
        <time>1970-01-01T00:45:51.000Z</time>
      </trkpt>
      <trkpt lat="45.41337" lon="4.56976">
        <ele>939.2</ele>
        <time>1970-01-01T00:45:54.000Z</time>
      </trkpt>
      <trkpt lat="45.41333" lon="4.56976">
        <ele>939.6</ele>
        <time>1970-01-01T00:45:57.000Z</time>
      </trkpt>
      <trkpt lat="45.4133" lon="4.56977">
        <ele>940</ele>
        <time>1970-01-01T00:46:00.000Z</time>
      </trkpt>
      <trkpt lat="45.41328" lon="4.56981">
        <ele>940.5</ele>
        <time>1970-01-01T00:46:08.000Z</time>
      </trkpt>
      <trkpt lat="45.41332" lon="4.56987">
        <ele>941.3</ele>
        <time>1970-01-01T00:46:42.000Z</time>
      </trkpt>
      <trkpt lat="45.41329" lon="4.56989">
        <ele>941.7</ele>
        <time>1970-01-01T00:46:49.000Z</time>
      </trkpt>
      <trkpt lat="45.41329" lon="4.56994">
        <ele>942.2</ele>
        <time>1970-01-01T00:47:20.000Z</time>
      </trkpt>
      <trkpt lat="45.4133" lon="4.57">
        <ele>942.7</ele>
        <time>1970-01-01T00:47:28.000Z</time>
      </trkpt>
      <trkpt lat="45.4133" lon="4.57005">
        <ele>943.2</ele>
        <time>1970-01-01T00:47:33.000Z</time>
      </trkpt>
      <trkpt lat="45.4133" lon="4.5701">
        <ele>943.6</ele>
        <time>1970-01-01T00:47:36.000Z</time>
      </trkpt>
      <trkpt lat="45.41331" lon="4.57014">
        <ele>944.1</ele>
        <time>1970-01-01T00:47:39.000Z</time>
      </trkpt>
      <trkpt lat="45.41332" lon="4.5702">
        <ele>944.7</ele>
        <time>1970-01-01T00:47:43.000Z</time>
      </trkpt>
      <trkpt lat="45.41332" lon="4.57024">
        <ele>945.1</ele>
        <time>1970-01-01T00:47:45.000Z</time>
      </trkpt>
      <trkpt lat="45.41331" lon="4.57029">
        <ele>945.6</ele>
        <time>1970-01-01T00:47:47.000Z</time>
      </trkpt>
      <trkpt lat="45.41332" lon="4.57034">
        <ele>946.1</ele>
        <time>1970-01-01T00:47:50.000Z</time>
      </trkpt>
      <trkpt lat="45.41333" lon="4.57041">
        <ele>946.8</ele>
        <time>1970-01-01T00:47:54.000Z</time>
      </trkpt>
      <trkpt lat="45.41332" lon="4.57045">
        <ele>947.3</ele>
        <time>1970-01-01T00:47:56.000Z</time>
      </trkpt>
      <trkpt lat="45.41331" lon="4.5705">
        <ele>947.9</ele>
        <time>1970-01-01T00:47:58.000Z</time>
      </trkpt>
      <trkpt lat="45.41331" lon="4.57054">
        <ele>948.3</ele>
        <time>1970-01-01T00:47:59.000Z</time>
      </trkpt>
      <trkpt lat="45.41331" lon="4.57061">
        <ele>949</ele>
        <time>1970-01-01T00:48:02.000Z</time>
      </trkpt>
      <trkpt lat="45.41331" lon="4.57066">
        <ele>949.6</ele>
        <time>1970-01-01T00:48:05.000Z</time>
      </trkpt>
      <trkpt lat="45.41332" lon="4.57071">
        <ele>950.2</ele>
        <time>1970-01-01T00:48:08.000Z</time>
      </trkpt>
      <trkpt lat="45.41331" lon="4.57075">
        <ele>950.8</ele>
        <time>1970-01-01T00:48:11.000Z</time>
      </trkpt>
      <trkpt lat="45.41331" lon="4.57081">
        <ele>951.4</ele>
        <time>1970-01-01T00:48:17.000Z</time>
      </trkpt>
      <trkpt lat="45.4133" lon="4.57086">
        <ele>951.9</ele>
        <time>1970-01-01T00:48:20.000Z</time>
      </trkpt>
      <trkpt lat="45.41329" lon="4.57092">
        <ele>952.4</ele>
        <time>1970-01-01T00:48:23.000Z</time>
      </trkpt>
      <trkpt lat="45.41328" lon="4.57096">
        <ele>952.9</ele>
        <time>1970-01-01T00:48:26.000Z</time>
      </trkpt>
      <trkpt lat="45.41325" lon="4.57101">
        <ele>953.5</ele>
        <time>1970-01-01T00:48:29.000Z</time>
      </trkpt>
      <trkpt lat="45.41324" lon="4.57105">
        <ele>954</ele>
        <time>1970-01-01T00:48:32.000Z</time>
      </trkpt>
      <trkpt lat="45.41322" lon="4.57109">
        <ele>954.4</ele>
        <time>1970-01-01T00:48:35.000Z</time>
      </trkpt>
      <trkpt lat="45.4132" lon="4.57114">
        <ele>954.6</ele>
        <time>1970-01-01T00:48:38.000Z</time>
      </trkpt>
      <trkpt lat="45.41318" lon="4.57117">
        <ele>954.8</ele>
        <time>1970-01-01T00:48:40.000Z</time>
      </trkpt>
      <trkpt lat="45.41314" lon="4.57119">
        <ele>955</ele>
        <time>1970-01-01T00:48:43.000Z</time>
      </trkpt>
      <trkpt lat="45.41312" lon="4.57121">
        <ele>955.2</ele>
        <time>1970-01-01T00:48:46.000Z</time>
      </trkpt>
      <trkpt lat="45.41309" lon="4.57124">
        <ele>955.4</ele>
        <time>1970-01-01T00:48:49.000Z</time>
      </trkpt>
      <trkpt lat="45.41307" lon="4.57127">
        <ele>955.6</ele>
        <time>1970-01-01T00:48:52.000Z</time>
      </trkpt>
      <trkpt lat="45.41305" lon="4.57133">
        <ele>955.8</ele>
        <time>1970-01-01T00:48:56.000Z</time>
      </trkpt>
      <trkpt lat="45.41304" lon="4.5714">
        <ele>956.1</ele>
        <time>1970-01-01T00:48:58.000Z</time>
      </trkpt>
      <trkpt lat="45.41303" lon="4.57148">
        <ele>956.4</ele>
        <time>1970-01-01T00:49:00.000Z</time>
      </trkpt>
      <trkpt lat="45.41302" lon="4.57153">
        <ele>956.7</ele>
        <time>1970-01-01T00:49:02.000Z</time>
      </trkpt>
      <trkpt lat="45.413" lon="4.57161">
        <ele>957</ele>
        <time>1970-01-01T00:49:05.000Z</time>
      </trkpt>
      <trkpt lat="45.41298" lon="4.57166">
        <ele>957.3</ele>
        <time>1970-01-01T00:49:09.000Z</time>
      </trkpt>
      <trkpt lat="45.41295" lon="4.57171">
        <ele>957.6</ele>
        <time>1970-01-01T00:49:13.000Z</time>
      </trkpt>
      <trkpt lat="45.41293" lon="4.57175">
        <ele>957.8</ele>
        <time>1970-01-01T00:49:15.000Z</time>
      </trkpt>
      <trkpt lat="45.4129" lon="4.57182">
        <ele>958.2</ele>
        <time>1970-01-01T00:49:18.000Z</time>
      </trkpt>
      <trkpt lat="45.41288" lon="4.57188">
        <ele>958.5</ele>
        <time>1970-01-01T00:49:20.000Z</time>
      </trkpt>
      <trkpt lat="45.41286" lon="4.57193">
        <ele>958.7</ele>
        <time>1970-01-01T00:49:22.000Z</time>
      </trkpt>
      <trkpt lat="45.41284" lon="4.57199">
        <ele>958.9</ele>
        <time>1970-01-01T00:49:24.000Z</time>
      </trkpt>
      <trkpt lat="45.4128" lon="4.57207">
        <ele>959.3</ele>
        <time>1970-01-01T00:49:27.000Z</time>
      </trkpt>
      <trkpt lat="45.41278" lon="4.57212">
        <ele>959.5</ele>
        <time>1970-01-01T00:49:29.000Z</time>
      </trkpt>
      <trkpt lat="45.41274" lon="4.57218">
        <ele>959.9</ele>
        <time>1970-01-01T00:49:32.000Z</time>
      </trkpt>
      <trkpt lat="45.4127" lon="4.57222">
        <ele>960.2</ele>
        <time>1970-01-01T00:49:34.000Z</time>
      </trkpt>
      <trkpt lat="45.41267" lon="4.57226">
        <ele>960.5</ele>
        <time>1970-01-01T00:49:36.000Z</time>
      </trkpt>
      <trkpt lat="45.41264" lon="4.57229">
        <ele>960.7</ele>
        <time>1970-01-01T00:49:38.000Z</time>
      </trkpt>
      <trkpt lat="45.41261" lon="4.57233">
        <ele>961</ele>
        <time>1970-01-01T00:49:40.000Z</time>
      </trkpt>
      <trkpt lat="45.41259" lon="4.57239">
        <ele>961.4</ele>
        <time>1970-01-01T00:49:43.000Z</time>
      </trkpt>
      <trkpt lat="45.41257" lon="4.57243">
        <ele>961.7</ele>
        <time>1970-01-01T00:49:44.000Z</time>
      </trkpt>
      <trkpt lat="45.41255" lon="4.57245">
        <ele>962</ele>
        <time>1970-01-01T00:49:46.000Z</time>
      </trkpt>
      <trkpt lat="45.41253" lon="4.57249">
        <ele>962.2</ele>
        <time>1970-01-01T00:49:47.000Z</time>
      </trkpt>
      <trkpt lat="45.41251" lon="4.57252">
        <ele>962.5</ele>
        <time>1970-01-01T00:49:48.000Z</time>
      </trkpt>
      <trkpt lat="45.41247" lon="4.57258">
        <ele>963.1</ele>
        <time>1970-01-01T00:49:51.000Z</time>
      </trkpt>
      <trkpt lat="45.41244" lon="4.5726">
        <ele>963.4</ele>
        <time>1970-01-01T00:49:53.000Z</time>
      </trkpt>
      <trkpt lat="45.41241" lon="4.57263">
        <ele>963.8</ele>
        <time>1970-01-01T00:49:55.000Z</time>
      </trkpt>
      <trkpt lat="45.41238" lon="4.57265">
        <ele>964.1</ele>
        <time>1970-01-01T00:49:56.000Z</time>
      </trkpt>
      <trkpt lat="45.41236" lon="4.57268">
        <ele>964.4</ele>
        <time>1970-01-01T00:49:58.000Z</time>
      </trkpt>
      <trkpt lat="45.41234" lon="4.57272">
        <ele>964.8</ele>
        <time>1970-01-01T00:50:00.000Z</time>
      </trkpt>
      <trkpt lat="45.41232" lon="4.57274">
        <ele>965.1</ele>
        <time>1970-01-01T00:50:02.000Z</time>
      </trkpt>
      <trkpt lat="45.41228" lon="4.57278">
        <ele>965.6</ele>
        <time>1970-01-01T00:50:05.000Z</time>
      </trkpt>
      <trkpt lat="45.41226" lon="4.5728">
        <ele>965.9</ele>
        <time>1970-01-01T00:50:06.000Z</time>
      </trkpt>
      <trkpt lat="45.41223" lon="4.57284">
        <ele>966.3</ele>
        <time>1970-01-01T00:50:08.000Z</time>
      </trkpt>
      <trkpt lat="45.4122" lon="4.57287">
        <ele>966.7</ele>
        <time>1970-01-01T00:50:10.000Z</time>
      </trkpt>
      <trkpt lat="45.41217" lon="4.5729">
        <ele>967.2</ele>
        <time>1970-01-01T00:50:12.000Z</time>
      </trkpt>
      <trkpt lat="45.41213" lon="4.57293">
        <ele>967.6</ele>
        <time>1970-01-01T00:50:14.000Z</time>
      </trkpt>
      <trkpt lat="45.4121" lon="4.57296">
        <ele>968.2</ele>
        <time>1970-01-01T00:50:17.000Z</time>
      </trkpt>
      <trkpt lat="45.41206" lon="4.57302">
        <ele>968.8</ele>
        <time>1970-01-01T00:50:21.000Z</time>
      </trkpt>
      <trkpt lat="45.41204" lon="4.57306">
        <ele>969.3</ele>
        <time>1970-01-01T00:50:23.000Z</time>
      </trkpt>
      <trkpt lat="45.41201" lon="4.5731">
        <ele>969.8</ele>
        <time>1970-01-01T00:50:25.000Z</time>
      </trkpt>
      <trkpt lat="45.41198" lon="4.57312">
        <ele>970.2</ele>
        <time>1970-01-01T00:50:27.000Z</time>
      </trkpt>
      <trkpt lat="45.41192" lon="4.57316">
        <ele>970.9</ele>
        <time>1970-01-01T00:50:30.000Z</time>
      </trkpt>
      <trkpt lat="45.4119" lon="4.5732">
        <ele>971.4</ele>
        <time>1970-01-01T00:50:32.000Z</time>
      </trkpt>
      <trkpt lat="45.41186" lon="4.57323">
        <ele>971.9</ele>
        <time>1970-01-01T00:50:35.000Z</time>
      </trkpt>
      <trkpt lat="45.41183" lon="4.57326">
        <ele>972.3</ele>
        <time>1970-01-01T00:50:37.000Z</time>
      </trkpt>
      <trkpt lat="45.41181" lon="4.57331">
        <ele>972.8</ele>
        <time>1970-01-01T00:50:39.000Z</time>
      </trkpt>
      <trkpt lat="45.41176" lon="4.57334">
        <ele>973.4</ele>
        <time>1970-01-01T00:50:42.000Z</time>
      </trkpt>
      <trkpt lat="45.41173" lon="4.57338">
        <ele>973.8</ele>
        <time>1970-01-01T00:50:45.000Z</time>
      </trkpt>
      <trkpt lat="45.41171" lon="4.57342">
        <ele>974.2</ele>
        <time>1970-01-01T00:50:47.000Z</time>
      </trkpt>
      <trkpt lat="45.41168" lon="4.57346">
        <ele>974.7</ele>
        <time>1970-01-01T00:50:50.000Z</time>
      </trkpt>
      <trkpt lat="45.41165" lon="4.57349">
        <ele>975.1</ele>
        <time>1970-01-01T00:50:52.000Z</time>
      </trkpt>
      <trkpt lat="45.41162" lon="4.57352">
        <ele>975.5</ele>
        <time>1970-01-01T00:50:54.000Z</time>
      </trkpt>
      <trkpt lat="45.41158" lon="4.57352">
        <ele>975.9</ele>
        <time>1970-01-01T00:50:57.000Z</time>
      </trkpt>
      <trkpt lat="45.41153" lon="4.57352">
        <ele>976.4</ele>
        <time>1970-01-01T00:50:59.000Z</time>
      </trkpt>
      <trkpt lat="45.41149" lon="4.57351">
        <ele>977</ele>
        <time>1970-01-01T00:51:02.000Z</time>
      </trkpt>
      <trkpt lat="45.41146" lon="4.5735">
        <ele>977.3</ele>
        <time>1970-01-01T00:51:05.000Z</time>
      </trkpt>
      <trkpt lat="45.41143" lon="4.57349">
        <ele>977.7</ele>
        <time>1970-01-01T00:51:07.000Z</time>
      </trkpt>
      <trkpt lat="45.4114" lon="4.57351">
        <ele>978.1</ele>
        <time>1970-01-01T00:51:10.000Z</time>
      </trkpt>
      <trkpt lat="45.41137" lon="4.57354">
        <ele>978.5</ele>
        <time>1970-01-01T00:51:12.000Z</time>
      </trkpt>
      <trkpt lat="45.41134" lon="4.57356">
        <ele>978.8</ele>
        <time>1970-01-01T00:51:15.000Z</time>
      </trkpt>
      <trkpt lat="45.41131" lon="4.57357">
        <ele>979.3</ele>
        <time>1970-01-01T00:51:17.000Z</time>
      </trkpt>
      <trkpt lat="45.41127" lon="4.57358">
        <ele>979.7</ele>
        <time>1970-01-01T00:51:20.000Z</time>
      </trkpt>
      <trkpt lat="45.41123" lon="4.57359">
        <ele>980.1</ele>
        <time>1970-01-01T00:51:23.000Z</time>
      </trkpt>
      <trkpt lat="45.41119" lon="4.5736">
        <ele>980.5</ele>
        <time>1970-01-01T00:51:25.000Z</time>
      </trkpt>
      <trkpt lat="45.41115" lon="4.57363">
        <ele>980.9</ele>
        <time>1970-01-01T00:51:27.000Z</time>
      </trkpt>
      <trkpt lat="45.41111" lon="4.57365">
        <ele>981.4</ele>
        <time>1970-01-01T00:51:30.000Z</time>
      </trkpt>
      <trkpt lat="45.41106" lon="4.57367">
        <ele>981.9</ele>
        <time>1970-01-01T00:51:34.000Z</time>
      </trkpt>
      <trkpt lat="45.41103" lon="4.57369">
        <ele>982.2</ele>
        <time>1970-01-01T00:51:36.000Z</time>
      </trkpt>
      <trkpt lat="45.411" lon="4.57373">
        <ele>982.5</ele>
        <time>1970-01-01T00:51:41.000Z</time>
      </trkpt>
      <trkpt lat="45.41096" lon="4.57379">
        <ele>983.1</ele>
        <time>1970-01-01T00:51:44.000Z</time>
      </trkpt>
      <trkpt lat="45.41093" lon="4.57381">
        <ele>983.3</ele>
        <time>1970-01-01T00:51:46.000Z</time>
      </trkpt>
      <trkpt lat="45.41089" lon="4.57382">
        <ele>983.6</ele>
        <time>1970-01-01T00:51:48.000Z</time>
      </trkpt>
      <trkpt lat="45.41085" lon="4.57385">
        <ele>984</ele>
        <time>1970-01-01T00:51:50.000Z</time>
      </trkpt>
      <trkpt lat="45.41082" lon="4.57387">
        <ele>984.3</ele>
        <time>1970-01-01T00:51:53.000Z</time>
      </trkpt>
      <trkpt lat="45.41077" lon="4.57388">
        <ele>984.6</ele>
        <time>1970-01-01T00:51:56.000Z</time>
      </trkpt>
      <trkpt lat="45.41075" lon="4.5739">
        <ele>984.9</ele>
        <time>1970-01-01T00:51:58.000Z</time>
      </trkpt>
      <trkpt lat="45.4107" lon="4.57391">
        <ele>985.3</ele>
        <time>1970-01-01T00:52:01.000Z</time>
      </trkpt>
      <trkpt lat="45.41067" lon="4.57392">
        <ele>985.6</ele>
        <time>1970-01-01T00:52:03.000Z</time>
      </trkpt>
      <trkpt lat="45.41064" lon="4.57393">
        <ele>985.9</ele>
        <time>1970-01-01T00:52:05.000Z</time>
      </trkpt>
      <trkpt lat="45.4106" lon="4.57393">
        <ele>986.2</ele>
        <time>1970-01-01T00:52:08.000Z</time>
      </trkpt>
      <trkpt lat="45.41057" lon="4.57393">
        <ele>986.5</ele>
        <time>1970-01-01T00:52:12.000Z</time>
      </trkpt>
      <trkpt lat="45.41054" lon="4.57393">
        <ele>986.8</ele>
        <time>1970-01-01T00:52:14.000Z</time>
      </trkpt>
      <trkpt lat="45.4105" lon="4.57393">
        <ele>987.2</ele>
        <time>1970-01-01T00:52:17.000Z</time>
      </trkpt>
      <trkpt lat="45.41047" lon="4.57393">
        <ele>987.5</ele>
        <time>1970-01-01T00:52:20.000Z</time>
      </trkpt>
      <trkpt lat="45.41044" lon="4.57392">
        <ele>987.8</ele>
        <time>1970-01-01T00:52:23.000Z</time>
      </trkpt>
      <trkpt lat="45.41041" lon="4.57391">
        <ele>988.1</ele>
        <time>1970-01-01T00:52:25.000Z</time>
      </trkpt>
      <trkpt lat="45.41038" lon="4.57391">
        <ele>988.5</ele>
        <time>1970-01-01T00:52:29.000Z</time>
      </trkpt>
      <trkpt lat="45.41035" lon="4.57391">
        <ele>988.9</ele>
        <time>1970-01-01T00:52:31.000Z</time>
      </trkpt>
      <trkpt lat="45.41032" lon="4.57391">
        <ele>989.4</ele>
        <time>1970-01-01T00:52:34.000Z</time>
      </trkpt>
      <trkpt lat="45.41027" lon="4.5739">
        <ele>990</ele>
        <time>1970-01-01T00:52:37.000Z</time>
      </trkpt>
      <trkpt lat="45.41024" lon="4.57389">
        <ele>990.6</ele>
        <time>1970-01-01T00:52:40.000Z</time>
      </trkpt>
      <trkpt lat="45.41021" lon="4.57388">
        <ele>991</ele>
        <time>1970-01-01T00:52:43.000Z</time>
      </trkpt>
      <trkpt lat="45.41017" lon="4.57388">
        <ele>991.7</ele>
        <time>1970-01-01T00:52:45.000Z</time>
      </trkpt>
      <trkpt lat="45.41013" lon="4.57387">
        <ele>992.3</ele>
        <time>1970-01-01T00:52:48.000Z</time>
      </trkpt>
      <trkpt lat="45.4101" lon="4.57386">
        <ele>992.8</ele>
        <time>1970-01-01T00:52:50.000Z</time>
      </trkpt>
      <trkpt lat="45.41006" lon="4.57385">
        <ele>993.5</ele>
        <time>1970-01-01T00:52:53.000Z</time>
      </trkpt>
      <trkpt lat="45.41003" lon="4.57384">
        <ele>994.1</ele>
        <time>1970-01-01T00:52:56.000Z</time>
      </trkpt>
      <trkpt lat="45.40999" lon="4.57382">
        <ele>994.8</ele>
        <time>1970-01-01T00:52:57.000Z</time>
      </trkpt>
      <trkpt lat="45.40996" lon="4.57381">
        <ele>995.5</ele>
        <time>1970-01-01T00:53:00.000Z</time>
      </trkpt>
      <trkpt lat="45.40993" lon="4.5738">
        <ele>996.1</ele>
        <time>1970-01-01T00:53:04.000Z</time>
      </trkpt>
      <trkpt lat="45.40986" lon="4.57378">
        <ele>997.1</ele>
        <time>1970-01-01T00:53:08.000Z</time>
      </trkpt>
      <trkpt lat="45.40983" lon="4.57378">
        <ele>997.6</ele>
        <time>1970-01-01T00:53:10.000Z</time>
      </trkpt>
      <trkpt lat="45.40981" lon="4.57378">
        <ele>998</ele>
        <time>1970-01-01T00:53:13.000Z</time>
      </trkpt>
      <trkpt lat="45.40977" lon="4.57379">
        <ele>998.5</ele>
        <time>1970-01-01T00:53:15.000Z</time>
      </trkpt>
      <trkpt lat="45.40972" lon="4.57379">
        <ele>999.3</ele>
        <time>1970-01-01T00:53:17.000Z</time>
      </trkpt>
      <trkpt lat="45.40968" lon="4.57378">
        <ele>999.9</ele>
        <time>1970-01-01T00:53:21.000Z</time>
      </trkpt>
      <trkpt lat="45.40965" lon="4.57379">
        <ele>1000.3</ele>
        <time>1970-01-01T00:53:23.000Z</time>
      </trkpt>
      <trkpt lat="45.40962" lon="4.57379">
        <ele>1000.7</ele>
        <time>1970-01-01T00:53:27.000Z</time>
      </trkpt>
      <trkpt lat="45.40958" lon="4.57379">
        <ele>1001.1</ele>
        <time>1970-01-01T00:53:30.000Z</time>
      </trkpt>
      <trkpt lat="45.40954" lon="4.57378">
        <ele>1001.7</ele>
        <time>1970-01-01T00:53:33.000Z</time>
      </trkpt>
      <trkpt lat="45.40951" lon="4.57376">
        <ele>1002.1</ele>
        <time>1970-01-01T00:53:35.000Z</time>
      </trkpt>
      <trkpt lat="45.40947" lon="4.57373">
        <ele>1002.6</ele>
        <time>1970-01-01T00:53:39.000Z</time>
      </trkpt>
      <trkpt lat="45.40946" lon="4.57369">
        <ele>1002.9</ele>
        <time>1970-01-01T00:53:46.000Z</time>
      </trkpt>
      <trkpt lat="45.40936" lon="4.57371">
        <ele>1004.1</ele>
        <time>1970-01-01T00:54:17.000Z</time>
      </trkpt>
      <trkpt lat="45.40933" lon="4.57373">
        <ele>1004.6</ele>
        <time>1970-01-01T00:54:21.000Z</time>
      </trkpt>
      <trkpt lat="45.40929" lon="4.57372">
        <ele>1005.2</ele>
        <time>1970-01-01T00:54:23.000Z</time>
      </trkpt>
      <trkpt lat="45.40925" lon="4.57369">
        <ele>1005.9</ele>
        <time>1970-01-01T00:54:26.000Z</time>
      </trkpt>
      <trkpt lat="45.40922" lon="4.57366">
        <ele>1006.7</ele>
        <time>1970-01-01T00:54:30.000Z</time>
      </trkpt>
      <trkpt lat="45.40918" lon="4.57366">
        <ele>1007.3</ele>
        <time>1970-01-01T00:54:34.000Z</time>
      </trkpt>
      <trkpt lat="45.40916" lon="4.57363">
        <ele>1007.7</ele>
        <time>1970-01-01T00:54:42.000Z</time>
      </trkpt>
      <trkpt lat="45.40909" lon="4.57359">
        <ele>1008.6</ele>
        <time>1970-01-01T00:55:15.000Z</time>
      </trkpt>
      <trkpt lat="45.40906" lon="4.57359">
        <ele>1009.1</ele>
        <time>1970-01-01T00:55:17.000Z</time>
      </trkpt>
      <trkpt lat="45.40909" lon="4.5736">
        <ele>1009.7</ele>
        <time>1970-01-01T00:55:18.000Z</time>
      </trkpt>
      <trkpt lat="45.40904" lon="4.5736">
        <ele>1010.7</ele>
        <time>1970-01-01T00:55:21.000Z</time>
      </trkpt>
      <trkpt lat="45.40901" lon="4.5736">
        <ele>1011.4</ele>
        <time>1970-01-01T00:55:22.000Z</time>
      </trkpt>
      <trkpt lat="45.40897" lon="4.57358">
        <ele>1012.4</ele>
        <time>1970-01-01T00:55:26.000Z</time>
      </trkpt>
      <trkpt lat="45.40894" lon="4.57355">
        <ele>1013.4</ele>
        <time>1970-01-01T00:55:29.000Z</time>
      </trkpt>
      <trkpt lat="45.40891" lon="4.57352">
        <ele>1014.4</ele>
        <time>1970-01-01T00:55:32.000Z</time>
      </trkpt>
      <trkpt lat="45.40888" lon="4.57348">
        <ele>1015.6</ele>
        <time>1970-01-01T00:55:36.000Z</time>
      </trkpt>
      <trkpt lat="45.40885" lon="4.57345">
        <ele>1016.4</ele>
        <time>1970-01-01T00:55:38.000Z</time>
      </trkpt>
      <trkpt lat="45.40882" lon="4.57345">
        <ele>1017.4</ele>
        <time>1970-01-01T00:55:42.000Z</time>
      </trkpt>
      <trkpt lat="45.4088" lon="4.57342">
        <ele>1018.3</ele>
        <time>1970-01-01T00:55:44.000Z</time>
      </trkpt>
      <trkpt lat="45.40876" lon="4.5734">
        <ele>1019.4</ele>
        <time>1970-01-01T00:55:47.000Z</time>
      </trkpt>
      <trkpt lat="45.4087" lon="4.57342">
        <ele>1021.1</ele>
        <time>1970-01-01T00:55:51.000Z</time>
      </trkpt>
      <trkpt lat="45.40868" lon="4.57341">
        <ele>1021.7</ele>
        <time>1970-01-01T00:55:53.000Z</time>
      </trkpt>
      <trkpt lat="45.40864" lon="4.57339">
        <ele>1022.1</ele>
        <time>1970-01-01T00:55:55.000Z</time>
      </trkpt>
      <trkpt lat="45.40858" lon="4.57338">
        <ele>1022.6</ele>
        <time>1970-01-01T00:55:58.000Z</time>
      </trkpt>
      <trkpt lat="45.40852" lon="4.57341">
        <ele>1023.1</ele>
        <time>1970-01-01T00:56:00.000Z</time>
      </trkpt>
      <trkpt lat="45.40847" lon="4.57339">
        <ele>1023.4</ele>
        <time>1970-01-01T00:56:02.000Z</time>
      </trkpt>
      <trkpt lat="45.40844" lon="4.57339">
        <ele>1023.6</ele>
        <time>1970-01-01T00:56:04.000Z</time>
      </trkpt>
      <trkpt lat="45.40841" lon="4.5734">
        <ele>1023.8</ele>
        <time>1970-01-01T00:56:06.000Z</time>
      </trkpt>
      <trkpt lat="45.40838" lon="4.5734">
        <ele>1023.9</ele>
        <time>1970-01-01T00:56:07.000Z</time>
      </trkpt>
      <trkpt lat="45.40833" lon="4.5734">
        <ele>1024.1</ele>
        <time>1970-01-01T00:56:09.000Z</time>
      </trkpt>
      <trkpt lat="45.4083" lon="4.57341">
        <ele>1024.2</ele>
        <time>1970-01-01T00:56:10.000Z</time>
      </trkpt>
      <trkpt lat="45.40827" lon="4.57341">
        <ele>1024.2</ele>
        <time>1970-01-01T00:56:13.000Z</time>
      </trkpt>
      <trkpt lat="45.40824" lon="4.57342">
        <ele>1024.3</ele>
        <time>1970-01-01T00:56:16.000Z</time>
      </trkpt>
      <trkpt lat="45.40821" lon="4.57346">
        <ele>1024.4</ele>
        <time>1970-01-01T00:56:21.000Z</time>
      </trkpt>
      <trkpt lat="45.40818" lon="4.57348">
        <ele>1024.4</ele>
        <time>1970-01-01T00:56:30.000Z</time>
      </trkpt>
      <trkpt lat="45.40811" lon="4.57346">
        <ele>1024.5</ele>
        <time>1970-01-01T00:56:40.000Z</time>
      </trkpt>
      <trkpt lat="45.40808" lon="4.57346">
        <ele>1024.6</ele>
        <time>1970-01-01T00:56:42.000Z</time>
      </trkpt>
      <trkpt lat="45.40805" lon="4.57344">
        <ele>1024.7</ele>
        <time>1970-01-01T00:56:44.000Z</time>
      </trkpt>
      <trkpt lat="45.40801" lon="4.57341">
        <ele>1024.7</ele>
        <time>1970-01-01T00:56:47.000Z</time>
      </trkpt>
      <trkpt lat="45.40796" lon="4.57339">
        <ele>1024.8</ele>
        <time>1970-01-01T00:56:49.000Z</time>
      </trkpt>
      <trkpt lat="45.4079" lon="4.57338">
        <ele>1025</ele>
        <time>1970-01-01T00:56:51.000Z</time>
      </trkpt>
      <trkpt lat="45.40787" lon="4.57337">
        <ele>1025</ele>
        <time>1970-01-01T00:56:52.000Z</time>
      </trkpt>
      <trkpt lat="45.40784" lon="4.57335">
        <ele>1025.1</ele>
        <time>1970-01-01T00:56:53.000Z</time>
      </trkpt>
      <trkpt lat="45.40782" lon="4.57333">
        <ele>1025.2</ele>
        <time>1970-01-01T00:56:54.000Z</time>
      </trkpt>
      <trkpt lat="45.40779" lon="4.57332">
        <ele>1025.3</ele>
        <time>1970-01-01T00:56:55.000Z</time>
      </trkpt>
      <trkpt lat="45.40774" lon="4.57331">
        <ele>1025.4</ele>
        <time>1970-01-01T00:56:58.000Z</time>
      </trkpt>
      <trkpt lat="45.40768" lon="4.57334">
        <ele>1025.5</ele>
        <time>1970-01-01T00:57:01.000Z</time>
      </trkpt>
      <trkpt lat="45.40765" lon="4.57334">
        <ele>1025.6</ele>
        <time>1970-01-01T00:57:03.000Z</time>
      </trkpt>
      <trkpt lat="45.4076" lon="4.57336">
        <ele>1025.8</ele>
        <time>1970-01-01T00:57:05.000Z</time>
      </trkpt>
      <trkpt lat="45.40756" lon="4.57338">
        <ele>1025.9</ele>
        <time>1970-01-01T00:57:07.000Z</time>
      </trkpt>
      <trkpt lat="45.40752" lon="4.57339">
        <ele>1026</ele>
        <time>1970-01-01T00:57:09.000Z</time>
      </trkpt>
      <trkpt lat="45.40748" lon="4.5734">
        <ele>1026.1</ele>
        <time>1970-01-01T00:57:11.000Z</time>
      </trkpt>
      <trkpt lat="45.40745" lon="4.57342">
        <ele>1026.1</ele>
        <time>1970-01-01T00:57:12.000Z</time>
      </trkpt>
      <trkpt lat="45.40741" lon="4.57343">
        <ele>1026.2</ele>
        <time>1970-01-01T00:57:16.000Z</time>
      </trkpt>
      <trkpt lat="45.40717" lon="4.5735">
        <ele>1026.5</ele>
        <time>1970-01-01T00:58:14.000Z</time>
      </trkpt>
      <trkpt lat="45.40714" lon="4.5735">
        <ele>1026.5</ele>
        <time>1970-01-01T00:58:15.000Z</time>
      </trkpt>
      <trkpt lat="45.40708" lon="4.57347">
        <ele>1026.6</ele>
        <time>1970-01-01T00:58:18.000Z</time>
      </trkpt>
      <trkpt lat="45.40705" lon="4.57345">
        <ele>1026.7</ele>
        <time>1970-01-01T00:58:19.000Z</time>
      </trkpt>
      <trkpt lat="45.40699" lon="4.5735">
        <ele>1026.8</ele>
        <time>1970-01-01T00:58:20.000Z</time>
      </trkpt>
      <trkpt lat="45.40684" lon="4.57362">
        <ele>1027.4</ele>
        <time>1970-01-01T00:58:22.000Z</time>
      </trkpt>
      <trkpt lat="45.40672" lon="4.5737">
        <ele>1028</ele>
        <time>1970-01-01T00:58:24.000Z</time>
      </trkpt>
      <trkpt lat="45.40665" lon="4.57373">
        <ele>1028.5</ele>
        <time>1970-01-01T00:58:25.000Z</time>
      </trkpt>
      <trkpt lat="45.4065" lon="4.57377">
        <ele>1029.5</ele>
        <time>1970-01-01T00:58:27.000Z</time>
      </trkpt>
      <trkpt lat="45.40644" lon="4.5738">
        <ele>1030</ele>
        <time>1970-01-01T00:58:28.000Z</time>
      </trkpt>
      <trkpt lat="45.40632" lon="4.57384">
        <ele>1030.9</ele>
        <time>1970-01-01T00:58:30.000Z</time>
      </trkpt>
      <trkpt lat="45.40623" lon="4.57384">
        <ele>1031.7</ele>
        <time>1970-01-01T00:58:32.000Z</time>
      </trkpt>
      <trkpt lat="45.40619" lon="4.57387">
        <ele>1032</ele>
        <time>1970-01-01T00:58:33.000Z</time>
      </trkpt>
      <trkpt lat="45.40616" lon="4.57394">
        <ele>1032.5</ele>
        <time>1970-01-01T00:58:35.000Z</time>
      </trkpt>
      <trkpt lat="45.40617" lon="4.574">
        <ele>1032.9</ele>
        <time>1970-01-01T00:58:38.000Z</time>
      </trkpt>
      <trkpt lat="45.40619" lon="4.57389">
        <ele>1033.6</ele>
        <time>1970-01-01T00:58:40.000Z</time>
      </trkpt>
      <trkpt lat="45.40615" lon="4.5739">
        <ele>1033.9</ele>
        <time>1970-01-01T00:58:41.000Z</time>
      </trkpt>
      <trkpt lat="45.40612" lon="4.57391">
        <ele>1034.1</ele>
        <time>1970-01-01T00:58:42.000Z</time>
      </trkpt>
      <trkpt lat="45.40608" lon="4.5739">
        <ele>1034.5</ele>
        <time>1970-01-01T00:58:44.000Z</time>
      </trkpt>
      <trkpt lat="45.40604" lon="4.5739">
        <ele>1034.9</ele>
        <time>1970-01-01T00:58:45.000Z</time>
      </trkpt>
      <trkpt lat="45.406" lon="4.5739">
        <ele>1035.2</ele>
        <time>1970-01-01T00:58:46.000Z</time>
      </trkpt>
      <trkpt lat="45.40596" lon="4.57391">
        <ele>1035.6</ele>
        <time>1970-01-01T00:58:47.000Z</time>
      </trkpt>
      <trkpt lat="45.40555" lon="4.57402">
        <ele>1039.8</ele>
        <time>1970-01-01T00:58:50.000Z</time>
      </trkpt>
      <trkpt lat="45.40544" lon="4.57405">
        <ele>1040.9</ele>
        <time>1970-01-01T00:58:51.000Z</time>
      </trkpt>
      <trkpt lat="45.40535" lon="4.57407">
        <ele>1041.8</ele>
        <time>1970-01-01T00:58:52.000Z</time>
      </trkpt>
      <trkpt lat="45.40527" lon="4.57409">
        <ele>1042.6</ele>
        <time>1970-01-01T00:58:53.000Z</time>
      </trkpt>
      <trkpt lat="45.40512" lon="4.57412">
        <ele>1043.9</ele>
        <time>1970-01-01T00:58:55.000Z</time>
      </trkpt>
      <trkpt lat="45.40505" lon="4.57414">
        <ele>1044.5</ele>
        <time>1970-01-01T00:58:56.000Z</time>
      </trkpt>
      <trkpt lat="45.40493" lon="4.57419">
        <ele>1045.4</ele>
        <time>1970-01-01T00:58:58.000Z</time>
      </trkpt>
      <trkpt lat="45.40481" lon="4.57422">
        <ele>1046.1</ele>
        <time>1970-01-01T00:59:00.000Z</time>
      </trkpt>
      <trkpt lat="45.40475" lon="4.57423">
        <ele>1046.4</ele>
        <time>1970-01-01T00:59:01.000Z</time>
      </trkpt>
      <trkpt lat="45.40467" lon="4.57422">
        <ele>1047</ele>
        <time>1970-01-01T00:59:03.000Z</time>
      </trkpt>
      <trkpt lat="45.40465" lon="4.57422">
        <ele>1047.2</ele>
        <time>1970-01-01T00:59:04.000Z</time>
      </trkpt>
      <trkpt lat="45.40459" lon="4.57423">
        <ele>1047.6</ele>
        <time>1970-01-01T00:59:06.000Z</time>
      </trkpt>
      <trkpt lat="45.40456" lon="4.57423">
        <ele>1047.8</ele>
        <time>1970-01-01T00:59:07.000Z</time>
      </trkpt>
      <trkpt lat="45.40456" lon="4.57419">
        <ele>1048</ele>
        <time>1970-01-01T00:59:09.000Z</time>
      </trkpt>
      <trkpt lat="45.40454" lon="4.57422">
        <ele>1048.2</ele>
        <time>1970-01-01T00:59:11.000Z</time>
      </trkpt>
      <trkpt lat="45.40451" lon="4.57422">
        <ele>1048.4</ele>
        <time>1970-01-01T00:59:13.000Z</time>
      </trkpt>
      <trkpt lat="45.40448" lon="4.57422">
        <ele>1048.6</ele>
        <time>1970-01-01T00:59:15.000Z</time>
      </trkpt>
      <trkpt lat="45.40445" lon="4.57421">
        <ele>1048.8</ele>
        <time>1970-01-01T00:59:18.000Z</time>
      </trkpt>
      <trkpt lat="45.40442" lon="4.57422">
        <ele>1049</ele>
        <time>1970-01-01T00:59:21.000Z</time>
      </trkpt>
      <trkpt lat="45.40439" lon="4.57423">
        <ele>1049.2</ele>
        <time>1970-01-01T00:59:22.000Z</time>
      </trkpt>
      <trkpt lat="45.40433" lon="4.57426">
        <ele>1049.7</ele>
        <time>1970-01-01T00:59:25.000Z</time>
      </trkpt>
      <trkpt lat="45.40429" lon="4.57427">
        <ele>1050.1</ele>
        <time>1970-01-01T00:59:26.000Z</time>
      </trkpt>
      <trkpt lat="45.40425" lon="4.57428">
        <ele>1050.5</ele>
        <time>1970-01-01T00:59:28.000Z</time>
      </trkpt>
      <trkpt lat="45.40422" lon="4.57429">
        <ele>1050.8</ele>
        <time>1970-01-01T00:59:29.000Z</time>
      </trkpt>
      <trkpt lat="45.40417" lon="4.5743">
        <ele>1051.3</ele>
        <time>1970-01-01T00:59:31.000Z</time>
      </trkpt>
      <trkpt lat="45.40413" lon="4.57432">
        <ele>1051.8</ele>
        <time>1970-01-01T00:59:32.000Z</time>
      </trkpt>
      <trkpt lat="45.4041" lon="4.57434">
        <ele>1052.1</ele>
        <time>1970-01-01T00:59:33.000Z</time>
      </trkpt>
      <trkpt lat="45.40407" lon="4.57437">
        <ele>1052.4</ele>
        <time>1970-01-01T00:59:35.000Z</time>
      </trkpt>
      <trkpt lat="45.40404" lon="4.57439">
        <ele>1052.7</ele>
        <time>1970-01-01T00:59:36.000Z</time>
      </trkpt>
      <trkpt lat="45.40401" lon="4.5744">
        <ele>1053</ele>
        <time>1970-01-01T00:59:37.000Z</time>
      </trkpt>
      <trkpt lat="45.40397" lon="4.57441">
        <ele>1053.3</ele>
        <time>1970-01-01T00:59:39.000Z</time>
      </trkpt>
      <trkpt lat="45.40392" lon="4.57441">
        <ele>1053.7</ele>
        <time>1970-01-01T00:59:41.000Z</time>
      </trkpt>
      <trkpt lat="45.40386" lon="4.57444">
        <ele>1054.2</ele>
        <time>1970-01-01T00:59:44.000Z</time>
      </trkpt>
      <trkpt lat="45.40383" lon="4.57445">
        <ele>1054.5</ele>
        <time>1970-01-01T00:59:45.000Z</time>
      </trkpt>
      <trkpt lat="45.4038" lon="4.57446">
        <ele>1054.9</ele>
        <time>1970-01-01T00:59:47.000Z</time>
      </trkpt>
      <trkpt lat="45.40377" lon="4.57448">
        <ele>1055.2</ele>
        <time>1970-01-01T00:59:48.000Z</time>
      </trkpt>
      <trkpt lat="45.40375" lon="4.57449">
        <ele>1055.5</ele>
        <time>1970-01-01T00:59:49.000Z</time>
      </trkpt>
      <trkpt lat="45.4037" lon="4.57452">
        <ele>1056.1</ele>
        <time>1970-01-01T00:59:51.000Z</time>
      </trkpt>
      <trkpt lat="45.40366" lon="4.57454">
        <ele>1056.4</ele>
        <time>1970-01-01T00:59:53.000Z</time>
      </trkpt>
      <trkpt lat="45.40359" lon="4.57457">
        <ele>1057.2</ele>
        <time>1970-01-01T00:59:56.000Z</time>
      </trkpt>
      <trkpt lat="45.40356" lon="4.57459">
        <ele>1057.5</ele>
        <time>1970-01-01T00:59:57.000Z</time>
      </trkpt>
      <trkpt lat="45.40328" lon="4.57478">
        <ele>1060.7</ele>
        <time>1970-01-01T00:59:59.000Z</time>
      </trkpt>
      <trkpt lat="45.40317" lon="4.57486">
        <ele>1062.1</ele>
        <time>1970-01-01T01:00:00.000Z</time>
      </trkpt>
      <trkpt lat="45.40308" lon="4.57494">
        <ele>1063.3</ele>
        <time>1970-01-01T01:00:01.000Z</time>
      </trkpt>
      <trkpt lat="45.403" lon="4.57501">
        <ele>1064.2</ele>
        <time>1970-01-01T01:00:02.000Z</time>
      </trkpt>
      <trkpt lat="45.40293" lon="4.57507">
        <ele>1064.9</ele>
        <time>1970-01-01T01:00:03.000Z</time>
      </trkpt>
      <trkpt lat="45.40281" lon="4.57519">
        <ele>1066.2</ele>
        <time>1970-01-01T01:00:05.000Z</time>
      </trkpt>
      <trkpt lat="45.4027" lon="4.5753">
        <ele>1067.1</ele>
        <time>1970-01-01T01:00:07.000Z</time>
      </trkpt>
      <trkpt lat="45.40265" lon="4.57536">
        <ele>1067.3</ele>
        <time>1970-01-01T01:00:08.000Z</time>
      </trkpt>
      <trkpt lat="45.4026" lon="4.57541">
        <ele>1067.6</ele>
        <time>1970-01-01T01:00:09.000Z</time>
      </trkpt>
      <trkpt lat="45.4025" lon="4.57549">
        <ele>1068</ele>
        <time>1970-01-01T01:00:11.000Z</time>
      </trkpt>
      <trkpt lat="45.40245" lon="4.57552">
        <ele>1068.2</ele>
        <time>1970-01-01T01:00:12.000Z</time>
      </trkpt>
      <trkpt lat="45.40239" lon="4.57555">
        <ele>1068.3</ele>
        <time>1970-01-01T01:00:14.000Z</time>
      </trkpt>
      <trkpt lat="45.40234" lon="4.57558">
        <ele>1068.5</ele>
        <time>1970-01-01T01:00:16.000Z</time>
      </trkpt>
      <trkpt lat="45.4023" lon="4.5756">
        <ele>1068.6</ele>
        <time>1970-01-01T01:00:18.000Z</time>
      </trkpt>
      <trkpt lat="45.40226" lon="4.5756">
        <ele>1068.6</ele>
        <time>1970-01-01T01:00:23.000Z</time>
      </trkpt>
      <trkpt lat="45.40223" lon="4.57564">
        <ele>1068.7</ele>
        <time>1970-01-01T01:00:25.000Z</time>
      </trkpt>
      <trkpt lat="45.40219" lon="4.57569">
        <ele>1068.8</ele>
        <time>1970-01-01T01:00:27.000Z</time>
      </trkpt>
      <trkpt lat="45.40217" lon="4.57573">
        <ele>1068.9</ele>
        <time>1970-01-01T01:00:28.000Z</time>
      </trkpt>
      <trkpt lat="45.40216" lon="4.57578">
        <ele>1068.9</ele>
        <time>1970-01-01T01:00:32.000Z</time>
      </trkpt>
      <trkpt lat="45.40215" lon="4.57583">
        <ele>1068.9</ele>
        <time>1970-01-01T01:00:35.000Z</time>
      </trkpt>
      <trkpt lat="45.40215" lon="4.57587">
        <ele>1068.9</ele>
        <time>1970-01-01T01:00:37.000Z</time>
      </trkpt>
      <trkpt lat="45.40217" lon="4.57591">
        <ele>1069</ele>
        <time>1970-01-01T01:00:40.000Z</time>
      </trkpt>
      <trkpt lat="45.40218" lon="4.57596">
        <ele>1069.2</ele>
        <time>1970-01-01T01:00:42.000Z</time>
      </trkpt>
      <trkpt lat="45.40221" lon="4.57602">
        <ele>1069.5</ele>
        <time>1970-01-01T01:00:45.000Z</time>
      </trkpt>
      <trkpt lat="45.40223" lon="4.57605">
        <ele>1069.7</ele>
        <time>1970-01-01T01:00:48.000Z</time>
      </trkpt>
      <trkpt lat="45.40226" lon="4.57609">
        <ele>1069.9</ele>
        <time>1970-01-01T01:00:50.000Z</time>
      </trkpt>
      <trkpt lat="45.40228" lon="4.57613">
        <ele>1070.1</ele>
        <time>1970-01-01T01:00:53.000Z</time>
      </trkpt>
      <trkpt lat="45.4023" lon="4.57618">
        <ele>1070.3</ele>
        <time>1970-01-01T01:00:56.000Z</time>
      </trkpt>
      <trkpt lat="45.40232" lon="4.57621">
        <ele>1070.4</ele>
        <time>1970-01-01T01:00:58.000Z</time>
      </trkpt>
      <trkpt lat="45.40235" lon="4.57625">
        <ele>1070.6</ele>
        <time>1970-01-01T01:01:01.000Z</time>
      </trkpt>
      <trkpt lat="45.40237" lon="4.57629">
        <ele>1070.8</ele>
        <time>1970-01-01T01:01:03.000Z</time>
      </trkpt>
      <trkpt lat="45.4024" lon="4.57633">
        <ele>1071</ele>
        <time>1970-01-01T01:01:05.000Z</time>
      </trkpt>
      <trkpt lat="45.40244" lon="4.57637">
        <ele>1071.1</ele>
        <time>1970-01-01T01:01:08.000Z</time>
      </trkpt>
      <trkpt lat="45.40246" lon="4.5764">
        <ele>1071.3</ele>
        <time>1970-01-01T01:01:10.000Z</time>
      </trkpt>
      <trkpt lat="45.40249" lon="4.57646">
        <ele>1071.5</ele>
        <time>1970-01-01T01:01:13.000Z</time>
      </trkpt>
      <trkpt lat="45.40252" lon="4.57651">
        <ele>1071.6</ele>
        <time>1970-01-01T01:01:16.000Z</time>
      </trkpt>
      <trkpt lat="45.40256" lon="4.57655">
        <ele>1071.7</ele>
        <time>1970-01-01T01:01:19.000Z</time>
      </trkpt>
      <trkpt lat="45.4026" lon="4.57659">
        <ele>1071.8</ele>
        <time>1970-01-01T01:01:21.000Z</time>
      </trkpt>
      <trkpt lat="45.40262" lon="4.57663">
        <ele>1071.9</ele>
        <time>1970-01-01T01:01:23.000Z</time>
      </trkpt>
      <trkpt lat="45.40283" lon="4.57684">
        <ele>1072</ele>
        <time>1970-01-01T01:01:25.000Z</time>
      </trkpt>
      <trkpt lat="45.40296" lon="4.57697">
        <ele>1072</ele>
        <time>1970-01-01T01:01:27.000Z</time>
      </trkpt>
      <trkpt lat="45.40305" lon="4.57711">
        <ele>1072.1</ele>
        <time>1970-01-01T01:01:29.000Z</time>
      </trkpt>
      <trkpt lat="45.40309" lon="4.57718">
        <ele>1072.2</ele>
        <time>1970-01-01T01:01:30.000Z</time>
      </trkpt>
      <trkpt lat="45.40313" lon="4.57725">
        <ele>1072.3</ele>
        <time>1970-01-01T01:01:31.000Z</time>
      </trkpt>
      <trkpt lat="45.40319" lon="4.57737">
        <ele>1072.5</ele>
        <time>1970-01-01T01:01:33.000Z</time>
      </trkpt>
      <trkpt lat="45.40322" lon="4.57744">
        <ele>1072.7</ele>
        <time>1970-01-01T01:01:34.000Z</time>
      </trkpt>
      <trkpt lat="45.40325" lon="4.57751">
        <ele>1072.8</ele>
        <time>1970-01-01T01:01:35.000Z</time>
      </trkpt>
      <trkpt lat="45.4033" lon="4.57765">
        <ele>1073</ele>
        <time>1970-01-01T01:01:37.000Z</time>
      </trkpt>
      <trkpt lat="45.40334" lon="4.57778">
        <ele>1073</ele>
        <time>1970-01-01T01:01:39.000Z</time>
      </trkpt>
      <trkpt lat="45.40336" lon="4.57784">
        <ele>1073</ele>
        <time>1970-01-01T01:01:40.000Z</time>
      </trkpt>
      <trkpt lat="45.40338" lon="4.57789">
        <ele>1073</ele>
        <time>1970-01-01T01:01:41.000Z</time>
      </trkpt>
      <trkpt lat="45.40342" lon="4.57798">
        <ele>1073.1</ele>
        <time>1970-01-01T01:01:43.000Z</time>
      </trkpt>
      <trkpt lat="45.40345" lon="4.57802">
        <ele>1073.1</ele>
        <time>1970-01-01T01:01:44.000Z</time>
      </trkpt>
      <trkpt lat="45.40349" lon="4.57808">
        <ele>1073.1</ele>
        <time>1970-01-01T01:01:46.000Z</time>
      </trkpt>
      <trkpt lat="45.40352" lon="4.57809">
        <ele>1073.1</ele>
        <time>1970-01-01T01:01:47.000Z</time>
      </trkpt>
      <trkpt lat="45.40354" lon="4.57813">
        <ele>1073.1</ele>
        <time>1970-01-01T01:01:50.000Z</time>
      </trkpt>
      <trkpt lat="45.40355" lon="4.57817">
        <ele>1073.1</ele>
        <time>1970-01-01T01:01:54.000Z</time>
      </trkpt>
      <trkpt lat="45.40357" lon="4.57821">
        <ele>1073.1</ele>
        <time>1970-01-01T01:01:56.000Z</time>
      </trkpt>
      <trkpt lat="45.40364" lon="4.57844">
        <ele>1073.1</ele>
        <time>1970-01-01T01:01:58.000Z</time>
      </trkpt>
      <trkpt lat="45.40369" lon="4.57854">
        <ele>1073.1</ele>
        <time>1970-01-01T01:01:59.000Z</time>
      </trkpt>
      <trkpt lat="45.40378" lon="4.57873">
        <ele>1073.1</ele>
        <time>1970-01-01T01:02:01.000Z</time>
      </trkpt>
      <trkpt lat="45.40382" lon="4.57881">
        <ele>1073.1</ele>
        <time>1970-01-01T01:02:02.000Z</time>
      </trkpt>
      <trkpt lat="45.40392" lon="4.57895">
        <ele>1073.1</ele>
        <time>1970-01-01T01:02:04.000Z</time>
      </trkpt>
      <trkpt lat="45.40396" lon="4.57902">
        <ele>1073</ele>
        <time>1970-01-01T01:02:05.000Z</time>
      </trkpt>
      <trkpt lat="45.40404" lon="4.57912">
        <ele>1072.9</ele>
        <time>1970-01-01T01:02:07.000Z</time>
      </trkpt>
      <trkpt lat="45.40408" lon="4.57918">
        <ele>1072.8</ele>
        <time>1970-01-01T01:02:08.000Z</time>
      </trkpt>
      <trkpt lat="45.40412" lon="4.57923">
        <ele>1072.7</ele>
        <time>1970-01-01T01:02:09.000Z</time>
      </trkpt>
      <trkpt lat="45.40416" lon="4.57929">
        <ele>1072.5</ele>
        <time>1970-01-01T01:02:10.000Z</time>
      </trkpt>
      <trkpt lat="45.40424" lon="4.57941">
        <ele>1072.3</ele>
        <time>1970-01-01T01:02:12.000Z</time>
      </trkpt>
      <trkpt lat="45.40428" lon="4.57947">
        <ele>1072.1</ele>
        <time>1970-01-01T01:02:13.000Z</time>
      </trkpt>
      <trkpt lat="45.40436" lon="4.57958">
        <ele>1071.7</ele>
        <time>1970-01-01T01:02:15.000Z</time>
      </trkpt>
      <trkpt lat="45.40441" lon="4.57967">
        <ele>1071.4</ele>
        <time>1970-01-01T01:02:17.000Z</time>
      </trkpt>
      <trkpt lat="45.40447" lon="4.57978">
        <ele>1071.1</ele>
        <time>1970-01-01T01:02:19.000Z</time>
      </trkpt>
      <trkpt lat="45.40452" lon="4.57989">
        <ele>1070.7</ele>
        <time>1970-01-01T01:02:21.000Z</time>
      </trkpt>
      <trkpt lat="45.40456" lon="4.5799">
        <ele>1070.5</ele>
        <time>1970-01-01T01:02:23.000Z</time>
      </trkpt>
      <trkpt lat="45.40452" lon="4.57994">
        <ele>1070.3</ele>
        <time>1970-01-01T01:02:24.000Z</time>
      </trkpt>
      <trkpt lat="45.40455" lon="4.57998">
        <ele>1070.1</ele>
        <time>1970-01-01T01:02:26.000Z</time>
      </trkpt>
      <trkpt lat="45.40457" lon="4.58002">
        <ele>1070</ele>
        <time>1970-01-01T01:02:27.000Z</time>
      </trkpt>
      <trkpt lat="45.40456" lon="4.58009">
        <ele>1069.8</ele>
        <time>1970-01-01T01:02:30.000Z</time>
      </trkpt>
      <trkpt lat="45.40455" lon="4.58015">
        <ele>1069.6</ele>
        <time>1970-01-01T01:02:33.000Z</time>
      </trkpt>
      <trkpt lat="45.40454" lon="4.58019">
        <ele>1069.5</ele>
        <time>1970-01-01T01:02:35.000Z</time>
      </trkpt>
      <trkpt lat="45.40453" lon="4.58024">
        <ele>1069.4</ele>
        <time>1970-01-01T01:02:37.000Z</time>
      </trkpt>
      <trkpt lat="45.40453" lon="4.5803">
        <ele>1069.2</ele>
        <time>1970-01-01T01:02:39.000Z</time>
      </trkpt>
      <trkpt lat="45.40452" lon="4.58034">
        <ele>1069.1</ele>
        <time>1970-01-01T01:02:41.000Z</time>
      </trkpt>
      <trkpt lat="45.40452" lon="4.5804">
        <ele>1069</ele>
        <time>1970-01-01T01:02:44.000Z</time>
      </trkpt>
      <trkpt lat="45.40452" lon="4.58043">
        <ele>1068.9</ele>
        <time>1970-01-01T01:02:46.000Z</time>
      </trkpt>
      <trkpt lat="45.40451" lon="4.5805">
        <ele>1068.7</ele>
        <time>1970-01-01T01:02:48.000Z</time>
      </trkpt>
      <trkpt lat="45.40451" lon="4.58054">
        <ele>1068.6</ele>
        <time>1970-01-01T01:02:50.000Z</time>
      </trkpt>
      <trkpt lat="45.4045" lon="4.58062">
        <ele>1068.4</ele>
        <time>1970-01-01T01:02:53.000Z</time>
      </trkpt>
      <trkpt lat="45.40449" lon="4.58068">
        <ele>1068.2</ele>
        <time>1970-01-01T01:02:56.000Z</time>
      </trkpt>
      <trkpt lat="45.40448" lon="4.58073">
        <ele>1068.1</ele>
        <time>1970-01-01T01:02:59.000Z</time>
      </trkpt>
      <trkpt lat="45.40445" lon="4.58079">
        <ele>1067.9</ele>
        <time>1970-01-01T01:03:02.000Z</time>
      </trkpt>
      <trkpt lat="45.40443" lon="4.58091">
        <ele>1067.6</ele>
        <time>1970-01-01T01:03:05.000Z</time>
      </trkpt>
      <trkpt lat="45.40441" lon="4.58097">
        <ele>1067.4</ele>
        <time>1970-01-01T01:03:07.000Z</time>
      </trkpt>
      <trkpt lat="45.4044" lon="4.58101">
        <ele>1067.3</ele>
        <time>1970-01-01T01:03:08.000Z</time>
      </trkpt>
      <trkpt lat="45.40439" lon="4.58104">
        <ele>1067.2</ele>
        <time>1970-01-01T01:03:10.000Z</time>
      </trkpt>
      <trkpt lat="45.40435" lon="4.58117">
        <ele>1066.9</ele>
        <time>1970-01-01T01:03:13.000Z</time>
      </trkpt>
      <trkpt lat="45.40432" lon="4.58122">
        <ele>1066.7</ele>
        <time>1970-01-01T01:03:14.000Z</time>
      </trkpt>
      <trkpt lat="45.40429" lon="4.58126">
        <ele>1066.6</ele>
        <time>1970-01-01T01:03:16.000Z</time>
      </trkpt>
      <trkpt lat="45.40427" lon="4.58128">
        <ele>1066.5</ele>
        <time>1970-01-01T01:03:17.000Z</time>
      </trkpt>
      <trkpt lat="45.40422" lon="4.5813">
        <ele>1066.4</ele>
        <time>1970-01-01T01:03:20.000Z</time>
      </trkpt>
      <trkpt lat="45.40417" lon="4.58132">
        <ele>1066.2</ele>
        <time>1970-01-01T01:03:23.000Z</time>
      </trkpt>
      <trkpt lat="45.40414" lon="4.58131">
        <ele>1066.1</ele>
        <time>1970-01-01T01:03:25.000Z</time>
      </trkpt>
      <trkpt lat="45.40411" lon="4.58137">
        <ele>1065.9</ele>
        <time>1970-01-01T01:03:27.000Z</time>
      </trkpt>
      <trkpt lat="45.40409" lon="4.58142">
        <ele>1065.8</ele>
        <time>1970-01-01T01:03:28.000Z</time>
      </trkpt>
      <trkpt lat="45.40408" lon="4.58147">
        <ele>1065.6</ele>
        <time>1970-01-01T01:03:30.000Z</time>
      </trkpt>
      <trkpt lat="45.40406" lon="4.5815">
        <ele>1065.5</ele>
        <time>1970-01-01T01:03:32.000Z</time>
      </trkpt>
      <trkpt lat="45.40403" lon="4.58154">
        <ele>1065.4</ele>
        <time>1970-01-01T01:03:35.000Z</time>
      </trkpt>
      <trkpt lat="45.40401" lon="4.58158">
        <ele>1065.2</ele>
        <time>1970-01-01T01:03:37.000Z</time>
      </trkpt>
      <trkpt lat="45.40399" lon="4.58161">
        <ele>1065.1</ele>
        <time>1970-01-01T01:03:39.000Z</time>
      </trkpt>
      <trkpt lat="45.40396" lon="4.58162">
        <ele>1065</ele>
        <time>1970-01-01T01:03:40.000Z</time>
      </trkpt>
      <trkpt lat="45.4039" lon="4.58162">
        <ele>1064.8</ele>
        <time>1970-01-01T01:03:41.000Z</time>
      </trkpt>
      <trkpt lat="45.40387" lon="4.58166">
        <ele>1064.6</ele>
        <time>1970-01-01T01:03:45.000Z</time>
      </trkpt>
      <trkpt lat="45.40384" lon="4.58168">
        <ele>1064.5</ele>
        <time>1970-01-01T01:03:47.000Z</time>
      </trkpt>
      <trkpt lat="45.40383" lon="4.58171">
        <ele>1064.4</ele>
        <time>1970-01-01T01:03:50.000Z</time>
      </trkpt>
      <trkpt lat="45.40379" lon="4.58175">
        <ele>1064.2</ele>
        <time>1970-01-01T01:03:53.000Z</time>
      </trkpt>
      <trkpt lat="45.40376" lon="4.58178">
        <ele>1064.1</ele>
        <time>1970-01-01T01:03:56.000Z</time>
      </trkpt>
      <trkpt lat="45.40373" lon="4.5818">
        <ele>1064</ele>
        <time>1970-01-01T01:03:58.000Z</time>
      </trkpt>
      <trkpt lat="45.40369" lon="4.58182">
        <ele>1063.8</ele>
        <time>1970-01-01T01:04:01.000Z</time>
      </trkpt>
      <trkpt lat="45.40364" lon="4.58185">
        <ele>1063.6</ele>
        <time>1970-01-01T01:04:04.000Z</time>
      </trkpt>
      <trkpt lat="45.40361" lon="4.58186">
        <ele>1063.5</ele>
        <time>1970-01-01T01:04:05.000Z</time>
      </trkpt>
      <trkpt lat="45.40357" lon="4.58188">
        <ele>1063.4</ele>
        <time>1970-01-01T01:04:07.000Z</time>
      </trkpt>
      <trkpt lat="45.40352" lon="4.58191">
        <ele>1063.1</ele>
        <time>1970-01-01T01:04:09.000Z</time>
      </trkpt>
      <trkpt lat="45.40348" lon="4.58193">
        <ele>1063</ele>
        <time>1970-01-01T01:04:12.000Z</time>
      </trkpt>
      <trkpt lat="45.40346" lon="4.58196">
        <ele>1062.9</ele>
        <time>1970-01-01T01:04:15.000Z</time>
      </trkpt>
      <trkpt lat="45.40343" lon="4.58195">
        <ele>1062.8</ele>
        <time>1970-01-01T01:04:19.000Z</time>
      </trkpt>
      <trkpt lat="45.40339" lon="4.58193">
        <ele>1062.7</ele>
        <time>1970-01-01T01:04:21.000Z</time>
      </trkpt>
      <trkpt lat="45.40335" lon="4.58193">
        <ele>1062.6</ele>
        <time>1970-01-01T01:04:29.000Z</time>
      </trkpt>
      <trkpt lat="45.4032" lon="4.58191">
        <ele>1062.3</ele>
        <time>1970-01-01T01:04:32.000Z</time>
      </trkpt>
      <trkpt lat="45.40317" lon="4.58191">
        <ele>1062.3</ele>
        <time>1970-01-01T01:04:35.000Z</time>
      </trkpt>
      <trkpt lat="45.40315" lon="4.58187">
        <ele>1062.3</ele>
        <time>1970-01-01T01:15:29.000Z</time>
      </trkpt>
      <trkpt lat="45.40318" lon="4.58191">
        <ele>1062.3</ele>
        <time>1970-01-01T01:16:30.000Z</time>
      </trkpt>
      <trkpt lat="45.40323" lon="4.58195">
        <ele>1062.2</ele>
        <time>1970-01-01T01:16:33.000Z</time>
      </trkpt>
      <trkpt lat="45.40331" lon="4.58199">
        <ele>1056.5</ele>
        <time>1970-01-01T01:16:36.000Z</time>
      </trkpt>
      <trkpt lat="45.40337" lon="4.58204">
        <ele>1053.9</ele>
        <time>1970-01-01T01:16:37.000Z</time>
      </trkpt>
      <trkpt lat="45.40349" lon="4.58213">
        <ele>1049.2</ele>
        <time>1970-01-01T01:16:38.000Z</time>
      </trkpt>
      <trkpt lat="45.40358" lon="4.58221">
        <ele>1045.2</ele>
        <time>1970-01-01T01:16:39.000Z</time>
      </trkpt>
      <trkpt lat="45.40374" lon="4.58235">
        <ele>1041</ele>
        <time>1970-01-01T01:16:41.000Z</time>
      </trkpt>
      <trkpt lat="45.4039" lon="4.58244">
        <ele>1037.3</ele>
        <time>1970-01-01T01:16:43.000Z</time>
      </trkpt>
      <trkpt lat="45.40406" lon="4.58249">
        <ele>1034.5</ele>
        <time>1970-01-01T01:16:45.000Z</time>
      </trkpt>
      <trkpt lat="45.40414" lon="4.58251">
        <ele>1033.6</ele>
        <time>1970-01-01T01:16:46.000Z</time>
      </trkpt>
      <trkpt lat="45.40422" lon="4.58253">
        <ele>1032.6</ele>
        <time>1970-01-01T01:16:47.000Z</time>
      </trkpt>
      <trkpt lat="45.40429" lon="4.58255">
        <ele>1031.5</ele>
        <time>1970-01-01T01:16:48.000Z</time>
      </trkpt>
      <trkpt lat="45.4044" lon="4.58259">
        <ele>1029.4</ele>
        <time>1970-01-01T01:16:50.000Z</time>
      </trkpt>
      <trkpt lat="45.40447" lon="4.58264">
        <ele>1027.9</ele>
        <time>1970-01-01T01:16:51.000Z</time>
      </trkpt>
      <trkpt lat="45.4046" lon="4.58277">
        <ele>1024.6</ele>
        <time>1970-01-01T01:16:53.000Z</time>
      </trkpt>
      <trkpt lat="45.40465" lon="4.58282">
        <ele>1022.7</ele>
        <time>1970-01-01T01:16:54.000Z</time>
      </trkpt>
      <trkpt lat="45.40474" lon="4.5829">
        <ele>1019.2</ele>
        <time>1970-01-01T01:16:56.000Z</time>
      </trkpt>
      <trkpt lat="45.40476" lon="4.58296">
        <ele>1017.5</ele>
        <time>1970-01-01T01:16:57.000Z</time>
      </trkpt>
      <trkpt lat="45.40478" lon="4.58304">
        <ele>1016</ele>
        <time>1970-01-01T01:16:58.000Z</time>
      </trkpt>
      <trkpt lat="45.40481" lon="4.58313">
        <ele>1013.2</ele>
        <time>1970-01-01T01:17:00.000Z</time>
      </trkpt>
      <trkpt lat="45.40483" lon="4.58316">
        <ele>1012.5</ele>
        <time>1970-01-01T01:17:02.000Z</time>
      </trkpt>
      <trkpt lat="45.40485" lon="4.5832">
        <ele>1011.6</ele>
        <time>1970-01-01T01:17:05.000Z</time>
      </trkpt>
      <trkpt lat="45.40486" lon="4.58324">
        <ele>1010.9</ele>
        <time>1970-01-01T01:17:08.000Z</time>
      </trkpt>
      <trkpt lat="45.40483" lon="4.58326">
        <ele>1010.1</ele>
        <time>1970-01-01T01:17:10.000Z</time>
      </trkpt>
      <trkpt lat="45.40486" lon="4.58329">
        <ele>1008.4</ele>
        <time>1970-01-01T01:17:12.000Z</time>
      </trkpt>
      <trkpt lat="45.40495" lon="4.58348">
        <ele>1001.8</ele>
        <time>1970-01-01T01:17:14.000Z</time>
      </trkpt>
      <trkpt lat="45.40504" lon="4.58357">
        <ele>999.6</ele>
        <time>1970-01-01T01:17:15.000Z</time>
      </trkpt>
      <trkpt lat="45.40513" lon="4.58366">
        <ele>997</ele>
        <time>1970-01-01T01:17:16.000Z</time>
      </trkpt>
      <trkpt lat="45.40533" lon="4.5838">
        <ele>992</ele>
        <time>1970-01-01T01:17:18.000Z</time>
      </trkpt>
      <trkpt lat="45.40551" lon="4.58387">
        <ele>988.5</ele>
        <time>1970-01-01T01:17:20.000Z</time>
      </trkpt>
      <trkpt lat="45.40563" lon="4.58388">
        <ele>985.2</ele>
        <time>1970-01-01T01:17:22.000Z</time>
      </trkpt>
      <trkpt lat="45.40568" lon="4.58388">
        <ele>984.3</ele>
        <time>1970-01-01T01:17:23.000Z</time>
      </trkpt>
      <trkpt lat="45.40581" lon="4.58385">
        <ele>980.5</ele>
        <time>1970-01-01T01:17:25.000Z</time>
      </trkpt>
      <trkpt lat="45.40594" lon="4.58379">
        <ele>977.8</ele>
        <time>1970-01-01T01:17:27.000Z</time>
      </trkpt>
      <trkpt lat="45.40598" lon="4.58376">
        <ele>976.7</ele>
        <time>1970-01-01T01:17:28.000Z</time>
      </trkpt>
      <trkpt lat="45.40602" lon="4.58377">
        <ele>975.7</ele>
        <time>1970-01-01T01:17:29.000Z</time>
      </trkpt>
      <trkpt lat="45.40609" lon="4.58377">
        <ele>974.4</ele>
        <time>1970-01-01T01:17:31.000Z</time>
      </trkpt>
      <trkpt lat="45.40615" lon="4.58374">
        <ele>973.3</ele>
        <time>1970-01-01T01:17:33.000Z</time>
      </trkpt>
      <trkpt lat="45.40619" lon="4.58372">
        <ele>972.3</ele>
        <time>1970-01-01T01:17:34.000Z</time>
      </trkpt>
      <trkpt lat="45.40616" lon="4.58368">
        <ele>971.4</ele>
        <time>1970-01-01T01:17:36.000Z</time>
      </trkpt>
      <trkpt lat="45.40617" lon="4.58364">
        <ele>970.5</ele>
        <time>1970-01-01T01:17:41.000Z</time>
      </trkpt>
      <trkpt lat="45.40628" lon="4.58371">
        <ele>966.5</ele>
        <time>1970-01-01T01:17:43.000Z</time>
      </trkpt>
      <trkpt lat="45.40632" lon="4.58374">
        <ele>964.7</ele>
        <time>1970-01-01T01:17:45.000Z</time>
      </trkpt>
      <trkpt lat="45.40653" lon="4.58386">
        <ele>957</ele>
        <time>1970-01-01T01:17:46.000Z</time>
      </trkpt>
      <trkpt lat="45.40669" lon="4.58405">
        <ele>950.7</ele>
        <time>1970-01-01T01:17:48.000Z</time>
      </trkpt>
      <trkpt lat="45.40682" lon="4.58426">
        <ele>947.3</ele>
        <time>1970-01-01T01:17:50.000Z</time>
      </trkpt>
      <trkpt lat="45.40686" lon="4.58438">
        <ele>946.3</ele>
        <time>1970-01-01T01:17:51.000Z</time>
      </trkpt>
      <trkpt lat="45.40689" lon="4.58438">
        <ele>946.2</ele>
        <time>1970-01-01T01:17:53.000Z</time>
      </trkpt>
      <trkpt lat="45.40699" lon="4.58435">
        <ele>945.3</ele>
        <time>1970-01-01T01:17:56.000Z</time>
      </trkpt>
      <trkpt lat="45.40707" lon="4.58433">
        <ele>944.2</ele>
        <time>1970-01-01T01:17:58.000Z</time>
      </trkpt>
      <trkpt lat="45.40713" lon="4.58438">
        <ele>942.6</ele>
        <time>1970-01-01T01:17:59.000Z</time>
      </trkpt>
      <trkpt lat="45.4071" lon="4.58434">
        <ele>941.9</ele>
        <time>1970-01-01T01:18:00.000Z</time>
      </trkpt>
      <trkpt lat="45.40729" lon="4.5844">
        <ele>937.3</ele>
        <time>1970-01-01T01:18:03.000Z</time>
      </trkpt>
      <trkpt lat="45.40737" lon="4.58448">
        <ele>934.8</ele>
        <time>1970-01-01T01:18:04.000Z</time>
      </trkpt>
      <trkpt lat="45.40751" lon="4.58463">
        <ele>929.6</ele>
        <time>1970-01-01T01:18:06.000Z</time>
      </trkpt>
      <trkpt lat="45.40757" lon="4.58466">
        <ele>927.5</ele>
        <time>1970-01-01T01:18:07.000Z</time>
      </trkpt>
      <trkpt lat="45.4076" lon="4.58463">
        <ele>926.3</ele>
        <time>1970-01-01T01:18:09.000Z</time>
      </trkpt>
      <trkpt lat="45.40762" lon="4.58457">
        <ele>925.1</ele>
        <time>1970-01-01T01:18:12.000Z</time>
      </trkpt>
      <trkpt lat="45.40764" lon="4.58454">
        <ele>924.2</ele>
        <time>1970-01-01T01:18:14.000Z</time>
      </trkpt>
      <trkpt lat="45.40766" lon="4.58451">
        <ele>923.5</ele>
        <time>1970-01-01T01:18:15.000Z</time>
      </trkpt>
      <trkpt lat="45.408" lon="4.58472">
        <ele>910.2</ele>
        <time>1970-01-01T01:18:17.000Z</time>
      </trkpt>
      <trkpt lat="45.40807" lon="4.58474">
        <ele>907.2</ele>
        <time>1970-01-01T01:18:18.000Z</time>
      </trkpt>
      <trkpt lat="45.40821" lon="4.58474">
        <ele>902.9</ele>
        <time>1970-01-01T01:18:20.000Z</time>
      </trkpt>
      <trkpt lat="45.40827" lon="4.58476">
        <ele>900.3</ele>
        <time>1970-01-01T01:18:21.000Z</time>
      </trkpt>
      <trkpt lat="45.40834" lon="4.58481">
        <ele>897.4</ele>
        <time>1970-01-01T01:18:22.000Z</time>
      </trkpt>
      <trkpt lat="45.4084" lon="4.58485">
        <ele>894.7</ele>
        <time>1970-01-01T01:18:24.000Z</time>
      </trkpt>
      <trkpt lat="45.40841" lon="4.58484">
        <ele>894.6</ele>
        <time>1970-01-01T01:18:26.000Z</time>
      </trkpt>
      <trkpt lat="45.40838" lon="4.58483">
        <ele>893.6</ele>
        <time>1970-01-01T01:18:27.000Z</time>
      </trkpt>
      <trkpt lat="45.40842" lon="4.58482">
        <ele>891.3</ele>
        <time>1970-01-01T01:18:30.000Z</time>
      </trkpt>
      <trkpt lat="45.40845" lon="4.58486">
        <ele>889.2</ele>
        <time>1970-01-01T01:18:31.000Z</time>
      </trkpt>
      <trkpt lat="45.40848" lon="4.5849">
        <ele>887.8</ele>
        <time>1970-01-01T01:18:33.000Z</time>
      </trkpt>
      <trkpt lat="45.40852" lon="4.5849">
        <ele>886.4</ele>
        <time>1970-01-01T01:18:34.000Z</time>
      </trkpt>
      <trkpt lat="45.40856" lon="4.58491">
        <ele>884.7</ele>
        <time>1970-01-01T01:18:36.000Z</time>
      </trkpt>
      <trkpt lat="45.40859" lon="4.58501">
        <ele>881.4</ele>
        <time>1970-01-01T01:18:37.000Z</time>
      </trkpt>
      <trkpt lat="45.40862" lon="4.58504">
        <ele>879.5</ele>
        <time>1970-01-01T01:18:39.000Z</time>
      </trkpt>
      <trkpt lat="45.40904" lon="4.58539">
        <ele>860.9</ele>
        <time>1970-01-01T01:18:42.000Z</time>
      </trkpt>
      <trkpt lat="45.40911" lon="4.58544">
        <ele>859.8</ele>
        <time>1970-01-01T01:18:43.000Z</time>
      </trkpt>
      <trkpt lat="45.4092" lon="4.58546">
        <ele>858</ele>
        <time>1970-01-01T01:18:44.000Z</time>
      </trkpt>
      <trkpt lat="45.40936" lon="4.58542">
        <ele>855.2</ele>
        <time>1970-01-01T01:18:46.000Z</time>
      </trkpt>
      <trkpt lat="45.40949" lon="4.58542">
        <ele>853.3</ele>
        <time>1970-01-01T01:18:48.000Z</time>
      </trkpt>
      <trkpt lat="45.40958" lon="4.58538">
        <ele>851.4</ele>
        <time>1970-01-01T01:18:50.000Z</time>
      </trkpt>
      <trkpt lat="45.40959" lon="4.58546">
        <ele>850.2</ele>
        <time>1970-01-01T01:18:52.000Z</time>
      </trkpt>
      <trkpt lat="45.40963" lon="4.58546">
        <ele>849.4</ele>
        <time>1970-01-01T01:18:56.000Z</time>
      </trkpt>
      <trkpt lat="45.40966" lon="4.58546">
        <ele>848.8</ele>
        <time>1970-01-01T01:18:58.000Z</time>
      </trkpt>
      <trkpt lat="45.4097" lon="4.58542">
        <ele>848.1</ele>
        <time>1970-01-01T01:19:01.000Z</time>
      </trkpt>
      <trkpt lat="45.40974" lon="4.58538">
        <ele>846.6</ele>
        <time>1970-01-01T01:19:03.000Z</time>
      </trkpt>
      <trkpt lat="45.40989" lon="4.58533">
        <ele>842.1</ele>
        <time>1970-01-01T01:19:04.000Z</time>
      </trkpt>
      <trkpt lat="45.41005" lon="4.58533">
        <ele>837.3</ele>
        <time>1970-01-01T01:19:06.000Z</time>
      </trkpt>
      <trkpt lat="45.41013" lon="4.58535">
        <ele>834.2</ele>
        <time>1970-01-01T01:19:07.000Z</time>
      </trkpt>
      <trkpt lat="45.41008" lon="4.58535">
        <ele>835.2</ele>
        <time>1970-01-01T01:19:09.000Z</time>
      </trkpt>
      <trkpt lat="45.41013" lon="4.58541">
        <ele>834.3</ele>
        <time>1970-01-01T01:19:10.000Z</time>
      </trkpt>
      <trkpt lat="45.4102" lon="4.58549">
        <ele>831.4</ele>
        <time>1970-01-01T01:19:12.000Z</time>
      </trkpt>
      <trkpt lat="45.41023" lon="4.58552">
        <ele>831.5</ele>
        <time>1970-01-01T01:19:13.000Z</time>
      </trkpt>
      <trkpt lat="45.41028" lon="4.5856">
        <ele>828.7</ele>
        <time>1970-01-01T01:19:15.000Z</time>
      </trkpt>
      <trkpt lat="45.41032" lon="4.58561">
        <ele>825.9</ele>
        <time>1970-01-01T01:19:17.000Z</time>
      </trkpt>
      <trkpt lat="45.41043" lon="4.58567">
        <ele>821.7</ele>
        <time>1970-01-01T01:19:19.000Z</time>
      </trkpt>
      <trkpt lat="45.41049" lon="4.58568">
        <ele>818.4</ele>
        <time>1970-01-01T01:19:20.000Z</time>
      </trkpt>
      <trkpt lat="45.41063" lon="4.58573">
        <ele>808.9</ele>
        <time>1970-01-01T01:19:22.000Z</time>
      </trkpt>
      <trkpt lat="45.41072" lon="4.58587">
        <ele>802.7</ele>
        <time>1970-01-01T01:19:24.000Z</time>
      </trkpt>
      <trkpt lat="45.41037" lon="4.58568">
        <ele>824</ele>
        <time>1970-01-01T01:19:27.000Z</time>
      </trkpt>
      <trkpt lat="45.41044" lon="4.58568">
        <ele>819.7</ele>
        <time>1970-01-01T01:19:31.000Z</time>
      </trkpt>
      <trkpt lat="45.4105" lon="4.5857">
        <ele>816.2</ele>
        <time>1970-01-01T01:19:33.000Z</time>
      </trkpt>
      <trkpt lat="45.41055" lon="4.58578">
        <ele>813.9</ele>
        <time>1970-01-01T01:19:34.000Z</time>
      </trkpt>
      <trkpt lat="45.41058" lon="4.58582">
        <ele>811.6</ele>
        <time>1970-01-01T01:19:35.000Z</time>
      </trkpt>
      <trkpt lat="45.41078" lon="4.58605">
        <ele>796.5</ele>
        <time>1970-01-01T01:19:37.000Z</time>
      </trkpt>
      <trkpt lat="45.41097" lon="4.58624">
        <ele>781.2</ele>
        <time>1970-01-01T01:19:40.000Z</time>
      </trkpt>
      <trkpt lat="45.41114" lon="4.58628">
        <ele>770.1</ele>
        <time>1970-01-01T01:19:42.000Z</time>
      </trkpt>
      <trkpt lat="45.4112" lon="4.5863">
        <ele>765.9</ele>
        <time>1970-01-01T01:19:43.000Z</time>
      </trkpt>
      <trkpt lat="45.41132" lon="4.58645">
        <ele>757.4</ele>
        <time>1970-01-01T01:19:45.000Z</time>
      </trkpt>
      <trkpt lat="45.41133" lon="4.58654">
        <ele>755.4</ele>
        <time>1970-01-01T01:19:46.000Z</time>
      </trkpt>
      <trkpt lat="45.41132" lon="4.58664">
        <ele>753.9</ele>
        <time>1970-01-01T01:19:47.000Z</time>
      </trkpt>
      <trkpt lat="45.41127" lon="4.58667">
        <ele>756</ele>
        <time>1970-01-01T01:19:48.000Z</time>
      </trkpt>
      <trkpt lat="45.41124" lon="4.58667">
        <ele>757.3</ele>
        <time>1970-01-01T01:19:50.000Z</time>
      </trkpt>
      <trkpt lat="45.41124" lon="4.58679">
        <ele>754.6</ele>
        <time>1970-01-01T01:19:52.000Z</time>
      </trkpt>
      <trkpt lat="45.41124" lon="4.58673">
        <ele>756.3</ele>
        <time>1970-01-01T01:19:54.000Z</time>
      </trkpt>
      <trkpt lat="45.41126" lon="4.58669">
        <ele>755.7</ele>
        <time>1970-01-01T01:19:55.000Z</time>
      </trkpt>
      <trkpt lat="45.41133" lon="4.58675">
        <ele>751.1</ele>
        <time>1970-01-01T01:19:57.000Z</time>
      </trkpt>
      <trkpt lat="45.41135" lon="4.58679">
        <ele>748.7</ele>
        <time>1970-01-01T01:19:58.000Z</time>
      </trkpt>
      <trkpt lat="45.41138" lon="4.58681">
        <ele>747.1</ele>
        <time>1970-01-01T01:19:59.000Z</time>
      </trkpt>
      <trkpt lat="45.41141" lon="4.58684">
        <ele>746.2</ele>
        <time>1970-01-01T01:20:00.000Z</time>
      </trkpt>
      <trkpt lat="45.4114" lon="4.58692">
        <ele>744.3</ele>
        <time>1970-01-01T01:20:02.000Z</time>
      </trkpt>
      <trkpt lat="45.4114" lon="4.58697">
        <ele>744</ele>
        <time>1970-01-01T01:20:03.000Z</time>
      </trkpt>
      <trkpt lat="45.4114" lon="4.58707">
        <ele>743.4</ele>
        <time>1970-01-01T01:20:05.000Z</time>
      </trkpt>
      <trkpt lat="45.41143" lon="4.58721">
        <ele>743.3</ele>
        <time>1970-01-01T01:20:06.000Z</time>
      </trkpt>
      <trkpt lat="45.41142" lon="4.58729">
        <ele>743.6</ele>
        <time>1970-01-01T01:20:08.000Z</time>
      </trkpt>
      <trkpt lat="45.41142" lon="4.58751">
        <ele>743.9</ele>
        <time>1970-01-01T01:20:09.000Z</time>
      </trkpt>
      <trkpt lat="45.41141" lon="4.58774">
        <ele>741.3</ele>
        <time>1970-01-01T01:20:11.000Z</time>
      </trkpt>
      <trkpt lat="45.41143" lon="4.58792">
        <ele>739.7</ele>
        <time>1970-01-01T01:20:15.000Z</time>
      </trkpt>
      <trkpt lat="45.41135" lon="4.58816">
        <ele>739.9</ele>
        <time>1970-01-01T01:20:17.000Z</time>
      </trkpt>
      <trkpt lat="45.41127" lon="4.58834">
        <ele>740.2</ele>
        <time>1970-01-01T01:20:19.000Z</time>
      </trkpt>
      <trkpt lat="45.41118" lon="4.58852">
        <ele>740.7</ele>
        <time>1970-01-01T01:20:21.000Z</time>
      </trkpt>
      <trkpt lat="45.41115" lon="4.5886">
        <ele>741</ele>
        <time>1970-01-01T01:20:22.000Z</time>
      </trkpt>
      <trkpt lat="45.41113" lon="4.58868">
        <ele>741.3</ele>
        <time>1970-01-01T01:20:23.000Z</time>
      </trkpt>
      <trkpt lat="45.41111" lon="4.58882">
        <ele>741.9</ele>
        <time>1970-01-01T01:20:25.000Z</time>
      </trkpt>
      <trkpt lat="45.41109" lon="4.58891">
        <ele>742.3</ele>
        <time>1970-01-01T01:20:27.000Z</time>
      </trkpt>
      <trkpt lat="45.41107" lon="4.58897">
        <ele>742.6</ele>
        <time>1970-01-01T01:20:28.000Z</time>
      </trkpt>
      <trkpt lat="45.41104" lon="4.58902">
        <ele>742.8</ele>
        <time>1970-01-01T01:20:30.000Z</time>
      </trkpt>
      <trkpt lat="45.41099" lon="4.58907">
        <ele>744.3</ele>
        <time>1970-01-01T01:20:33.000Z</time>
      </trkpt>
      <trkpt lat="45.41846" lon="4.5902">
        <ele>826.1</ele>
        <time>1970-01-01T01:31:16.000Z</time>
      </trkpt>
      <trkpt lat="45.41847" lon="4.59023">
        <ele>826.2</ele>
        <time>1970-01-01T01:31:18.000Z</time>
      </trkpt>
      <trkpt lat="45.4185" lon="4.59027">
        <ele>826.4</ele>
        <time>1970-01-01T01:31:20.000Z</time>
      </trkpt>
      <trkpt lat="45.41852" lon="4.5903">
        <ele>826.5</ele>
        <time>1970-01-01T01:31:22.000Z</time>
      </trkpt>
      <trkpt lat="45.41854" lon="4.59032">
        <ele>826.6</ele>
        <time>1970-01-01T01:31:23.000Z</time>
      </trkpt>
      <trkpt lat="45.41857" lon="4.59037">
        <ele>826.8</ele>
        <time>1970-01-01T01:31:25.000Z</time>
      </trkpt>
      <trkpt lat="45.41859" lon="4.59042">
        <ele>826.9</ele>
        <time>1970-01-01T01:31:27.000Z</time>
      </trkpt>
      <trkpt lat="45.41861" lon="4.59047">
        <ele>827.1</ele>
        <time>1970-01-01T01:31:29.000Z</time>
      </trkpt>
      <trkpt lat="45.41864" lon="4.59051">
        <ele>827.2</ele>
        <time>1970-01-01T01:31:31.000Z</time>
      </trkpt>
      <trkpt lat="45.41868" lon="4.59059">
        <ele>827.4</ele>
        <time>1970-01-01T01:31:34.000Z</time>
      </trkpt>
      <trkpt lat="45.41871" lon="4.59062">
        <ele>827.6</ele>
        <time>1970-01-01T01:31:36.000Z</time>
      </trkpt>
      <trkpt lat="45.41876" lon="4.59065">
        <ele>827.9</ele>
        <time>1970-01-01T01:31:38.000Z</time>
      </trkpt>
      <trkpt lat="45.41879" lon="4.59066">
        <ele>828</ele>
        <time>1970-01-01T01:31:41.000Z</time>
      </trkpt>
      <trkpt lat="45.41883" lon="4.5907">
        <ele>828.2</ele>
        <time>1970-01-01T01:31:45.000Z</time>
      </trkpt>
      <trkpt lat="45.41886" lon="4.59072">
        <ele>828.4</ele>
        <time>1970-01-01T01:31:47.000Z</time>
      </trkpt>
      <trkpt lat="45.41889" lon="4.59075">
        <ele>828.6</ele>
        <time>1970-01-01T01:31:50.000Z</time>
      </trkpt>
      <trkpt lat="45.41893" lon="4.5908">
        <ele>828.9</ele>
        <time>1970-01-01T01:31:54.000Z</time>
      </trkpt>
      <trkpt lat="45.41896" lon="4.59085">
        <ele>829.1</ele>
        <time>1970-01-01T01:31:57.000Z</time>
      </trkpt>
      <trkpt lat="45.41899" lon="4.59088">
        <ele>829.2</ele>
        <time>1970-01-01T01:31:59.000Z</time>
      </trkpt>
      <trkpt lat="45.41902" lon="4.59091">
        <ele>829.3</ele>
        <time>1970-01-01T01:32:01.000Z</time>
      </trkpt>
      <trkpt lat="45.41903" lon="4.59095">
        <ele>829.4</ele>
        <time>1970-01-01T01:32:03.000Z</time>
      </trkpt>
      <trkpt lat="45.41907" lon="4.591">
        <ele>829.5</ele>
        <time>1970-01-01T01:32:06.000Z</time>
      </trkpt>
      <trkpt lat="45.4191" lon="4.59103">
        <ele>829.7</ele>
        <time>1970-01-01T01:32:08.000Z</time>
      </trkpt>
      <trkpt lat="45.41913" lon="4.59109">
        <ele>829.8</ele>
        <time>1970-01-01T01:32:11.000Z</time>
      </trkpt>
      <trkpt lat="45.41917" lon="4.59116">
        <ele>830</ele>
        <time>1970-01-01T01:32:13.000Z</time>
      </trkpt>
      <trkpt lat="45.41921" lon="4.59119">
        <ele>830.1</ele>
        <time>1970-01-01T01:32:16.000Z</time>
      </trkpt>
      <trkpt lat="45.41924" lon="4.59122">
        <ele>830.2</ele>
        <time>1970-01-01T01:32:19.000Z</time>
      </trkpt>
      <trkpt lat="45.41926" lon="4.59126">
        <ele>830.4</ele>
        <time>1970-01-01T01:32:22.000Z</time>
      </trkpt>
      <trkpt lat="45.4194" lon="4.59139">
        <ele>831</ele>
        <time>1970-01-01T01:32:50.000Z</time>
      </trkpt>
      <trkpt lat="45.41943" lon="4.5914">
        <ele>831.1</ele>
        <time>1970-01-01T01:32:53.000Z</time>
      </trkpt>
      <trkpt lat="45.41945" lon="4.59137">
        <ele>831.2</ele>
        <time>1970-01-01T01:32:56.000Z</time>
      </trkpt>
      <trkpt lat="45.41945" lon="4.59131">
        <ele>830.5</ele>
        <time>1970-01-01T01:32:58.000Z</time>
      </trkpt>
      <trkpt lat="45.41943" lon="4.59126">
        <ele>830.1</ele>
        <time>1970-01-01T01:33:00.000Z</time>
      </trkpt>
      <trkpt lat="45.41947" lon="4.59127">
        <ele>829.8</ele>
        <time>1970-01-01T01:33:03.000Z</time>
      </trkpt>
      <trkpt lat="45.4195" lon="4.5912">
        <ele>827.9</ele>
        <time>1970-01-01T01:33:05.000Z</time>
      </trkpt>
      <trkpt lat="45.4195" lon="4.59116">
        <ele>827.1</ele>
        <time>1970-01-01T01:33:07.000Z</time>
      </trkpt>
      <trkpt lat="45.41955" lon="4.59116">
        <ele>826.5</ele>
        <time>1970-01-01T01:33:09.000Z</time>
      </trkpt>
      <trkpt lat="45.41956" lon="4.59112">
        <ele>825.6</ele>
        <time>1970-01-01T01:33:10.000Z</time>
      </trkpt>
      <trkpt lat="45.41954" lon="4.59105">
        <ele>824.6</ele>
        <time>1970-01-01T01:33:12.000Z</time>
      </trkpt>
      <trkpt lat="45.41974" lon="4.59014">
        <ele>799.3</ele>
        <time>1970-01-01T01:33:15.000Z</time>
      </trkpt>
      <trkpt lat="45.41969" lon="4.58998">
        <ele>796.7</ele>
        <time>1970-01-01T01:33:17.000Z</time>
      </trkpt>
      <trkpt lat="45.41969" lon="4.58989">
        <ele>794.7</ele>
        <time>1970-01-01T01:33:18.000Z</time>
      </trkpt>
      <trkpt lat="45.41971" lon="4.58978">
        <ele>791.6</ele>
        <time>1970-01-01T01:33:20.000Z</time>
      </trkpt>
      <trkpt lat="45.41975" lon="4.58981">
        <ele>792.1</ele>
        <time>1970-01-01T01:33:22.000Z</time>
      </trkpt>
      <trkpt lat="45.41989" lon="4.58974">
        <ele>787.4</ele>
        <time>1970-01-01T01:33:24.000Z</time>
      </trkpt>
      <trkpt lat="45.41999" lon="4.58969">
        <ele>784.2</ele>
        <time>1970-01-01T01:33:26.000Z</time>
      </trkpt>
      <trkpt lat="45.41996" lon="4.58975">
        <ele>786.4</ele>
        <time>1970-01-01T01:33:27.000Z</time>
      </trkpt>
      <trkpt lat="45.41981" lon="4.58977">
        <ele>789.5</ele>
        <time>1970-01-01T01:33:29.000Z</time>
      </trkpt>
      <trkpt lat="45.4199" lon="4.58972">
        <ele>786.9</ele>
        <time>1970-01-01T01:33:32.000Z</time>
      </trkpt>
      <trkpt lat="45.42027" lon="4.58965">
        <ele>778.1</ele>
        <time>1970-01-01T01:33:34.000Z</time>
      </trkpt>
      <trkpt lat="45.42048" lon="4.5897">
        <ele>775.4</ele>
        <time>1970-01-01T01:33:36.000Z</time>
      </trkpt>
      <trkpt lat="45.4206" lon="4.58974">
        <ele>773.9</ele>
        <time>1970-01-01T01:33:38.000Z</time>
      </trkpt>
      <trkpt lat="45.42063" lon="4.58981">
        <ele>775.4</ele>
        <time>1970-01-01T01:33:39.000Z</time>
      </trkpt>
      <trkpt lat="45.42067" lon="4.58978">
        <ele>773.5</ele>
        <time>1970-01-01T01:33:41.000Z</time>
      </trkpt>
      <trkpt lat="45.42071" lon="4.58981">
        <ele>773.9</ele>
        <time>1970-01-01T01:33:44.000Z</time>
      </trkpt>
      <trkpt lat="45.42074" lon="4.58983">
        <ele>773.1</ele>
        <time>1970-01-01T01:33:45.000Z</time>
      </trkpt>
      <trkpt lat="45.42077" lon="4.58984">
        <ele>773.3</ele>
        <time>1970-01-01T01:33:46.000Z</time>
      </trkpt>
      <trkpt lat="45.42083" lon="4.58988">
        <ele>771.4</ele>
        <time>1970-01-01T01:33:49.000Z</time>
      </trkpt>
      <trkpt lat="45.42084" lon="4.58993">
        <ele>772.2</ele>
        <time>1970-01-01T01:33:51.000Z</time>
      </trkpt>
      <trkpt lat="45.42087" lon="4.58997">
        <ele>772</ele>
        <time>1970-01-01T01:33:53.000Z</time>
      </trkpt>
      <trkpt lat="45.42092" lon="4.59002">
        <ele>771.9</ele>
        <time>1970-01-01T01:33:55.000Z</time>
      </trkpt>
      <trkpt lat="45.42095" lon="4.59005">
        <ele>770.8</ele>
        <time>1970-01-01T01:33:57.000Z</time>
      </trkpt>
      <trkpt lat="45.42098" lon="4.59009">
        <ele>770.9</ele>
        <time>1970-01-01T01:33:58.000Z</time>
      </trkpt>
      <trkpt lat="45.42101" lon="4.59012">
        <ele>770.9</ele>
        <time>1970-01-01T01:33:59.000Z</time>
      </trkpt>
      <trkpt lat="45.42107" lon="4.59021">
        <ele>770.9</ele>
        <time>1970-01-01T01:34:00.000Z</time>
      </trkpt>
      <trkpt lat="45.4211" lon="4.59022">
        <ele>769.8</ele>
        <time>1970-01-01T01:34:01.000Z</time>
      </trkpt>
      <trkpt lat="45.42115" lon="4.59023">
        <ele>768.3</ele>
        <time>1970-01-01T01:34:03.000Z</time>
      </trkpt>
      <trkpt lat="45.42128" lon="4.59033">
        <ele>765.5</ele>
        <time>1970-01-01T01:34:04.000Z</time>
      </trkpt>
      <trkpt lat="45.4215" lon="4.59046">
        <ele>756</ele>
        <time>1970-01-01T01:34:06.000Z</time>
      </trkpt>
      <trkpt lat="45.42159" lon="4.59053">
        <ele>752.1</ele>
        <time>1970-01-01T01:34:08.000Z</time>
      </trkpt>
      <trkpt lat="45.42164" lon="4.59058">
        <ele>751.2</ele>
        <time>1970-01-01T01:34:09.000Z</time>
      </trkpt>
      <trkpt lat="45.42171" lon="4.59057">
        <ele>745.2</ele>
        <time>1970-01-01T01:34:10.000Z</time>
      </trkpt>
      <trkpt lat="45.42177" lon="4.5906">
        <ele>744.3</ele>
        <time>1970-01-01T01:34:13.000Z</time>
      </trkpt>
      <trkpt lat="45.42179" lon="4.59059">
        <ele>742.8</ele>
        <time>1970-01-01T01:34:17.000Z</time>
      </trkpt>
      <trkpt lat="45.42181" lon="4.59059">
        <ele>741.3</ele>
        <time>1970-01-01T01:34:20.000Z</time>
      </trkpt>
      <trkpt lat="45.42184" lon="4.59058">
        <ele>739.8</ele>
        <time>1970-01-01T01:34:21.000Z</time>
      </trkpt>
      <trkpt lat="45.42188" lon="4.5906">
        <ele>738.2</ele>
        <time>1970-01-01T01:34:27.000Z</time>
      </trkpt>
      <trkpt lat="45.42194" lon="4.59059">
        <ele>734.6</ele>
        <time>1970-01-01T01:34:30.000Z</time>
      </trkpt>
      <trkpt lat="45.42196" lon="4.59063">
        <ele>733.6</ele>
        <time>1970-01-01T01:34:32.000Z</time>
      </trkpt>
      <trkpt lat="45.42199" lon="4.59064">
        <ele>731.8</ele>
        <time>1970-01-01T01:34:33.000Z</time>
      </trkpt>
      <trkpt lat="45.42204" lon="4.59062">
        <ele>730.1</ele>
        <time>1970-01-01T01:34:35.000Z</time>
      </trkpt>
      <trkpt lat="45.42206" lon="4.59058">
        <ele>727.6</ele>
        <time>1970-01-01T01:34:36.000Z</time>
      </trkpt>
      <trkpt lat="45.42212" lon="4.59059">
        <ele>724.3</ele>
        <time>1970-01-01T01:34:39.000Z</time>
      </trkpt>
      <trkpt lat="45.42214" lon="4.59061">
        <ele>722.6</ele>
        <time>1970-01-01T01:34:40.000Z</time>
      </trkpt>
      <trkpt lat="45.42216" lon="4.59064">
        <ele>721.6</ele>
        <time>1970-01-01T01:34:43.000Z</time>
      </trkpt>
      <trkpt lat="45.42224" lon="4.59067">
        <ele>718.7</ele>
        <time>1970-01-01T01:34:46.000Z</time>
      </trkpt>
      <trkpt lat="45.42235" lon="4.59063">
        <ele>711.1</ele>
        <time>1970-01-01T01:34:47.000Z</time>
      </trkpt>
      <trkpt lat="45.42244" lon="4.59058">
        <ele>705.6</ele>
        <time>1970-01-01T01:34:48.000Z</time>
      </trkpt>
      <trkpt lat="45.4225" lon="4.59048">
        <ele>700</ele>
        <time>1970-01-01T01:34:50.000Z</time>
      </trkpt>
      <trkpt lat="45.42241" lon="4.59055">
        <ele>706.2</ele>
        <time>1970-01-01T01:34:52.000Z</time>
      </trkpt>
      <trkpt lat="45.42237" lon="4.59058">
        <ele>710.2</ele>
        <time>1970-01-01T01:34:53.000Z</time>
      </trkpt>
      <trkpt lat="45.42263" lon="4.59059">
        <ele>697.4</ele>
        <time>1970-01-01T01:34:55.000Z</time>
      </trkpt>
      <trkpt lat="45.4229" lon="4.59063">
        <ele>689.5</ele>
        <time>1970-01-01T01:34:57.000Z</time>
      </trkpt>
      <trkpt lat="45.42304" lon="4.59064">
        <ele>686.6</ele>
        <time>1970-01-01T01:34:58.000Z</time>
      </trkpt>
      <trkpt lat="45.42327" lon="4.59068">
        <ele>684.8</ele>
        <time>1970-01-01T01:35:00.000Z</time>
      </trkpt>
      <trkpt lat="45.4233" lon="4.59071">
        <ele>683.9</ele>
        <time>1970-01-01T01:35:01.000Z</time>
      </trkpt>
      <trkpt lat="45.42323" lon="4.59063">
        <ele>682.2</ele>
        <time>1970-01-01T01:35:04.000Z</time>
      </trkpt>
      <trkpt lat="45.42321" lon="4.5906">
        <ele>681.7</ele>
        <time>1970-01-01T01:35:08.000Z</time>
      </trkpt>
      <trkpt lat="45.42333" lon="4.59057">
        <ele>679.4</ele>
        <time>1970-01-01T01:36:17.000Z</time>
      </trkpt>
      <trkpt lat="45.42332" lon="4.59053">
        <ele>678.8</ele>
        <time>1970-01-01T01:36:29.000Z</time>
      </trkpt>
      <trkpt lat="45.42333" lon="4.59049">
        <ele>678.2</ele>
        <time>1970-01-01T01:36:43.000Z</time>
      </trkpt>
      <trkpt lat="45.42336" lon="4.59047">
        <ele>677.4</ele>
        <time>1970-01-01T01:36:45.000Z</time>
      </trkpt>
      <trkpt lat="45.42346" lon="4.59044">
        <ele>675.5</ele>
        <time>1970-01-01T01:36:46.000Z</time>
      </trkpt>
      <trkpt lat="45.42349" lon="4.5904">
        <ele>674.6</ele>
        <time>1970-01-01T01:36:47.000Z</time>
      </trkpt>
      <trkpt lat="45.42356" lon="4.5903">
        <ele>673</ele>
        <time>1970-01-01T01:36:49.000Z</time>
      </trkpt>
      <trkpt lat="45.4236" lon="4.59023">
        <ele>672</ele>
        <time>1970-01-01T01:36:50.000Z</time>
      </trkpt>
      <trkpt lat="45.42364" lon="4.59002">
        <ele>669.7</ele>
        <time>1970-01-01T01:36:52.000Z</time>
      </trkpt>
      <trkpt lat="45.42364" lon="4.5899">
        <ele>668.5</ele>
        <time>1970-01-01T01:36:53.000Z</time>
      </trkpt>
      <trkpt lat="45.42366" lon="4.5897">
        <ele>666.3</ele>
        <time>1970-01-01T01:36:55.000Z</time>
      </trkpt>
      <trkpt lat="45.42368" lon="4.5896">
        <ele>665.1</ele>
        <time>1970-01-01T01:36:56.000Z</time>
      </trkpt>
      <trkpt lat="45.42378" lon="4.58941">
        <ele>662.6</ele>
        <time>1970-01-01T01:36:58.000Z</time>
      </trkpt>
      <trkpt lat="45.42384" lon="4.58932">
        <ele>661.6</ele>
        <time>1970-01-01T01:36:59.000Z</time>
      </trkpt>
      <trkpt lat="45.42397" lon="4.58909">
        <ele>658.5</ele>
        <time>1970-01-01T01:37:01.000Z</time>
      </trkpt>
      <trkpt lat="45.42405" lon="4.58898">
        <ele>657.1</ele>
        <time>1970-01-01T01:37:02.000Z</time>
      </trkpt>
      <trkpt lat="45.42419" lon="4.5888">
        <ele>654.3</ele>
        <time>1970-01-01T01:37:04.000Z</time>
      </trkpt>
      <trkpt lat="45.42441" lon="4.58871">
        <ele>651.4</ele>
        <time>1970-01-01T01:37:06.000Z</time>
      </trkpt>
      <trkpt lat="45.42468" lon="4.58867">
        <ele>648.3</ele>
        <time>1970-01-01T01:37:08.000Z</time>
      </trkpt>
      <trkpt lat="45.4249" lon="4.58863">
        <ele>645.9</ele>
        <time>1970-01-01T01:37:10.000Z</time>
      </trkpt>
      <trkpt lat="45.42502" lon="4.58861">
        <ele>644.8</ele>
        <time>1970-01-01T01:37:11.000Z</time>
      </trkpt>
      <trkpt lat="45.42524" lon="4.58857">
        <ele>642.6</ele>
        <time>1970-01-01T01:37:13.000Z</time>
      </trkpt>
      <trkpt lat="45.42536" lon="4.58854">
        <ele>641.5</ele>
        <time>1970-01-01T01:37:14.000Z</time>
      </trkpt>
      <trkpt lat="45.42559" lon="4.58848">
        <ele>639.1</ele>
        <time>1970-01-01T01:37:16.000Z</time>
      </trkpt>
      <trkpt lat="45.42583" lon="4.58846">
        <ele>636.1</ele>
        <time>1970-01-01T01:37:18.000Z</time>
      </trkpt>
      <trkpt lat="45.42595" lon="4.58845">
        <ele>634.5</ele>
        <time>1970-01-01T01:37:19.000Z</time>
      </trkpt>
      <trkpt lat="45.42617" lon="4.58844">
        <ele>631.5</ele>
        <time>1970-01-01T01:37:21.000Z</time>
      </trkpt>
      <trkpt lat="45.42636" lon="4.58847">
        <ele>629.2</ele>
        <time>1970-01-01T01:37:23.000Z</time>
      </trkpt>
      <trkpt lat="45.42654" lon="4.58853">
        <ele>628.6</ele>
        <time>1970-01-01T01:37:25.000Z</time>
      </trkpt>
      <trkpt lat="45.42673" lon="4.58861">
        <ele>628.3</ele>
        <time>1970-01-01T01:37:27.000Z</time>
      </trkpt>
      <trkpt lat="45.42682" lon="4.58866">
        <ele>628</ele>
        <time>1970-01-01T01:37:28.000Z</time>
      </trkpt>
      <trkpt lat="45.42696" lon="4.58878">
        <ele>627.5</ele>
        <time>1970-01-01T01:37:30.000Z</time>
      </trkpt>
      <trkpt lat="45.42701" lon="4.58884">
        <ele>627.3</ele>
        <time>1970-01-01T01:37:31.000Z</time>
      </trkpt>
      <trkpt lat="45.42706" lon="4.58888">
        <ele>627.1</ele>
        <time>1970-01-01T01:37:32.000Z</time>
      </trkpt>
      <trkpt lat="45.42712" lon="4.58892">
        <ele>627.2</ele>
        <time>1970-01-01T01:37:34.000Z</time>
      </trkpt>
      <trkpt lat="45.42716" lon="4.58887">
        <ele>626.2</ele>
        <time>1970-01-01T01:37:36.000Z</time>
      </trkpt>
      <trkpt lat="45.42713" lon="4.58878">
        <ele>624.6</ele>
        <time>1970-01-01T01:37:38.000Z</time>
      </trkpt>
      <trkpt lat="45.42713" lon="4.5887">
        <ele>623.4</ele>
        <time>1970-01-01T01:37:40.000Z</time>
      </trkpt>
      <trkpt lat="45.42716" lon="4.58868">
        <ele>622.6</ele>
        <time>1970-01-01T01:37:43.000Z</time>
      </trkpt>
      <trkpt lat="45.42721" lon="4.58861">
        <ele>622</ele>
        <time>1970-01-01T01:37:47.000Z</time>
      </trkpt>
      <trkpt lat="45.4272" lon="4.58846">
        <ele>620.1</ele>
        <time>1970-01-01T01:37:49.000Z</time>
      </trkpt>
      <trkpt lat="45.42721" lon="4.58854">
        <ele>621</ele>
        <time>1970-01-01T01:37:52.000Z</time>
      </trkpt>
      <trkpt lat="45.42716" lon="4.58856">
        <ele>621.4</ele>
        <time>1970-01-01T01:37:53.000Z</time>
      </trkpt>
      <trkpt lat="45.42715" lon="4.58852">
        <ele>620.9</ele>
        <time>1970-01-01T01:37:55.000Z</time>
      </trkpt>
      <trkpt lat="45.42714" lon="4.58848">
        <ele>620.4</ele>
        <time>1970-01-01T01:37:56.000Z</time>
      </trkpt>
      <trkpt lat="45.42714" lon="4.58844">
        <ele>619.8</ele>
        <time>1970-01-01T01:37:58.000Z</time>
      </trkpt>
      <trkpt lat="45.42715" lon="4.5884">
        <ele>619.2</ele>
        <time>1970-01-01T01:38:00.000Z</time>
      </trkpt>
      <trkpt lat="45.4271" lon="4.58833">
        <ele>618</ele>
        <time>1970-01-01T01:38:03.000Z</time>
      </trkpt>
      <trkpt lat="45.42709" lon="4.58828">
        <ele>617.4</ele>
        <time>1970-01-01T01:38:06.000Z</time>
      </trkpt>
      <trkpt lat="45.42708" lon="4.58822">
        <ele>616.8</ele>
        <time>1970-01-01T01:38:08.000Z</time>
      </trkpt>
      <trkpt lat="45.42707" lon="4.58814">
        <ele>615.6</ele>
        <time>1970-01-01T01:38:10.000Z</time>
      </trkpt>
      <trkpt lat="45.42707" lon="4.58808">
        <ele>615.1</ele>
        <time>1970-01-01T01:38:13.000Z</time>
      </trkpt>
      <trkpt lat="45.42706" lon="4.58805">
        <ele>614.5</ele>
        <time>1970-01-01T01:38:15.000Z</time>
      </trkpt>
      <trkpt lat="45.42707" lon="4.588">
        <ele>614</ele>
        <time>1970-01-01T01:38:19.000Z</time>
      </trkpt>
      <trkpt lat="45.42707" lon="4.58796">
        <ele>613.5</ele>
        <time>1970-01-01T01:38:24.000Z</time>
      </trkpt>
      <trkpt lat="45.4271" lon="4.58795">
        <ele>613.2</ele>
        <time>1970-01-01T01:38:30.000Z</time>
      </trkpt>
      <trkpt lat="45.42705" lon="4.58783">
        <ele>612.3</ele>
        <time>1970-01-01T01:38:33.000Z</time>
      </trkpt>
      <trkpt lat="45.42702" lon="4.58774">
        <ele>612.1</ele>
        <time>1970-01-01T01:38:35.000Z</time>
      </trkpt>
      <trkpt lat="45.42697" lon="4.58761">
        <ele>611.1</ele>
        <time>1970-01-01T01:38:36.000Z</time>
      </trkpt>
      <trkpt lat="45.42692" lon="4.58755">
        <ele>610.8</ele>
        <time>1970-01-01T01:38:37.000Z</time>
      </trkpt>
      <trkpt lat="45.42689" lon="4.58749">
        <ele>610.6</ele>
        <time>1970-01-01T01:38:38.000Z</time>
      </trkpt>
      <trkpt lat="45.42687" lon="4.58744">
        <ele>610.4</ele>
        <time>1970-01-01T01:38:39.000Z</time>
      </trkpt>
      <trkpt lat="45.42686" lon="4.58738">
        <ele>610.1</ele>
        <time>1970-01-01T01:38:41.000Z</time>
      </trkpt>
      <trkpt lat="45.42688" lon="4.58731">
        <ele>609.9</ele>
        <time>1970-01-01T01:38:43.000Z</time>
      </trkpt>
      <trkpt lat="45.42691" lon="4.58729">
        <ele>609.6</ele>
        <time>1970-01-01T01:38:44.000Z</time>
      </trkpt>
      <trkpt lat="45.42694" lon="4.58728">
        <ele>609.5</ele>
        <time>1970-01-01T01:38:46.000Z</time>
      </trkpt>
      <trkpt lat="45.42696" lon="4.5873">
        <ele>609.4</ele>
        <time>1970-01-01T01:38:48.000Z</time>
      </trkpt>
      <trkpt lat="45.42701" lon="4.58735">
        <ele>609</ele>
        <time>1970-01-01T01:38:51.000Z</time>
      </trkpt>
      <trkpt lat="45.42704" lon="4.58732">
        <ele>608.8</ele>
        <time>1970-01-01T01:38:53.000Z</time>
      </trkpt>
      <trkpt lat="45.42705" lon="4.58729">
        <ele>608.7</ele>
        <time>1970-01-01T01:38:54.000Z</time>
      </trkpt>
      <trkpt lat="45.42703" lon="4.58711">
        <ele>607.8</ele>
        <time>1970-01-01T01:38:56.000Z</time>
      </trkpt>
      <trkpt lat="45.42701" lon="4.58697">
        <ele>607.2</ele>
        <time>1970-01-01T01:38:58.000Z</time>
      </trkpt>
      <trkpt lat="45.42701" lon="4.58691">
        <ele>607</ele>
        <time>1970-01-01T01:38:59.000Z</time>
      </trkpt>
      <trkpt lat="45.42704" lon="4.58675">
        <ele>606.4</ele>
        <time>1970-01-01T01:39:01.000Z</time>
      </trkpt>
      <trkpt lat="45.42709" lon="4.58656">
        <ele>605.9</ele>
        <time>1970-01-01T01:39:03.000Z</time>
      </trkpt>
      <trkpt lat="45.42714" lon="4.58636">
        <ele>605.5</ele>
        <time>1970-01-01T01:39:05.000Z</time>
      </trkpt>
      <trkpt lat="45.42722" lon="4.58605">
        <ele>605.1</ele>
        <time>1970-01-01T01:39:07.000Z</time>
      </trkpt>
      <trkpt lat="45.42725" lon="4.58572">
        <ele>604.7</ele>
        <time>1970-01-01T01:39:09.000Z</time>
      </trkpt>
      <trkpt lat="45.42724" lon="4.58554">
        <ele>605.6</ele>
        <time>1970-01-01T01:39:11.000Z</time>
      </trkpt>
      <trkpt lat="45.42723" lon="4.58547">
        <ele>605.8</ele>
        <time>1970-01-01T01:39:12.000Z</time>
      </trkpt>
      <trkpt lat="45.4272" lon="4.58546">
        <ele>605.9</ele>
        <time>1970-01-01T01:39:16.000Z</time>
      </trkpt>
      <trkpt lat="45.42717" lon="4.58551">
        <ele>606.1</ele>
        <time>1970-01-01T01:39:18.000Z</time>
      </trkpt>
      <trkpt lat="45.42714" lon="4.58553">
        <ele>606.3</ele>
        <time>1970-01-01T01:39:19.000Z</time>
      </trkpt>
      <trkpt lat="45.42712" lon="4.58557">
        <ele>606.4</ele>
        <time>1970-01-01T01:39:22.000Z</time>
      </trkpt>
      <trkpt lat="45.42712" lon="4.58563">
        <ele>606.8</ele>
        <time>1970-01-01T01:39:27.000Z</time>
      </trkpt>
      <trkpt lat="45.42712" lon="4.58567">
        <ele>606.9</ele>
        <time>1970-01-01T01:39:32.000Z</time>
      </trkpt>
      <trkpt lat="45.4271" lon="4.58572">
        <ele>607</ele>
        <time>1970-01-01T01:39:35.000Z</time>
      </trkpt>
      <trkpt lat="45.42709" lon="4.58576">
        <ele>607.1</ele>
        <time>1970-01-01T01:39:38.000Z</time>
      </trkpt>
      <trkpt lat="45.42707" lon="4.58581">
        <ele>607.2</ele>
        <time>1970-01-01T01:39:40.000Z</time>
      </trkpt>
      <trkpt lat="45.42702" lon="4.58579">
        <ele>607.4</ele>
        <time>1970-01-01T01:39:43.000Z</time>
      </trkpt>
      <trkpt lat="45.427" lon="4.58582">
        <ele>607.5</ele>
        <time>1970-01-01T01:39:46.000Z</time>
      </trkpt>
      <trkpt lat="45.42699" lon="4.58586">
        <ele>607.6</ele>
        <time>1970-01-01T01:39:48.000Z</time>
      </trkpt>
      <trkpt lat="45.42699" lon="4.5859">
        <ele>607.6</ele>
        <time>1970-01-01T01:39:52.000Z</time>
      </trkpt>
      <trkpt lat="45.42696" lon="4.58594">
        <ele>607.8</ele>
        <time>1970-01-01T01:39:54.000Z</time>
      </trkpt>
      <trkpt lat="45.42694" lon="4.58594">
        <ele>607.8</ele>
        <time>1970-01-01T01:39:58.000Z</time>
      </trkpt>
      <trkpt lat="45.42694" lon="4.5859">
        <ele>607.9</ele>
        <time>1970-01-01T01:40:01.000Z</time>
      </trkpt>
      <trkpt lat="45.42694" lon="4.58587">
        <ele>608</ele>
        <time>1970-01-01T01:40:07.000Z</time>
      </trkpt>
      <trkpt lat="45.42693" lon="4.58583">
        <ele>608.4</ele>
        <time>1970-01-01T01:40:10.000Z</time>
      </trkpt>
      <trkpt lat="45.42693" lon="4.58579">
        <ele>608.8</ele>
        <time>1970-01-01T01:40:13.000Z</time>
      </trkpt>
      <trkpt lat="45.42693" lon="4.58576">
        <ele>609.2</ele>
        <time>1970-01-01T01:40:14.000Z</time>
      </trkpt>
      <trkpt lat="45.42696" lon="4.58573">
        <ele>608.8</ele>
        <time>1970-01-01T01:40:17.000Z</time>
      </trkpt>
      <trkpt lat="45.42698" lon="4.58569">
        <ele>608.5</ele>
        <time>1970-01-01T01:40:22.000Z</time>
      </trkpt>
      <trkpt lat="45.42701" lon="4.58566">
        <ele>608.2</ele>
        <time>1970-01-01T01:40:28.000Z</time>
      </trkpt>
      <trkpt lat="45.42703" lon="4.58563">
        <ele>608.6</ele>
        <time>1970-01-01T01:40:31.000Z</time>
      </trkpt>
      <trkpt lat="45.42704" lon="4.58553">
        <ele>609.2</ele>
        <time>1970-01-01T01:40:34.000Z</time>
      </trkpt>
      <trkpt lat="45.42702" lon="4.58549">
        <ele>609.6</ele>
        <time>1970-01-01T01:40:37.000Z</time>
      </trkpt>
      <trkpt lat="45.42705" lon="4.58545">
        <ele>609.6</ele>
        <time>1970-01-01T01:40:41.000Z</time>
      </trkpt>
      <trkpt lat="45.42707" lon="4.58542">
        <ele>609.6</ele>
        <time>1970-01-01T01:40:45.000Z</time>
      </trkpt>
      <trkpt lat="45.42708" lon="4.58538">
        <ele>609.7</ele>
        <time>1970-01-01T01:40:47.000Z</time>
      </trkpt>
      <trkpt lat="45.42709" lon="4.58533">
        <ele>608.9</ele>
        <time>1970-01-01T01:40:50.000Z</time>
      </trkpt>
      <trkpt lat="45.42712" lon="4.58526">
        <ele>607.7</ele>
        <time>1970-01-01T01:40:53.000Z</time>
      </trkpt>
      <trkpt lat="45.42716" lon="4.58521">
        <ele>606.5</ele>
        <time>1970-01-01T01:40:56.000Z</time>
      </trkpt>
      <trkpt lat="45.42718" lon="4.58518">
        <ele>605.8</ele>
        <time>1970-01-01T01:40:57.000Z</time>
      </trkpt>
      <trkpt lat="45.4272" lon="4.58515">
        <ele>605.1</ele>
        <time>1970-01-01T01:40:58.000Z</time>
      </trkpt>
      <trkpt lat="45.42722" lon="4.58513">
        <ele>604.4</ele>
        <time>1970-01-01T01:41:00.000Z</time>
      </trkpt>
      <trkpt lat="45.42725" lon="4.58511">
        <ele>603.7</ele>
        <time>1970-01-01T01:41:02.000Z</time>
      </trkpt>
      <trkpt lat="45.42729" lon="4.58509">
        <ele>603.4</ele>
        <time>1970-01-01T01:41:04.000Z</time>
      </trkpt>
      <trkpt lat="45.42732" lon="4.58507">
        <ele>603.2</ele>
        <time>1970-01-01T01:41:05.000Z</time>
      </trkpt>
      <trkpt lat="45.42736" lon="4.58504">
        <ele>602.9</ele>
        <time>1970-01-01T01:41:07.000Z</time>
      </trkpt>
      <trkpt lat="45.42738" lon="4.58499">
        <ele>602.7</ele>
        <time>1970-01-01T01:41:09.000Z</time>
      </trkpt>
      <trkpt lat="45.42739" lon="4.58494">
        <ele>602.5</ele>
        <time>1970-01-01T01:41:12.000Z</time>
      </trkpt>
      <trkpt lat="45.42737" lon="4.58502">
        <ele>602.1</ele>
        <time>1970-01-01T01:41:15.000Z</time>
      </trkpt>
      <trkpt lat="45.4274" lon="4.58498">
        <ele>601.8</ele>
        <time>1970-01-01T01:41:17.000Z</time>
      </trkpt>
      <trkpt lat="45.42742" lon="4.58493">
        <ele>601.6</ele>
        <time>1970-01-01T01:41:20.000Z</time>
      </trkpt>
      <trkpt lat="45.42743" lon="4.58489">
        <ele>601.4</ele>
        <time>1970-01-01T01:41:21.000Z</time>
      </trkpt>
      <trkpt lat="45.42745" lon="4.58484">
        <ele>601.2</ele>
        <time>1970-01-01T01:41:23.000Z</time>
      </trkpt>
      <trkpt lat="45.42746" lon="4.58479">
        <ele>601</ele>
        <time>1970-01-01T01:41:24.000Z</time>
      </trkpt>
      <trkpt lat="45.42746" lon="4.58471">
        <ele>600.4</ele>
        <time>1970-01-01T01:41:27.000Z</time>
      </trkpt>
      <trkpt lat="45.42744" lon="4.58467">
        <ele>600.1</ele>
        <time>1970-01-01T01:41:29.000Z</time>
      </trkpt>
      <trkpt lat="45.42741" lon="4.58463">
        <ele>599.6</ele>
        <time>1970-01-01T01:41:31.000Z</time>
      </trkpt>
      <trkpt lat="45.42738" lon="4.5846">
        <ele>599.2</ele>
        <time>1970-01-01T01:41:33.000Z</time>
      </trkpt>
      <trkpt lat="45.42735" lon="4.58457">
        <ele>598.8</ele>
        <time>1970-01-01T01:41:35.000Z</time>
      </trkpt>
      <trkpt lat="45.42732" lon="4.58454">
        <ele>598.5</ele>
        <time>1970-01-01T01:41:38.000Z</time>
      </trkpt>
      <trkpt lat="45.42728" lon="4.58449">
        <ele>599.2</ele>
        <time>1970-01-01T01:41:41.000Z</time>
      </trkpt>
      <trkpt lat="45.42725" lon="4.58446">
        <ele>599.8</ele>
        <time>1970-01-01T01:41:45.000Z</time>
      </trkpt>
      <trkpt lat="45.42724" lon="4.58442">
        <ele>600.2</ele>
        <time>1970-01-01T01:41:46.000Z</time>
      </trkpt>
      <trkpt lat="45.42723" lon="4.58438">
        <ele>600.7</ele>
        <time>1970-01-01T01:41:49.000Z</time>
      </trkpt>
      <trkpt lat="45.42723" lon="4.58433">
        <ele>601.1</ele>
        <time>1970-01-01T01:41:51.000Z</time>
      </trkpt>
      <trkpt lat="45.42722" lon="4.58429">
        <ele>601.6</ele>
        <time>1970-01-01T01:42:16.000Z</time>
      </trkpt>
      <trkpt lat="45.42719" lon="4.58428">
        <ele>602</ele>
        <time>1970-01-01T01:42:19.000Z</time>
      </trkpt>
      <trkpt lat="45.42718" lon="4.58422">
        <ele>602.7</ele>
        <time>1970-01-01T01:42:21.000Z</time>
      </trkpt>
      <trkpt lat="45.42715" lon="4.58418">
        <ele>603.3</ele>
        <time>1970-01-01T01:42:24.000Z</time>
      </trkpt>
      <trkpt lat="45.42713" lon="4.58415">
        <ele>603.9</ele>
        <time>1970-01-01T01:42:28.000Z</time>
      </trkpt>
      <trkpt lat="45.4271" lon="4.58411">
        <ele>604.5</ele>
        <time>1970-01-01T01:42:31.000Z</time>
      </trkpt>
      <trkpt lat="45.42708" lon="4.58408">
        <ele>605</ele>
        <time>1970-01-01T01:42:34.000Z</time>
      </trkpt>
      <trkpt lat="45.42704" lon="4.58408">
        <ele>605.8</ele>
        <time>1970-01-01T01:42:37.000Z</time>
      </trkpt>
      <trkpt lat="45.42701" lon="4.58409">
        <ele>606.4</ele>
        <time>1970-01-01T01:42:39.000Z</time>
      </trkpt>
      <trkpt lat="45.42698" lon="4.58414">
        <ele>607.5</ele>
        <time>1970-01-01T01:42:42.000Z</time>
      </trkpt>
      <trkpt lat="45.42696" lon="4.58419">
        <ele>608.4</ele>
        <time>1970-01-01T01:42:44.000Z</time>
      </trkpt>
      <trkpt lat="45.42694" lon="4.58424">
        <ele>609.2</ele>
        <time>1970-01-01T01:42:46.000Z</time>
      </trkpt>
      <trkpt lat="45.42693" lon="4.58428">
        <ele>609.8</ele>
        <time>1970-01-01T01:42:49.000Z</time>
      </trkpt>
      <trkpt lat="45.42692" lon="4.58433">
        <ele>610.7</ele>
        <time>1970-01-01T01:42:52.000Z</time>
      </trkpt>
      <trkpt lat="45.42691" lon="4.58438">
        <ele>611.5</ele>
        <time>1970-01-01T01:42:55.000Z</time>
      </trkpt>
      <trkpt lat="45.4269" lon="4.58442">
        <ele>612.3</ele>
        <time>1970-01-01T01:42:58.000Z</time>
      </trkpt>
      <trkpt lat="45.42688" lon="4.58445">
        <ele>613.1</ele>
        <time>1970-01-01T01:43:01.000Z</time>
      </trkpt>
      <trkpt lat="45.42687" lon="4.5845">
        <ele>616.3</ele>
        <time>1970-01-01T01:43:10.000Z</time>
      </trkpt>
      <trkpt lat="45.42687" lon="4.58444">
        <ele>616.5</ele>
        <time>1970-01-01T01:44:49.000Z</time>
      </trkpt>
      <trkpt lat="45.42687" lon="4.58439">
        <ele>616.6</ele>
        <time>1970-01-01T01:44:52.000Z</time>
      </trkpt>
      <trkpt lat="45.42688" lon="4.58435">
        <ele>616.8</ele>
        <time>1970-01-01T01:44:57.000Z</time>
      </trkpt>
      <trkpt lat="45.42686" lon="4.58431">
        <ele>617</ele>
        <time>1970-01-01T01:45:02.000Z</time>
      </trkpt>
      <trkpt lat="45.42683" lon="4.58429">
        <ele>617.1</ele>
        <time>1970-01-01T01:45:04.000Z</time>
      </trkpt>
      <trkpt lat="45.42682" lon="4.58425">
        <ele>619.6</ele>
        <time>1970-01-01T01:45:06.000Z</time>
      </trkpt>
      <trkpt lat="45.42679" lon="4.5842">
        <ele>619.6</ele>
        <time>1970-01-01T01:45:08.000Z</time>
      </trkpt>
      <trkpt lat="45.42676" lon="4.58414">
        <ele>619.7</ele>
        <time>1970-01-01T01:45:09.000Z</time>
      </trkpt>
      <trkpt lat="45.42673" lon="4.5841">
        <ele>619.8</ele>
        <time>1970-01-01T01:45:12.000Z</time>
      </trkpt>
      <trkpt lat="45.42671" lon="4.58406">
        <ele>619.9</ele>
        <time>1970-01-01T01:45:15.000Z</time>
      </trkpt>
      <trkpt lat="45.4267" lon="4.58401">
        <ele>619.9</ele>
        <time>1970-01-01T01:45:16.000Z</time>
      </trkpt>
      <trkpt lat="45.42669" lon="4.58397">
        <ele>620</ele>
        <time>1970-01-01T01:45:18.000Z</time>
      </trkpt>
      <trkpt lat="45.42666" lon="4.58387">
        <ele>620.5</ele>
        <time>1970-01-01T01:45:21.000Z</time>
      </trkpt>
      <trkpt lat="45.42664" lon="4.5838">
        <ele>620.9</ele>
        <time>1970-01-01T01:45:23.000Z</time>
      </trkpt>
      <trkpt lat="45.42663" lon="4.58375">
        <ele>621.2</ele>
        <time>1970-01-01T01:45:24.000Z</time>
      </trkpt>
      <trkpt lat="45.42662" lon="4.5837">
        <ele>621.5</ele>
        <time>1970-01-01T01:45:25.000Z</time>
      </trkpt>
      <trkpt lat="45.42661" lon="4.58366">
        <ele>621.8</ele>
        <time>1970-01-01T01:45:26.000Z</time>
      </trkpt>
      <trkpt lat="45.42658" lon="4.58359">
        <ele>622.4</ele>
        <time>1970-01-01T01:45:28.000Z</time>
      </trkpt>
      <trkpt lat="45.42655" lon="4.58351">
        <ele>622.9</ele>
        <time>1970-01-01T01:45:30.000Z</time>
      </trkpt>
      <trkpt lat="45.42652" lon="4.58344">
        <ele>623.5</ele>
        <time>1970-01-01T01:45:32.000Z</time>
      </trkpt>
      <trkpt lat="45.4265" lon="4.58337">
        <ele>623.9</ele>
        <time>1970-01-01T01:45:33.000Z</time>
      </trkpt>
      <trkpt lat="45.42648" lon="4.58333">
        <ele>624.2</ele>
        <time>1970-01-01T01:45:34.000Z</time>
      </trkpt>
      <trkpt lat="45.42646" lon="4.58329">
        <ele>624.5</ele>
        <time>1970-01-01T01:45:35.000Z</time>
      </trkpt>
      <trkpt lat="45.42645" lon="4.58322">
        <ele>624.9</ele>
        <time>1970-01-01T01:45:37.000Z</time>
      </trkpt>
      <trkpt lat="45.42644" lon="4.58318">
        <ele>625.2</ele>
        <time>1970-01-01T01:45:38.000Z</time>
      </trkpt>
      <trkpt lat="45.42642" lon="4.58308">
        <ele>625.7</ele>
        <time>1970-01-01T01:45:41.000Z</time>
      </trkpt>
      <trkpt lat="45.42642" lon="4.58304">
        <ele>625.9</ele>
        <time>1970-01-01T01:45:42.000Z</time>
      </trkpt>
      <trkpt lat="45.42643" lon="4.583">
        <ele>625.8</ele>
        <time>1970-01-01T01:45:44.000Z</time>
      </trkpt>
      <trkpt lat="45.42644" lon="4.58296">
        <ele>625.7</ele>
        <time>1970-01-01T01:45:46.000Z</time>
      </trkpt>
      <trkpt lat="45.42645" lon="4.5829">
        <ele>625.6</ele>
        <time>1970-01-01T01:45:48.000Z</time>
      </trkpt>
      <trkpt lat="45.42647" lon="4.58284">
        <ele>625.5</ele>
        <time>1970-01-01T01:45:51.000Z</time>
      </trkpt>
      <trkpt lat="45.42648" lon="4.58279">
        <ele>625.4</ele>
        <time>1970-01-01T01:45:52.000Z</time>
      </trkpt>
      <trkpt lat="45.42649" lon="4.58276">
        <ele>625.3</ele>
        <time>1970-01-01T01:45:54.000Z</time>
      </trkpt>
      <trkpt lat="45.42649" lon="4.58271">
        <ele>625.2</ele>
        <time>1970-01-01T01:45:56.000Z</time>
      </trkpt>
      <trkpt lat="45.42649" lon="4.58265">
        <ele>625.1</ele>
        <time>1970-01-01T01:45:59.000Z</time>
      </trkpt>
      <trkpt lat="45.4265" lon="4.58259">
        <ele>625</ele>
        <time>1970-01-01T01:46:01.000Z</time>
      </trkpt>
      <trkpt lat="45.42648" lon="4.58254">
        <ele>624.8</ele>
        <time>1970-01-01T01:46:04.000Z</time>
      </trkpt>
      <trkpt lat="45.42645" lon="4.58248">
        <ele>626.6</ele>
        <time>1970-01-01T01:46:07.000Z</time>
      </trkpt>
      <trkpt lat="45.42642" lon="4.58244">
        <ele>627.9</ele>
        <time>1970-01-01T01:46:09.000Z</time>
      </trkpt>
      <trkpt lat="45.42639" lon="4.58244">
        <ele>628.5</ele>
        <time>1970-01-01T01:46:11.000Z</time>
      </trkpt>
      <trkpt lat="45.42636" lon="4.58243">
        <ele>629.3</ele>
        <time>1970-01-01T01:46:13.000Z</time>
      </trkpt>
      <trkpt lat="45.42633" lon="4.58242">
        <ele>630.2</ele>
        <time>1970-01-01T01:46:16.000Z</time>
      </trkpt>
      <trkpt lat="45.4263" lon="4.5824">
        <ele>631</ele>
        <time>1970-01-01T01:46:19.000Z</time>
      </trkpt>
      <trkpt lat="45.42626" lon="4.58238">
        <ele>631.9</ele>
        <time>1970-01-01T01:46:23.000Z</time>
      </trkpt>
      <trkpt lat="45.42625" lon="4.58233">
        <ele>632.7</ele>
        <time>1970-01-01T01:46:29.000Z</time>
      </trkpt>
      <trkpt lat="45.42623" lon="4.58226">
        <ele>633.4</ele>
        <time>1970-01-01T01:46:31.000Z</time>
      </trkpt>
      <trkpt lat="45.42622" lon="4.58222">
        <ele>633.8</ele>
        <time>1970-01-01T01:46:33.000Z</time>
      </trkpt>
      <trkpt lat="45.4262" lon="4.58212">
        <ele>634.9</ele>
        <time>1970-01-01T01:46:36.000Z</time>
      </trkpt>
      <trkpt lat="45.4262" lon="4.58208">
        <ele>635.4</ele>
        <time>1970-01-01T01:46:39.000Z</time>
      </trkpt>
      <trkpt lat="45.42619" lon="4.58205">
        <ele>635.9</ele>
        <time>1970-01-01T01:46:42.000Z</time>
      </trkpt>
      <trkpt lat="45.42619" lon="4.58201">
        <ele>636.5</ele>
        <time>1970-01-01T01:46:46.000Z</time>
      </trkpt>
      <trkpt lat="45.42619" lon="4.58197">
        <ele>636.7</ele>
        <time>1970-01-01T01:46:51.000Z</time>
      </trkpt>
      <trkpt lat="45.42618" lon="4.58193">
        <ele>636.7</ele>
        <time>1970-01-01T01:47:08.000Z</time>
      </trkpt>
      <trkpt lat="45.42618" lon="4.58189">
        <ele>636.4</ele>
        <time>1970-01-01T01:47:33.000Z</time>
      </trkpt>
      <trkpt lat="45.42617" lon="4.58185">
        <ele>636.1</ele>
        <time>1970-01-01T01:47:35.000Z</time>
      </trkpt>
      <trkpt lat="45.42617" lon="4.58181">
        <ele>636.3</ele>
        <time>1970-01-01T01:47:36.000Z</time>
      </trkpt>
      <trkpt lat="45.42614" lon="4.58163">
        <ele>637.2</ele>
        <time>1970-01-01T01:47:38.000Z</time>
      </trkpt>
      <trkpt lat="45.42612" lon="4.58155">
        <ele>637.6</ele>
        <time>1970-01-01T01:47:39.000Z</time>
      </trkpt>
      <trkpt lat="45.42612" lon="4.58146">
        <ele>638.3</ele>
        <time>1970-01-01T01:47:40.000Z</time>
      </trkpt>
      <trkpt lat="45.42613" lon="4.58138">
        <ele>638.9</ele>
        <time>1970-01-01T01:47:41.000Z</time>
      </trkpt>
      <trkpt lat="45.42615" lon="4.58121">
        <ele>639.6</ele>
        <time>1970-01-01T01:47:43.000Z</time>
      </trkpt>
      <trkpt lat="45.42618" lon="4.58112">
        <ele>639.6</ele>
        <time>1970-01-01T01:47:44.000Z</time>
      </trkpt>
      <trkpt lat="45.42625" lon="4.58094">
        <ele>639.9</ele>
        <time>1970-01-01T01:47:46.000Z</time>
      </trkpt>
      <trkpt lat="45.42629" lon="4.58076">
        <ele>640.2</ele>
        <time>1970-01-01T01:47:48.000Z</time>
      </trkpt>
      <trkpt lat="45.42631" lon="4.58064">
        <ele>639.6</ele>
        <time>1970-01-01T01:47:50.000Z</time>
      </trkpt>
      <trkpt lat="45.42632" lon="4.58059">
        <ele>639.5</ele>
        <time>1970-01-01T01:47:52.000Z</time>
      </trkpt>
      <trkpt lat="45.42632" lon="4.58063">
        <ele>639.5</ele>
        <time>1970-01-01T01:48:18.000Z</time>
      </trkpt>
    </trkseg>
  </trk>
</gpx>